<?xml version='1.0' encoding='UTF-8'?><gpx version="1.1" creator="JPX - https://github.com/jenetics/jpx" xmlns="http://www.topografix.com/GPX/1/1"><trk><trkseg><trkpt lat="45.0301399" lon="7.2309499"><ele>1142.0</ele><time>2026-04-26T06:05:13.563Z</time></trkpt><trkpt lat="45.0301958" lon="7.2308965"><ele>1142.0</ele><time>2026-04-26T06:05:18.635Z</time></trkpt><trkpt lat="45.0302307" lon="7.230807"><ele>1142.0</ele><time>2026-04-26T06:05:24.51Z</time></trkpt><trkpt lat="45.0302725" lon="7.2307273"><ele>1142.0</ele><time>2026-04-26T06:05:30.642Z</time></trkpt><trkpt lat="45.0302945" lon="7.2306304"><ele>1142.0</ele><time>2026-04-26T06:05:35.637Z</time></trkpt><trkpt lat="45.030339" lon="7.2306957"><ele>1142.0</ele><time>2026-04-26T06:05:41.586Z</time></trkpt><trkpt lat="45.0303889" lon="7.2306365"><ele>1142.0</ele><time>2026-04-26T06:05:47.544Z</time></trkpt><trkpt lat="45.0304394" lon="7.2305651"><ele>1141.5714285714287</ele><time>2026-04-26T06:05:53.594Z</time></trkpt><trkpt lat="45.0304795" lon="7.2304843"><ele>1141.142857142857</ele><time>2026-04-26T06:05:58.588Z</time></trkpt><trkpt lat="45.03051" lon="7.2303887"><ele>1140.7142857142858</ele><time>2026-04-26T06:06:04.645Z</time></trkpt><trkpt lat="45.0305338" lon="7.2302954"><ele>1140.2857142857142</ele><time>2026-04-26T06:06:10.596Z</time></trkpt><trkpt lat="45.0305752" lon="7.230218"><ele>1139.857142857143</ele><time>2026-04-26T06:06:15.655Z</time></trkpt><trkpt lat="45.0305913" lon="7.2301197"><ele>1139.4285714285716</ele><time>2026-04-26T06:06:21.646Z</time></trkpt><trkpt lat="45.0306117" lon="7.2300348"><ele>1139.0</ele><time>2026-04-26T06:06:28.553Z</time></trkpt><trkpt lat="45.030614" lon="7.2299447"><ele>1139.0</ele><time>2026-04-26T06:06:34.61Z</time></trkpt><trkpt lat="45.03067" lon="7.2298857"><ele>1139.0</ele><time>2026-04-26T06:06:41.623Z</time></trkpt><trkpt lat="45.0306723" lon="7.2299901"><ele>1139.0</ele><time>2026-04-26T06:06:53.573Z</time></trkpt><trkpt lat="45.0306564" lon="7.2300814"><ele>1139.0</ele><time>2026-04-26T06:06:58.624Z</time></trkpt><trkpt lat="45.0306301" lon="7.2301762"><ele>1139.0</ele><time>2026-04-26T06:07:04.573Z</time></trkpt><trkpt lat="45.0306079" lon="7.2302598"><ele>1139.0</ele><time>2026-04-26T06:07:09.568Z</time></trkpt><trkpt lat="45.030586" lon="7.2303491"><ele>1139.0</ele><time>2026-04-26T06:07:15.625Z</time></trkpt><trkpt lat="45.0305597" lon="7.2304509"><ele>1139.0</ele><time>2026-04-26T06:07:21.553Z</time></trkpt><trkpt lat="45.0305429" lon="7.2305469"><ele>1139.0</ele><time>2026-04-26T06:07:27.532Z</time></trkpt><trkpt lat="45.0305356" lon="7.2306435"><ele>1139.0</ele><time>2026-04-26T06:07:33.582Z</time></trkpt><trkpt lat="45.0305539" lon="7.2307425"><ele>1139.0</ele><time>2026-04-26T06:07:40.594Z</time></trkpt><trkpt lat="45.0305826" lon="7.2308395"><ele>1139.0</ele><time>2026-04-26T06:07:45.589Z</time></trkpt><trkpt lat="45.0305913" lon="7.2309317"><ele>1139.0</ele><time>2026-04-26T06:07:50.582Z</time></trkpt><trkpt lat="45.0306011" lon="7.2310242"><ele>1139.0</ele><time>2026-04-26T06:07:56.64Z</time></trkpt><trkpt lat="45.0306126" lon="7.2311211"><ele>1139.4285714285716</ele><time>2026-04-26T06:08:02.59Z</time></trkpt><trkpt lat="45.0306227" lon="7.2312194"><ele>1139.857142857143</ele><time>2026-04-26T06:08:08.646Z</time></trkpt><trkpt lat="45.0306373" lon="7.2313179"><ele>1140.2857142857142</ele><time>2026-04-26T06:08:14.597Z</time></trkpt><trkpt lat="45.03065" lon="7.2314086"><ele>1140.7142857142858</ele><time>2026-04-26T06:08:20.547Z</time></trkpt><trkpt lat="45.0306683" lon="7.2315006"><ele>1141.142857142857</ele><time>2026-04-26T06:08:25.545Z</time></trkpt><trkpt lat="45.0306812" lon="7.2316021"><ele>1141.5714285714287</ele><time>2026-04-26T06:08:31.598Z</time></trkpt><trkpt lat="45.0306926" lon="7.2317018"><ele>1142.0</ele><time>2026-04-26T06:08:38.594Z</time></trkpt><trkpt lat="45.0307238" lon="7.2317878"><ele>1142.0</ele><time>2026-04-26T06:08:44.573Z</time></trkpt><trkpt lat="45.030773" lon="7.2318709"><ele>1142.0</ele><time>2026-04-26T06:08:49.514Z</time></trkpt><trkpt lat="45.0308343" lon="7.2319214"><ele>1142.0</ele><time>2026-04-26T06:08:54.549Z</time></trkpt><trkpt lat="45.0308996" lon="7.2319613"><ele>1142.0</ele><time>2026-04-26T06:08:59.936Z</time></trkpt><trkpt lat="45.0309748" lon="7.2319799"><ele>1142.0</ele><time>2026-04-26T06:09:11.175Z</time></trkpt><trkpt lat="45.0310285" lon="7.2319242"><ele>1142.0</ele><time>2026-04-26T06:09:19.564Z</time></trkpt><trkpt lat="45.0310809" lon="7.2318639"><ele>1142.0</ele><time>2026-04-26T06:09:31.639Z</time></trkpt><trkpt lat="45.0311419" lon="7.2318887"><ele>1146.7142857142858</ele><time>2026-04-26T06:09:36.564Z</time></trkpt><trkpt lat="45.0312064" lon="7.2319239"><ele>1151.4285714285713</ele><time>2026-04-26T06:09:42.622Z</time></trkpt><trkpt lat="45.0312599" lon="7.231984"><ele>1156.142857142857</ele><time>2026-04-26T06:09:49.558Z</time></trkpt><trkpt lat="45.0313215" lon="7.2320042"><ele>1160.857142857143</ele><time>2026-04-26T06:09:56.543Z</time></trkpt><trkpt lat="45.0313814" lon="7.2320415"><ele>1165.5714285714287</ele><time>2026-04-26T06:10:02.628Z</time></trkpt><trkpt lat="45.0314257" lon="7.2321091"><ele>1170.2857142857142</ele><time>2026-04-26T06:10:31.637Z</time></trkpt><trkpt lat="45.0314671" lon="7.2321921"><ele>1175.0</ele><time>2026-04-26T06:24:27.621Z</time></trkpt><trkpt lat="45.0314181" lon="7.2321311"><ele>1175.0</ele><time>2026-04-26T06:27:01.607Z</time></trkpt><trkpt lat="45.031518" lon="7.2320538"><ele>1175.0</ele><time>2026-04-26T06:49:25.594Z</time></trkpt><trkpt lat="45.0315233" lon="7.2319555"><ele>1175.0</ele><time>2026-04-26T06:49:36.547Z</time></trkpt><trkpt lat="45.0315259" lon="7.2318654"><ele>1175.0</ele><time>2026-04-26T06:49:44.618Z</time></trkpt><trkpt lat="45.0315425" lon="7.2317783"><ele>1175.0</ele><time>2026-04-26T06:49:51.632Z</time></trkpt><trkpt lat="45.0315891" lon="7.2316368"><ele>1175.0</ele><time>2026-04-26T06:50:17.638Z</time></trkpt><trkpt lat="45.0316246" lon="7.2315498"><ele>1175.7142857142858</ele><time>2026-04-26T06:50:22.633Z</time></trkpt><trkpt lat="45.031626" lon="7.2314572"><ele>1176.4285714285716</ele><time>2026-04-26T06:50:34.643Z</time></trkpt><trkpt lat="45.0316031" lon="7.2313615"><ele>1177.1428571428573</ele><time>2026-04-26T06:50:54.621Z</time></trkpt><trkpt lat="45.0316037" lon="7.231271"><ele>1177.857142857143</ele><time>2026-04-26T06:51:05.572Z</time></trkpt><trkpt lat="45.0316674" lon="7.2311888"><ele>1178.5714285714287</ele><time>2026-04-26T06:51:20.557Z</time></trkpt><trkpt lat="45.0317242" lon="7.2311442"><ele>1179.2857142857144</ele><time>2026-04-26T06:51:28.545Z</time></trkpt><trkpt lat="45.0317581" lon="7.2310641"><ele>1180.0</ele><time>2026-04-26T06:51:36.606Z</time></trkpt><trkpt lat="45.0318149" lon="7.2309969"><ele>1184.0000000000002</ele><time>2026-04-26T06:51:45.545Z</time></trkpt><trkpt lat="45.0318682" lon="7.230946"><ele>1188.0</ele><time>2026-04-26T06:52:06.577Z</time></trkpt><trkpt lat="45.0319308" lon="7.2309219"><ele>1192.0</ele><time>2026-04-26T06:52:12.438Z</time></trkpt><trkpt lat="45.0319728" lon="7.2308325"><ele>1196.0</ele><time>2026-04-26T06:52:19.545Z</time></trkpt><trkpt lat="45.032028" lon="7.2307713"><ele>1200.0</ele><time>2026-04-26T06:52:26.623Z</time></trkpt><trkpt lat="45.032078" lon="7.2306986"><ele>1204.0000000000002</ele><time>2026-04-26T06:52:34.635Z</time></trkpt><trkpt lat="45.0321221" lon="7.2306325"><ele>1208.0</ele><time>2026-04-26T06:52:39.63Z</time></trkpt><trkpt lat="45.0321737" lon="7.2305791"><ele>1209.2857142857144</ele><time>2026-04-26T06:52:46.541Z</time></trkpt><trkpt lat="45.0322431" lon="7.2305553"><ele>1210.5714285714287</ele><time>2026-04-26T06:52:51.639Z</time></trkpt><trkpt lat="45.0323135" lon="7.2305367"><ele>1211.857142857143</ele><time>2026-04-26T06:52:57.662Z</time></trkpt><trkpt lat="45.0323789" lon="7.2305016"><ele>1213.1428571428573</ele><time>2026-04-26T06:53:11.621Z</time></trkpt><trkpt lat="45.0324282" lon="7.2304393"><ele>1214.4285714285716</ele><time>2026-04-26T06:53:20.549Z</time></trkpt><trkpt lat="45.0324756" lon="7.2303792"><ele>1215.7142857142858</ele><time>2026-04-26T06:53:27.563Z</time></trkpt><trkpt lat="45.0325216" lon="7.2303094"><ele>1217.0</ele><time>2026-04-26T06:53:39.573Z</time></trkpt><trkpt lat="45.0325757" lon="7.2302617"><ele>1218.0</ele><time>2026-04-26T06:53:49.564Z</time></trkpt><trkpt lat="45.0326098" lon="7.2301867"><ele>1219.0</ele><time>2026-04-26T06:53:59.555Z</time></trkpt><trkpt lat="45.0326441" lon="7.2301071"><ele>1220.0</ele><time>2026-04-26T06:54:11.565Z</time></trkpt><trkpt lat="45.0326925" lon="7.2300357"><ele>1221.0</ele><time>2026-04-26T06:54:28.569Z</time></trkpt><trkpt lat="45.0327262" lon="7.2299579"><ele>1222.0</ele><time>2026-04-26T06:54:33.566Z</time></trkpt><trkpt lat="45.0327638" lon="7.2298858"><ele>1223.0</ele><time>2026-04-26T06:54:40.581Z</time></trkpt><trkpt lat="45.0328247" lon="7.229852"><ele>1224.0</ele><time>2026-04-26T06:54:47.595Z</time></trkpt><trkpt lat="45.0328889" lon="7.229824"><ele>1227.4285714285713</ele><time>2026-04-26T06:55:01.52Z</time></trkpt><trkpt lat="45.0329512" lon="7.2297916"><ele>1230.857142857143</ele><time>2026-04-26T06:55:07.577Z</time></trkpt><trkpt lat="45.0330146" lon="7.2297377"><ele>1234.2857142857142</ele><time>2026-04-26T06:55:15.549Z</time></trkpt><trkpt lat="45.0330652" lon="7.2296777"><ele>1237.7142857142858</ele><time>2026-04-26T06:55:21.607Z</time></trkpt><trkpt lat="45.0331211" lon="7.2296213"><ele>1241.142857142857</ele><time>2026-04-26T06:55:32.553Z</time></trkpt><trkpt lat="45.0331723" lon="7.2295664"><ele>1244.5714285714287</ele><time>2026-04-26T06:55:40.632Z</time></trkpt><trkpt lat="45.0332326" lon="7.2295215"><ele>1248.0</ele><time>2026-04-26T06:55:49.559Z</time></trkpt><trkpt lat="45.0333009" lon="7.2294942"><ele>1247.857142857143</ele><time>2026-04-26T06:55:59.963Z</time></trkpt><trkpt lat="45.0333668" lon="7.2294518"><ele>1247.7142857142856</ele><time>2026-04-26T06:56:10.604Z</time></trkpt><trkpt lat="45.0334306" lon="7.2294134"><ele>1247.5714285714284</ele><time>2026-04-26T06:56:16.556Z</time></trkpt><trkpt lat="45.0334915" lon="7.2293843"><ele>1247.4285714285716</ele><time>2026-04-26T06:56:23.57Z</time></trkpt><trkpt lat="45.03357" lon="7.2293592"><ele>1247.2857142857142</ele><time>2026-04-26T06:56:39.619Z</time></trkpt><trkpt lat="45.0336118" lon="7.2292878"><ele>1247.142857142857</ele><time>2026-04-26T06:56:44.615Z</time></trkpt><trkpt lat="45.0336544" lon="7.2292172"><ele>1247.0</ele><time>2026-04-26T06:56:53.545Z</time></trkpt><trkpt lat="45.0337014" lon="7.2291539"><ele>1247.0</ele><time>2026-04-26T06:57:03.642Z</time></trkpt><trkpt lat="45.0337455" lon="7.2290806"><ele>1247.0</ele><time>2026-04-26T06:57:11.611Z</time></trkpt><trkpt lat="45.033804" lon="7.229036"><ele>1247.0</ele><time>2026-04-26T06:57:23.622Z</time></trkpt><trkpt lat="45.0338435" lon="7.2289566"><ele>1247.0</ele><time>2026-04-26T06:57:31.593Z</time></trkpt><trkpt lat="45.0338632" lon="7.2288645"><ele>1247.0</ele><time>2026-04-26T06:57:38.402Z</time></trkpt><trkpt lat="45.033889" lon="7.2287771"><ele>1247.0</ele><time>2026-04-26T06:57:46.579Z</time></trkpt><trkpt lat="45.0339286" lon="7.2287053"><ele>1247.0</ele><time>2026-04-26T06:57:53.595Z</time></trkpt><trkpt lat="45.033989" lon="7.2286698"><ele>1246.857142857143</ele><time>2026-04-26T06:58:01.621Z</time></trkpt><trkpt lat="45.0340525" lon="7.2286275"><ele>1246.7142857142858</ele><time>2026-04-26T06:58:11.557Z</time></trkpt><trkpt lat="45.0341015" lon="7.2285503"><ele>1246.5714285714284</ele><time>2026-04-26T06:58:18.572Z</time></trkpt><trkpt lat="45.0341502" lon="7.2284829"><ele>1246.4285714285716</ele><time>2026-04-26T06:58:26.65Z</time></trkpt><trkpt lat="45.0341935" lon="7.2283994"><ele>1246.2857142857142</ele><time>2026-04-26T06:58:33.558Z</time></trkpt><trkpt lat="45.0342127" lon="7.228313"><ele>1246.142857142857</ele><time>2026-04-26T06:58:39.616Z</time></trkpt><trkpt lat="45.0342372" lon="7.2282176"><ele>1246.0</ele><time>2026-04-26T06:58:46.631Z</time></trkpt><trkpt lat="45.034263" lon="7.2281248"><ele>1249.7142857142858</ele><time>2026-04-26T06:58:53.647Z</time></trkpt><trkpt lat="45.0343065" lon="7.2280603"><ele>1253.4285714285716</ele><time>2026-04-26T06:59:01.618Z</time></trkpt><trkpt lat="45.0343458" lon="7.2279806"><ele>1257.142857142857</ele><time>2026-04-26T06:59:11.609Z</time></trkpt><trkpt lat="45.0343946" lon="7.2279229"><ele>1260.857142857143</ele><time>2026-04-26T06:59:17.561Z</time></trkpt><trkpt lat="45.034452" lon="7.2278736"><ele>1264.5714285714287</ele><time>2026-04-26T06:59:26.603Z</time></trkpt><trkpt lat="45.0344923" lon="7.2277999"><ele>1268.2857142857142</ele><time>2026-04-26T06:59:32.577Z</time></trkpt><trkpt lat="45.0345153" lon="7.2277107"><ele>1272.0</ele><time>2026-04-26T06:59:38.501Z</time></trkpt><trkpt lat="45.0345319" lon="7.2276225"><ele>1272.0</ele><time>2026-04-26T06:59:44.558Z</time></trkpt><trkpt lat="45.0345753" lon="7.227557"><ele>1272.0</ele><time>2026-04-26T06:59:51.573Z</time></trkpt><trkpt lat="45.0346055" lon="7.2274724"><ele>1272.0</ele><time>2026-04-26T06:59:57.502Z</time></trkpt><trkpt lat="45.0346412" lon="7.2273903"><ele>1272.0</ele><time>2026-04-26T07:00:02.626Z</time></trkpt><trkpt lat="45.0346712" lon="7.2273054"><ele>1272.0</ele><time>2026-04-26T07:00:07.619Z</time></trkpt><trkpt lat="45.0347242" lon="7.2272339"><ele>1272.0</ele><time>2026-04-26T07:00:14.561Z</time></trkpt><trkpt lat="45.0347592" lon="7.2271499"><ele>1272.0</ele><time>2026-04-26T07:00:21.651Z</time></trkpt><trkpt lat="45.0347567" lon="7.2270517"><ele>1275.3333333333333</ele><time>2026-04-26T07:00:29.623Z</time></trkpt><trkpt lat="45.0347552" lon="7.2269493"><ele>1278.6666666666667</ele><time>2026-04-26T07:00:37.62Z</time></trkpt><trkpt lat="45.0347548" lon="7.2268591"><ele>1282.0</ele><time>2026-04-26T07:00:42.589Z</time></trkpt><trkpt lat="45.0347695" lon="7.2267638"><ele>1285.3333333333335</ele><time>2026-04-26T07:00:48.546Z</time></trkpt><trkpt lat="45.0348161" lon="7.2265867"><ele>1288.6666666666667</ele><time>2026-04-26T07:01:35.626Z</time></trkpt><trkpt lat="45.0347574" lon="7.226517"><ele>1292.0</ele><time>2026-04-26T07:01:59.546Z</time></trkpt><trkpt lat="45.0348081" lon="7.2264438"><ele>1291.857142857143</ele><time>2026-04-26T07:02:13.561Z</time></trkpt><trkpt lat="45.0348647" lon="7.2263398"><ele>1291.7142857142858</ele><time>2026-04-26T07:02:24.524Z</time></trkpt><trkpt lat="45.0349182" lon="7.2262654"><ele>1291.5714285714284</ele><time>2026-04-26T07:02:30.574Z</time></trkpt><trkpt lat="45.0349581" lon="7.2261862"><ele>1291.4285714285716</ele><time>2026-04-26T07:02:40.566Z</time></trkpt><trkpt lat="45.0350241" lon="7.2261622"><ele>1291.2857142857142</ele><time>2026-04-26T07:02:52.577Z</time></trkpt><trkpt lat="45.0350679" lon="7.2260882"><ele>1291.142857142857</ele><time>2026-04-26T07:02:58.634Z</time></trkpt><trkpt lat="45.035126" lon="7.2260369"><ele>1291.0</ele><time>2026-04-26T07:03:04.183Z</time></trkpt><trkpt lat="45.0351677" lon="7.2259675"><ele>1290.9999999999998</ele><time>2026-04-26T07:03:17.464Z</time></trkpt><trkpt lat="45.0352212" lon="7.2259024"><ele>1291.0</ele><time>2026-04-26T07:03:26.588Z</time></trkpt><trkpt lat="45.0352812" lon="7.2258648"><ele>1291.0</ele><time>2026-04-26T07:03:34.56Z</time></trkpt><trkpt lat="45.0353293" lon="7.2258029"><ele>1291.0</ele><time>2026-04-26T07:04:29.602Z</time></trkpt><trkpt lat="45.0353878" lon="7.2257645"><ele>1291.0</ele><time>2026-04-26T07:04:35.443Z</time></trkpt><trkpt lat="45.0354516" lon="7.2257495"><ele>1290.9999999999998</ele><time>2026-04-26T07:04:43.644Z</time></trkpt><trkpt lat="45.0355201" lon="7.2257483"><ele>1291.0</ele><time>2026-04-26T07:04:53.635Z</time></trkpt><trkpt lat="45.035592" lon="7.225777"><ele>1290.9999999999998</ele><time>2026-04-26T07:05:20.544Z</time></trkpt><trkpt lat="45.0356477" lon="7.2258212"><ele>1291.0</ele><time>2026-04-26T07:05:25.499Z</time></trkpt><trkpt lat="45.0357134" lon="7.2257909"><ele>1291.0</ele><time>2026-04-26T07:05:34.554Z</time></trkpt><trkpt lat="45.0357765" lon="7.2257996"><ele>1291.0</ele><time>2026-04-26T07:05:44.544Z</time></trkpt><trkpt lat="45.0358682" lon="7.225765"><ele>1291.0</ele><time>2026-04-26T07:05:58.575Z</time></trkpt><trkpt lat="45.03594" lon="7.225715"><ele>1290.9999999999998</ele><time>2026-04-26T07:06:38.519Z</time></trkpt><trkpt lat="45.0359996" lon="7.2256617"><ele>1291.0</ele><time>2026-04-26T07:06:43.545Z</time></trkpt><trkpt lat="45.0360734" lon="7.2255287"><ele>1292.9999999999998</ele><time>2026-04-26T07:07:17.546Z</time></trkpt><trkpt lat="45.0361228" lon="7.2254515"><ele>1295.0</ele><time>2026-04-26T07:07:27.641Z</time></trkpt><trkpt lat="45.0361325" lon="7.2253438"><ele>1297.0</ele><time>2026-04-26T07:07:40.608Z</time></trkpt><trkpt lat="45.0361484" lon="7.2252571"><ele>1299.0</ele><time>2026-04-26T07:07:48.579Z</time></trkpt><trkpt lat="45.0361705" lon="7.2251687"><ele>1301.0</ele><time>2026-04-26T07:07:57.613Z</time></trkpt><trkpt lat="45.0361931" lon="7.2250817"><ele>1302.9999999999998</ele><time>2026-04-26T07:08:06.546Z</time></trkpt><trkpt lat="45.0361997" lon="7.2249884"><ele>1305.0</ele><time>2026-04-26T07:08:19.582Z</time></trkpt><trkpt lat="45.0361758" lon="7.2248965"><ele>1307.3333333333333</ele><time>2026-04-26T07:08:27.585Z</time></trkpt><trkpt lat="45.0361567" lon="7.224747"><ele>1309.6666666666667</ele><time>2026-04-26T07:08:58.62Z</time></trkpt><trkpt lat="45.0361697" lon="7.2246571"><ele>1312.0</ele><time>2026-04-26T07:09:09.445Z</time></trkpt><trkpt lat="45.0361797" lon="7.2245557"><ele>1314.3333333333335</ele><time>2026-04-26T07:09:19.558Z</time></trkpt><trkpt lat="45.0361838" lon="7.2244637"><ele>1316.6666666666667</ele><time>2026-04-26T07:09:48.573Z</time></trkpt><trkpt lat="45.0361642" lon="7.2243415"><ele>1319.0</ele><time>2026-04-26T07:09:49.546Z</time></trkpt><trkpt lat="45.0361455" lon="7.2242529"><ele>1319.0</ele><time>2026-04-26T07:09:56.546Z</time></trkpt><trkpt lat="45.0361671" lon="7.2241636"><ele>1319.0</ele><time>2026-04-26T07:10:03.56Z</time></trkpt><trkpt lat="45.036203" lon="7.224088"><ele>1319.0</ele><time>2026-04-26T07:10:09.663Z</time></trkpt><trkpt lat="45.0361962" lon="7.2239899"><ele>1319.0</ele><time>2026-04-26T07:10:19.607Z</time></trkpt><trkpt lat="45.0361975" lon="7.2238908"><ele>1319.0</ele><time>2026-04-26T07:10:25.56Z</time></trkpt><trkpt lat="45.0362478" lon="7.2237094"><ele>1319.0</ele><time>2026-04-26T07:11:02.546Z</time></trkpt><trkpt lat="45.0362687" lon="7.2236237"><ele>1320.0</ele><time>2026-04-26T07:11:09.561Z</time></trkpt><trkpt lat="45.0362728" lon="7.2235253"><ele>1321.0</ele><time>2026-04-26T07:11:18.595Z</time></trkpt><trkpt lat="45.0362874" lon="7.2234383"><ele>1322.0</ele><time>2026-04-26T07:11:37.619Z</time></trkpt><trkpt lat="45.0362433" lon="7.2233244"><ele>1323.0</ele><time>2026-04-26T07:12:18.544Z</time></trkpt><trkpt lat="45.0362447" lon="7.2232244"><ele>1324.0</ele><time>2026-04-26T07:12:25.552Z</time></trkpt><trkpt lat="45.0362471" lon="7.2230858"><ele>1325.0</ele><time>2026-04-26T07:12:46.595Z</time></trkpt><trkpt lat="45.036212" lon="7.2229899"><ele>1325.7142857142858</ele><time>2026-04-26T07:13:03.601Z</time></trkpt><trkpt lat="45.03619" lon="7.2229046"><ele>1326.4285714285713</ele><time>2026-04-26T07:13:08.622Z</time></trkpt><trkpt lat="45.0361958" lon="7.2228111"><ele>1327.142857142857</ele><time>2026-04-26T07:13:18.586Z</time></trkpt><trkpt lat="45.0361929" lon="7.2227122"><ele>1327.857142857143</ele><time>2026-04-26T07:13:26.662Z</time></trkpt><trkpt lat="45.0361591" lon="7.2226261"><ele>1328.5714285714284</ele><time>2026-04-26T07:13:47.6Z</time></trkpt><trkpt lat="45.0361561" lon="7.2225207"><ele>1329.2857142857142</ele><time>2026-04-26T07:13:52.596Z</time></trkpt><trkpt lat="45.0361847" lon="7.2224337"><ele>1330.0</ele><time>2026-04-26T07:13:57.592Z</time></trkpt><trkpt lat="45.0362293" lon="7.222365"><ele>1332.1666666666665</ele><time>2026-04-26T07:14:03.546Z</time></trkpt><trkpt lat="45.0362742" lon="7.2222889"><ele>1334.3333333333333</ele><time>2026-04-26T07:14:10.559Z</time></trkpt><trkpt lat="45.0362867" lon="7.2221907"><ele>1336.5</ele><time>2026-04-26T07:14:19.594Z</time></trkpt><trkpt lat="45.0363062" lon="7.2220996"><ele>1338.6666666666667</ele><time>2026-04-26T07:14:28.628Z</time></trkpt><trkpt lat="45.0363133" lon="7.2219172"><ele>1340.8333333333335</ele><time>2026-04-26T07:14:51.586Z</time></trkpt><trkpt lat="45.0363457" lon="7.22183"><ele>1343.0</ele><time>2026-04-26T07:14:57.545Z</time></trkpt><trkpt lat="45.0364182" lon="7.2217085"><ele>1343.0</ele><time>2026-04-26T07:15:17.564Z</time></trkpt><trkpt lat="45.0364417" lon="7.2216224"><ele>1343.0</ele><time>2026-04-26T07:15:22.62Z</time></trkpt><trkpt lat="45.0364748" lon="7.2215252"><ele>1343.0</ele><time>2026-04-26T07:15:30.264Z</time></trkpt><trkpt lat="45.036477" lon="7.2214098"><ele>1343.0</ele><time>2026-04-26T07:15:39.602Z</time></trkpt><trkpt lat="45.036513" lon="7.2213353"><ele>1343.0</ele><time>2026-04-26T07:15:45.556Z</time></trkpt><trkpt lat="45.0365485" lon="7.2212592"><ele>1343.0</ele><time>2026-04-26T07:15:52.572Z</time></trkpt><trkpt lat="45.0365711" lon="7.2211667"><ele>1343.0</ele><time>2026-04-26T07:15:59.587Z</time></trkpt><trkpt lat="45.0366031" lon="7.2210766"><ele>1342.7142857142858</ele><time>2026-04-26T07:16:10.544Z</time></trkpt><trkpt lat="45.0366351" lon="7.2209937"><ele>1342.4285714285716</ele><time>2026-04-26T07:16:18.614Z</time></trkpt><trkpt lat="45.036677" lon="7.2209224"><ele>1342.1428571428573</ele><time>2026-04-26T07:16:27.544Z</time></trkpt><trkpt lat="45.0367252" lon="7.2208575"><ele>1341.857142857143</ele><time>2026-04-26T07:16:36.443Z</time></trkpt><trkpt lat="45.0367765" lon="7.2208041"><ele>1341.5714285714287</ele><time>2026-04-26T07:16:43.592Z</time></trkpt><trkpt lat="45.0368703" lon="7.2207658"><ele>1341.2857142857144</ele><time>2026-04-26T07:17:05.594Z</time></trkpt><trkpt lat="45.036927" lon="7.2207135"><ele>1341.0</ele><time>2026-04-26T07:17:17.604Z</time></trkpt><trkpt lat="45.0370027" lon="7.2205731"><ele>1343.4285714285716</ele><time>2026-04-26T07:18:28.601Z</time></trkpt><trkpt lat="45.0370595" lon="7.2205119"><ele>1345.857142857143</ele><time>2026-04-26T07:18:34.552Z</time></trkpt><trkpt lat="45.0371239" lon="7.2204836"><ele>1348.2857142857142</ele><time>2026-04-26T07:18:44.544Z</time></trkpt><trkpt lat="45.0371903" lon="7.2204632"><ele>1350.7142857142858</ele><time>2026-04-26T07:18:52.62Z</time></trkpt><trkpt lat="45.0372358" lon="7.2203936"><ele>1353.142857142857</ele><time>2026-04-26T07:19:00.591Z</time></trkpt><trkpt lat="45.0372695" lon="7.2203116"><ele>1355.5714285714287</ele><time>2026-04-26T07:19:10.581Z</time></trkpt><trkpt lat="45.0373168" lon="7.2202391"><ele>1358.0</ele><time>2026-04-26T07:19:19.616Z</time></trkpt><trkpt lat="45.0373382" lon="7.2201021"><ele>1358.0</ele><time>2026-04-26T07:19:53.626Z</time></trkpt><trkpt lat="45.0373973" lon="7.2200522"><ele>1358.0</ele><time>2026-04-26T07:20:00.603Z</time></trkpt><trkpt lat="45.0374509" lon="7.2200047"><ele>1358.0</ele><time>2026-04-26T07:20:06.592Z</time></trkpt><trkpt lat="45.0375048" lon="7.2199538"><ele>1358.0</ele><time>2026-04-26T07:20:18.642Z</time></trkpt><trkpt lat="45.0375553" lon="7.2198971"><ele>1358.0</ele><time>2026-04-26T07:20:30.612Z</time></trkpt><trkpt lat="45.037588" lon="7.2198201"><ele>1358.0</ele><time>2026-04-26T07:20:39.499Z</time></trkpt><trkpt lat="45.0376108" lon="7.219737"><ele>1358.0</ele><time>2026-04-26T07:20:47.616Z</time></trkpt><trkpt lat="45.0376357" lon="7.2196522"><ele>1359.0</ele><time>2026-04-26T07:20:52.583Z</time></trkpt><trkpt lat="45.0376966" lon="7.219471"><ele>1360.0</ele><time>2026-04-26T07:21:19.606Z</time></trkpt><trkpt lat="45.0377344" lon="7.2193991"><ele>1361.0</ele><time>2026-04-26T07:21:30.553Z</time></trkpt><trkpt lat="45.0378063" lon="7.2193747"><ele>1362.0</ele><time>2026-04-26T07:21:40.545Z</time></trkpt><trkpt lat="45.0378471" lon="7.2193054"><ele>1363.0</ele><time>2026-04-26T07:21:49.577Z</time></trkpt><trkpt lat="45.0378747" lon="7.2192166"><ele>1364.0</ele><time>2026-04-26T07:21:54.622Z</time></trkpt><trkpt lat="45.0378971" lon="7.2191178"><ele>1364.0</ele><time>2026-04-26T07:21:59.525Z</time></trkpt><trkpt lat="45.0379244" lon="7.2190324"><ele>1364.0</ele><time>2026-04-26T07:22:08.601Z</time></trkpt><trkpt lat="45.0379335" lon="7.2189375"><ele>1364.0</ele><time>2026-04-26T07:22:19.548Z</time></trkpt><trkpt lat="45.0379167" lon="7.2188479"><ele>1364.0</ele><time>2026-04-26T07:22:28.581Z</time></trkpt><trkpt lat="45.0379506" lon="7.2187704"><ele>1364.0</ele><time>2026-04-26T07:22:37.505Z</time></trkpt><trkpt lat="45.0379542" lon="7.2186743"><ele>1364.0</ele><time>2026-04-26T07:22:45.586Z</time></trkpt><trkpt lat="45.0379901" lon="7.2184707"><ele>1366.142857142857</ele><time>2026-04-26T07:23:17.576Z</time></trkpt><trkpt lat="45.0380337" lon="7.2183944"><ele>1368.2857142857142</ele><time>2026-04-26T07:23:26.844Z</time></trkpt><trkpt lat="45.0380576" lon="7.2183116"><ele>1370.4285714285716</ele><time>2026-04-26T07:23:40.632Z</time></trkpt><trkpt lat="45.0381133" lon="7.218254"><ele>1372.5714285714284</ele><time>2026-04-26T07:23:48.604Z</time></trkpt><trkpt lat="45.0381021" lon="7.2181542"><ele>1374.7142857142858</ele><time>2026-04-26T07:24:08.585Z</time></trkpt><trkpt lat="45.0381303" lon="7.2180739"><ele>1376.857142857143</ele><time>2026-04-26T07:24:21.551Z</time></trkpt><trkpt lat="45.0381462" lon="7.2179843"><ele>1379.0</ele><time>2026-04-26T07:24:29.628Z</time></trkpt><trkpt lat="45.0381967" lon="7.2178867"><ele>1381.6666666666667</ele><time>2026-04-26T07:24:46.633Z</time></trkpt><trkpt lat="45.0383283" lon="7.2178548"><ele>1384.3333333333335</ele><time>2026-04-26T07:25:12.565Z</time></trkpt><trkpt lat="45.0383886" lon="7.2178157"><ele>1387.0</ele><time>2026-04-26T07:25:18.494Z</time></trkpt><trkpt lat="45.038439" lon="7.2177531"><ele>1389.6666666666667</ele><time>2026-04-26T07:25:23.516Z</time></trkpt><trkpt lat="45.0385176" lon="7.2177116"><ele>1392.3333333333333</ele><time>2026-04-26T07:27:16.599Z</time></trkpt><trkpt lat="45.0385683" lon="7.2176577"><ele>1395.0</ele><time>2026-04-26T07:27:25.632Z</time></trkpt><trkpt lat="45.0385399" lon="7.2175707"><ele>1395.0</ele><time>2026-04-26T07:27:34.561Z</time></trkpt><trkpt lat="45.0384898" lon="7.2174756"><ele>1395.0</ele><time>2026-04-26T07:27:58.58Z</time></trkpt><trkpt lat="45.0385432" lon="7.2174043"><ele>1395.0</ele><time>2026-04-26T07:28:12.61Z</time></trkpt><trkpt lat="45.0386132" lon="7.2174297"><ele>1395.0</ele><time>2026-04-26T07:28:38.545Z</time></trkpt><trkpt lat="45.0386819" lon="7.2174179"><ele>1395.0</ele><time>2026-04-26T07:28:45.559Z</time></trkpt><trkpt lat="45.0387458" lon="7.2174032"><ele>1395.0</ele><time>2026-04-26T07:28:54.594Z</time></trkpt><trkpt lat="45.0388207" lon="7.2173323"><ele>1398.5714285714287</ele><time>2026-04-26T07:29:19.57Z</time></trkpt><trkpt lat="45.0387987" lon="7.217245"><ele>1402.142857142857</ele><time>2026-04-26T07:29:43.607Z</time></trkpt><trkpt lat="45.0387323" lon="7.2172237"><ele>1405.7142857142858</ele><time>2026-04-26T07:29:46.581Z</time></trkpt><trkpt lat="45.038684" lon="7.2171465"><ele>1409.2857142857142</ele><time>2026-04-26T07:30:01.569Z</time></trkpt><trkpt lat="45.0386948" lon="7.2170582"><ele>1412.857142857143</ele><time>2026-04-26T07:30:17.619Z</time></trkpt><trkpt lat="45.0387548" lon="7.2170237"><ele>1416.4285714285713</ele><time>2026-04-26T07:30:46.622Z</time></trkpt><trkpt lat="45.0387367" lon="7.2169374"><ele>1420.0</ele><time>2026-04-26T07:30:57.583Z</time></trkpt><trkpt lat="45.038731" lon="7.216839"><ele>1420.0</ele><time>2026-04-26T07:31:28.618Z</time></trkpt><trkpt lat="45.038874" lon="7.2168042"><ele>1420.0</ele><time>2026-04-26T07:31:58.591Z</time></trkpt><trkpt lat="45.0389446" lon="7.216776"><ele>1420.0</ele><time>2026-04-26T07:32:04.545Z</time></trkpt><trkpt lat="45.0390677" lon="7.2167676"><ele>1420.0</ele><time>2026-04-26T07:32:32.603Z</time></trkpt><trkpt lat="45.0391569" lon="7.2168167"><ele>1420.0</ele><time>2026-04-26T07:33:04.505Z</time></trkpt><trkpt lat="45.0392215" lon="7.2167991"><ele>1425.0</ele><time>2026-04-26T07:33:09.591Z</time></trkpt><trkpt lat="45.0392711" lon="7.2167389"><ele>1430.0</ele><time>2026-04-26T07:33:19.581Z</time></trkpt><trkpt lat="45.0393299" lon="7.2165688"><ele>1435.0</ele><time>2026-04-26T07:34:11.553Z</time></trkpt><trkpt lat="45.0393808" lon="7.2164487"><ele>1440.0</ele><time>2026-04-26T07:34:28.56Z</time></trkpt><trkpt lat="45.0394529" lon="7.2163835"><ele>1445.0</ele><time>2026-04-26T07:34:45.565Z</time></trkpt><trkpt lat="45.0395485" lon="7.2163013"><ele>1447.3333333333335</ele><time>2026-04-26T07:35:17.556Z</time></trkpt><trkpt lat="45.0396312" lon="7.2162024"><ele>1449.6666666666667</ele><time>2026-04-26T07:35:32.545Z</time></trkpt><trkpt lat="45.0396647" lon="7.2161217"><ele>1452.0</ele><time>2026-04-26T07:35:39.525Z</time></trkpt><trkpt lat="45.0397283" lon="7.216114"><ele>1454.3333333333333</ele><time>2026-04-26T07:35:50.611Z</time></trkpt><trkpt lat="45.0397919" lon="7.216104"><ele>1456.6666666666665</ele><time>2026-04-26T07:35:57.626Z</time></trkpt><trkpt lat="45.0398528" lon="7.2160553"><ele>1459.0</ele><time>2026-04-26T07:36:07.617Z</time></trkpt><trkpt lat="45.0399467" lon="7.215924"><ele>1460.142857142857</ele><time>2026-04-26T07:36:39.61Z</time></trkpt><trkpt lat="45.0399706" lon="7.2158399"><ele>1461.2857142857142</ele><time>2026-04-26T07:36:46.625Z</time></trkpt><trkpt lat="45.0399989" lon="7.2157598"><ele>1462.4285714285716</ele><time>2026-04-26T07:36:55.552Z</time></trkpt><trkpt lat="45.0400477" lon="7.2156696"><ele>1463.5714285714284</ele><time>2026-04-26T07:37:19.562Z</time></trkpt><trkpt lat="45.0401" lon="7.2156123"><ele>1464.7142857142858</ele><time>2026-04-26T07:37:30.594Z</time></trkpt><trkpt lat="45.0401616" lon="7.2155643"><ele>1465.857142857143</ele><time>2026-04-26T07:37:40.607Z</time></trkpt><trkpt lat="45.0402247" lon="7.2155245"><ele>1467.0</ele><time>2026-04-26T07:37:48.614Z</time></trkpt><trkpt lat="45.0402769" lon="7.215466"><ele>1470.0000000000002</ele><time>2026-04-26T07:37:58.568Z</time></trkpt><trkpt lat="45.0403197" lon="7.2153959"><ele>1473.0</ele><time>2026-04-26T07:38:07.603Z</time></trkpt><trkpt lat="45.040347" lon="7.2153097"><ele>1476.0</ele><time>2026-04-26T07:38:16.638Z</time></trkpt><trkpt lat="45.0403871" lon="7.2152352"><ele>1479.0</ele><time>2026-04-26T07:38:23.546Z</time></trkpt><trkpt lat="45.0404789" lon="7.215191"><ele>1482.0</ele><time>2026-04-26T07:38:42.571Z</time></trkpt><trkpt lat="45.0405414" lon="7.2151552"><ele>1485.0000000000002</ele><time>2026-04-26T07:39:02.552Z</time></trkpt><trkpt lat="45.0405871" lon="7.2150883"><ele>1488.0</ele><time>2026-04-26T07:39:12.545Z</time></trkpt><trkpt lat="45.0406546" lon="7.2150778"><ele>1488.0</ele><time>2026-04-26T07:39:34.545Z</time></trkpt><trkpt lat="45.040722" lon="7.215017"><ele>1488.0</ele><time>2026-04-26T07:39:46.553Z</time></trkpt><trkpt lat="45.0407837" lon="7.2150463"><ele>1488.0</ele><time>2026-04-26T07:43:03.603Z</time></trkpt><trkpt lat="45.0408454" lon="7.2151035"><ele>1488.0</ele><time>2026-04-26T07:44:40.633Z</time></trkpt><trkpt lat="45.040844" lon="7.2151941"><ele>1488.0</ele><time>2026-04-26T07:44:48.634Z</time></trkpt><trkpt lat="45.0408824" lon="7.2152818"><ele>1488.0</ele><time>2026-04-26T07:45:01.579Z</time></trkpt><trkpt lat="45.0409784" lon="7.2152836"><ele>1487.1428571428573</ele><time>2026-04-26T07:45:14.546Z</time></trkpt><trkpt lat="45.0410421" lon="7.2152643"><ele>1486.2857142857142</ele><time>2026-04-26T07:45:25.598Z</time></trkpt><trkpt lat="45.0411038" lon="7.2152311"><ele>1485.4285714285716</ele><time>2026-04-26T07:45:35.59Z</time></trkpt><trkpt lat="45.0411712" lon="7.2152411"><ele>1484.5714285714287</ele><time>2026-04-26T07:45:42.604Z</time></trkpt><trkpt lat="45.0412175" lon="7.2151774"><ele>1483.7142857142858</ele><time>2026-04-26T07:45:49.619Z</time></trkpt><trkpt lat="45.0412778" lon="7.2151216"><ele>1482.857142857143</ele><time>2026-04-26T07:46:03.648Z</time></trkpt><trkpt lat="45.0412909" lon="7.2150331"><ele>1482.0</ele><time>2026-04-26T07:46:11.483Z</time></trkpt><trkpt lat="45.041269" lon="7.2149486"><ele>1482.0</ele><time>2026-04-26T07:46:25.547Z</time></trkpt><trkpt lat="45.0413312" lon="7.2149116"><ele>1482.0</ele><time>2026-04-26T07:46:36.596Z</time></trkpt><trkpt lat="45.041383" lon="7.2148437"><ele>1482.0</ele><time>2026-04-26T07:46:52.643Z</time></trkpt><trkpt lat="45.0414388" lon="7.2147959"><ele>1482.0</ele><time>2026-04-26T07:47:00.615Z</time></trkpt><trkpt lat="45.0415018" lon="7.2147916"><ele>1482.0</ele><time>2026-04-26T07:47:29.63Z</time></trkpt><trkpt lat="45.0415699" lon="7.2147835"><ele>1482.0</ele><time>2026-04-26T07:47:38.558Z</time></trkpt><trkpt lat="45.0416365" lon="7.2146019"><ele>1484.142857142857</ele><time>2026-04-26T07:48:02.577Z</time></trkpt><trkpt lat="45.0416044" lon="7.2145186"><ele>1486.2857142857144</ele><time>2026-04-26T07:48:07.572Z</time></trkpt><trkpt lat="45.0415441" lon="7.214448"><ele>1488.4285714285716</ele><time>2026-04-26T07:48:12.568Z</time></trkpt><trkpt lat="45.0415555" lon="7.2143542"><ele>1490.5714285714284</ele><time>2026-04-26T07:48:21.602Z</time></trkpt><trkpt lat="45.0415969" lon="7.2142795"><ele>1492.7142857142858</ele><time>2026-04-26T07:48:30.635Z</time></trkpt><trkpt lat="45.0415954" lon="7.2141814"><ele>1494.857142857143</ele><time>2026-04-26T07:48:37.555Z</time></trkpt><trkpt lat="45.0416155" lon="7.2140942"><ele>1497.0</ele><time>2026-04-26T07:48:42.651Z</time></trkpt><trkpt lat="45.0416183" lon="7.214005"><ele>1499.142857142857</ele><time>2026-04-26T07:48:48.597Z</time></trkpt><trkpt lat="45.0416003" lon="7.2139188"><ele>1501.2857142857142</ele><time>2026-04-26T07:48:59.575Z</time></trkpt><trkpt lat="45.0416155" lon="7.2138223"><ele>1503.4285714285716</ele><time>2026-04-26T07:49:08.578Z</time></trkpt><trkpt lat="45.0416694" lon="7.2137717"><ele>1505.5714285714284</ele><time>2026-04-26T07:49:15.592Z</time></trkpt><trkpt lat="45.0416953" lon="7.21369"><ele>1507.7142857142858</ele><time>2026-04-26T07:49:21.512Z</time></trkpt><trkpt lat="45.0417373" lon="7.2136095"><ele>1509.857142857143</ele><time>2026-04-26T07:49:28.558Z</time></trkpt><trkpt lat="45.0417149" lon="7.2135243"><ele>1512.0</ele><time>2026-04-26T07:49:42.587Z</time></trkpt><trkpt lat="45.0417129" lon="7.2134352"><ele>1512.142857142857</ele><time>2026-04-26T07:49:51.623Z</time></trkpt><trkpt lat="45.0417073" lon="7.2133449"><ele>1512.2857142857142</ele><time>2026-04-26T07:50:02.569Z</time></trkpt><trkpt lat="45.0417521" lon="7.2132769"><ele>1512.4285714285716</ele><time>2026-04-26T07:50:14.58Z</time></trkpt><trkpt lat="45.0417399" lon="7.2131889"><ele>1512.5714285714284</ele><time>2026-04-26T07:50:26.591Z</time></trkpt><trkpt lat="45.0417841" lon="7.2131049"><ele>1512.7142857142858</ele><time>2026-04-26T07:50:43.597Z</time></trkpt><trkpt lat="45.0418235" lon="7.2130343"><ele>1512.857142857143</ele><time>2026-04-26T07:50:49.549Z</time></trkpt><trkpt lat="45.0418365" lon="7.2129445"><ele>1513.0</ele><time>2026-04-26T07:50:57.627Z</time></trkpt><trkpt lat="45.041891" lon="7.2128997"><ele>1514.2857142857142</ele><time>2026-04-26T07:51:06.556Z</time></trkpt><trkpt lat="45.041922" lon="7.2128144"><ele>1515.5714285714287</ele><time>2026-04-26T07:51:12.614Z</time></trkpt><trkpt lat="45.0419205" lon="7.2127244"><ele>1516.8571428571427</ele><time>2026-04-26T07:51:22.606Z</time></trkpt><trkpt lat="45.0419476" lon="7.2126171"><ele>1518.142857142857</ele><time>2026-04-26T07:51:39.613Z</time></trkpt><trkpt lat="45.0419967" lon="7.2125528"><ele>1519.4285714285713</ele><time>2026-04-26T07:51:48.548Z</time></trkpt><trkpt lat="45.0420465" lon="7.2124844"><ele>1520.7142857142856</ele><time>2026-04-26T07:52:00.552Z</time></trkpt><trkpt lat="45.0420404" lon="7.21239"><ele>1522.0</ele><time>2026-04-26T07:52:09.586Z</time></trkpt><trkpt lat="45.042083" lon="7.2123235"><ele>1523.6666666666665</ele><time>2026-04-26T07:52:20.548Z</time></trkpt><trkpt lat="45.0421499" lon="7.2122027"><ele>1525.3333333333333</ele><time>2026-04-26T07:52:43.599Z</time></trkpt><trkpt lat="45.042174" lon="7.2121195"><ele>1527.0</ele><time>2026-04-26T07:52:56.566Z</time></trkpt><trkpt lat="45.0422215" lon="7.2120346"><ele>1528.6666666666667</ele><time>2026-04-26T07:53:08.577Z</time></trkpt><trkpt lat="45.0422283" lon="7.21194"><ele>1530.3333333333335</ele><time>2026-04-26T07:53:19.652Z</time></trkpt><trkpt lat="45.0422822" lon="7.211887"><ele>1532.0</ele><time>2026-04-26T07:53:36.637Z</time></trkpt><trkpt lat="45.0423435" lon="7.2118439"><ele>1532.0</ele><time>2026-04-26T07:53:41.632Z</time></trkpt><trkpt lat="45.0423835" lon="7.2117639"><ele>1532.0</ele><time>2026-04-26T07:53:49.605Z</time></trkpt><trkpt lat="45.0424383" lon="7.2116889"><ele>1532.0</ele><time>2026-04-26T07:54:10.548Z</time></trkpt><trkpt lat="45.0424725" lon="7.211608"><ele>1532.0</ele><time>2026-04-26T07:54:16.603Z</time></trkpt><trkpt lat="45.0425592" lon="7.2115296"><ele>1532.0</ele><time>2026-04-26T07:54:38.605Z</time></trkpt><trkpt lat="45.0426162" lon="7.2114468"><ele>1532.0</ele><time>2026-04-26T07:54:53.591Z</time></trkpt><trkpt lat="45.0426533" lon="7.2113725"><ele>1534.857142857143</ele><time>2026-04-26T07:55:03.583Z</time></trkpt><trkpt lat="45.0426672" lon="7.2112852"><ele>1537.7142857142858</ele><time>2026-04-26T07:55:22.609Z</time></trkpt><trkpt lat="45.0426945" lon="7.2112046"><ele>1540.5714285714284</ele><time>2026-04-26T07:55:33.556Z</time></trkpt><trkpt lat="45.0427297" lon="7.211122"><ele>1543.4285714285716</ele><time>2026-04-26T07:55:46.63Z</time></trkpt><trkpt lat="45.0427698" lon="7.211051"><ele>1546.2857142857144</ele><time>2026-04-26T07:55:54.6Z</time></trkpt><trkpt lat="45.0428083" lon="7.2109617"><ele>1549.142857142857</ele><time>2026-04-26T07:56:16.603Z</time></trkpt><trkpt lat="45.0428277" lon="7.2108675"><ele>1552.0</ele><time>2026-04-26T07:56:27.55Z</time></trkpt><trkpt lat="45.042861" lon="7.2107862"><ele>1552.0000000000002</ele><time>2026-04-26T07:56:39.561Z</time></trkpt><trkpt lat="45.0428362" lon="7.2106954"><ele>1552.0</ele><time>2026-04-26T07:57:08.578Z</time></trkpt><trkpt lat="45.0428268" lon="7.2106031"><ele>1552.0</ele><time>2026-04-26T07:57:17.612Z</time></trkpt><trkpt lat="45.0428526" lon="7.2104717"><ele>1552.0</ele><time>2026-04-26T07:57:53.548Z</time></trkpt><trkpt lat="45.0429273" lon="7.2103642"><ele>1552.0000000000002</ele><time>2026-04-26T07:58:19.581Z</time></trkpt><trkpt lat="45.0429901" lon="7.2103818"><ele>1552.0</ele><time>2026-04-26T07:58:41.583Z</time></trkpt><trkpt lat="45.0430297" lon="7.2104544"><ele>1554.0</ele><time>2026-04-26T07:58:50.618Z</time></trkpt><trkpt lat="45.0431252" lon="7.2104133"><ele>1556.0</ele><time>2026-04-26T07:59:23.567Z</time></trkpt><trkpt lat="45.0431191" lon="7.2103053"><ele>1558.0</ele><time>2026-04-26T07:59:35.593Z</time></trkpt><trkpt lat="45.0430763" lon="7.2102379"><ele>1560.0</ele><time>2026-04-26T07:59:42.572Z</time></trkpt><trkpt lat="45.0431399" lon="7.2102172"><ele>1562.0</ele><time>2026-04-26T08:00:03.638Z</time></trkpt><trkpt lat="45.0431967" lon="7.2101745"><ele>1564.0</ele><time>2026-04-26T08:00:17.562Z</time></trkpt><trkpt lat="45.0432258" lon="7.2100952"><ele>1566.0</ele><time>2026-04-26T08:00:30.636Z</time></trkpt><trkpt lat="45.0433297" lon="7.210146"><ele>1571.1666666666667</ele><time>2026-04-26T08:01:03.534Z</time></trkpt><trkpt lat="45.0434086" lon="7.2101956"><ele>1576.3333333333335</ele><time>2026-04-26T08:01:37.597Z</time></trkpt><trkpt lat="45.0435291" lon="7.210176"><ele>1581.5</ele><time>2026-04-26T08:01:59.6Z</time></trkpt><trkpt lat="45.043531" lon="7.2100818"><ele>1586.6666666666667</ele><time>2026-04-26T08:02:10.548Z</time></trkpt><trkpt lat="45.0435508" lon="7.2099965"><ele>1591.8333333333335</ele><time>2026-04-26T08:02:17.563Z</time></trkpt><trkpt lat="45.0435078" lon="7.2099265"><ele>1597.0</ele><time>2026-04-26T08:02:29.573Z</time></trkpt><trkpt lat="45.0435105" lon="7.209836"><ele>1597.0</ele><time>2026-04-26T08:02:40.628Z</time></trkpt><trkpt lat="45.0435483" lon="7.2099094"><ele>1597.0</ele><time>2026-04-26T08:03:22.616Z</time></trkpt><trkpt lat="45.0435906" lon="7.2099789"><ele>1597.0</ele><time>2026-04-26T08:03:31.545Z</time></trkpt><trkpt lat="45.0436502" lon="7.2100135"><ele>1597.0</ele><time>2026-04-26T08:03:39.623Z</time></trkpt><trkpt lat="45.043741" lon="7.2101037"><ele>1597.0</ele><time>2026-04-26T08:04:02.582Z</time></trkpt><trkpt lat="45.0437449" lon="7.2100106"><ele>1597.0</ele><time>2026-04-26T08:04:17.569Z</time></trkpt><trkpt lat="45.0437076" lon="7.2099226"><ele>1597.0</ele><time>2026-04-26T08:04:38.494Z</time></trkpt><trkpt lat="45.0436935" lon="7.2098199"><ele>1600.142857142857</ele><time>2026-04-26T08:05:03.593Z</time></trkpt><trkpt lat="45.0436875" lon="7.2096875"><ele>1603.2857142857142</ele><time>2026-04-26T08:05:37.612Z</time></trkpt><trkpt lat="45.0436991" lon="7.2095733"><ele>1606.4285714285716</ele><time>2026-04-26T08:05:41.544Z</time></trkpt><trkpt lat="45.0436712" lon="7.2094923"><ele>1609.5714285714284</ele><time>2026-04-26T08:06:28.625Z</time></trkpt><trkpt lat="45.0437377" lon="7.2094577"><ele>1612.7142857142856</ele><time>2026-04-26T08:06:36.597Z</time></trkpt><trkpt lat="45.0438032" lon="7.2094792"><ele>1615.857142857143</ele><time>2026-04-26T08:06:47.544Z</time></trkpt><trkpt lat="45.0438267" lon="7.2093848"><ele>1619.0</ele><time>2026-04-26T08:07:19.545Z</time></trkpt><trkpt lat="45.0438659" lon="7.2092985"><ele>1618.9999999999998</ele><time>2026-04-26T08:07:27.616Z</time></trkpt><trkpt lat="45.0438753" lon="7.2092024"><ele>1619.0</ele><time>2026-04-26T08:07:35.588Z</time></trkpt><trkpt lat="45.0438835" lon="7.2091095"><ele>1619.0</ele><time>2026-04-26T08:07:47.598Z</time></trkpt><trkpt lat="45.0438058" lon="7.2089809"><ele>1619.0</ele><time>2026-04-26T08:08:20.575Z</time></trkpt><trkpt lat="45.0438073" lon="7.2088133"><ele>1618.9999999999998</ele><time>2026-04-26T08:08:54.56Z</time></trkpt><trkpt lat="45.0438184" lon="7.2087095"><ele>1619.0</ele><time>2026-04-26T08:09:00.618Z</time></trkpt><trkpt lat="45.0437866" lon="7.2086271"><ele>1621.7142857142858</ele><time>2026-04-26T08:09:05.614Z</time></trkpt><trkpt lat="45.0437482" lon="7.2085415"><ele>1624.4285714285713</ele><time>2026-04-26T08:09:23.576Z</time></trkpt><trkpt lat="45.0437006" lon="7.2084628"><ele>1627.142857142857</ele><time>2026-04-26T08:09:29.635Z</time></trkpt><trkpt lat="45.0436548" lon="7.2083892"><ele>1629.857142857143</ele><time>2026-04-26T08:09:36.492Z</time></trkpt><trkpt lat="45.0436338" lon="7.208305"><ele>1632.5714285714284</ele><time>2026-04-26T08:09:45.578Z</time></trkpt><trkpt lat="45.0436045" lon="7.2082246"><ele>1635.2857142857142</ele><time>2026-04-26T08:09:54.411Z</time></trkpt><trkpt lat="45.043573" lon="7.2081422"><ele>1638.0</ele><time>2026-04-26T08:10:06.624Z</time></trkpt><trkpt lat="45.0435573" lon="7.2080488"><ele>1641.0</ele><time>2026-04-26T08:10:15.552Z</time></trkpt><trkpt lat="45.0435171" lon="7.2079708"><ele>1644.0</ele><time>2026-04-26T08:10:25.545Z</time></trkpt><trkpt lat="45.043471" lon="7.2079078"><ele>1647.0</ele><time>2026-04-26T08:10:32.56Z</time></trkpt><trkpt lat="45.0434597" lon="7.2078173"><ele>1650.0</ele><time>2026-04-26T08:10:41.595Z</time></trkpt><trkpt lat="45.043411" lon="7.2077466"><ele>1653.0</ele><time>2026-04-26T08:10:55.625Z</time></trkpt><trkpt lat="45.0433585" lon="7.2076779"><ele>1656.0</ele><time>2026-04-26T08:11:08.435Z</time></trkpt><trkpt lat="45.0433354" lon="7.2075926"><ele>1659.0</ele><time>2026-04-26T08:11:15.608Z</time></trkpt><trkpt lat="45.0433046" lon="7.2075036"><ele>1659.2857142857142</ele><time>2026-04-26T08:11:26.555Z</time></trkpt><trkpt lat="45.043257" lon="7.2074421"><ele>1659.5714285714284</ele><time>2026-04-26T08:11:34.633Z</time></trkpt><trkpt lat="45.0432566" lon="7.2073458"><ele>1659.857142857143</ele><time>2026-04-26T08:11:44.624Z</time></trkpt><trkpt lat="45.0431865" lon="7.2073292"><ele>1660.142857142857</ele><time>2026-04-26T08:12:05.563Z</time></trkpt><trkpt lat="45.0431257" lon="7.2072928"><ele>1660.4285714285713</ele><time>2026-04-26T08:12:10.558Z</time></trkpt><trkpt lat="45.0430939" lon="7.2072036"><ele>1660.7142857142858</ele><time>2026-04-26T08:12:47.58Z</time></trkpt><trkpt lat="45.0430606" lon="7.2071245"><ele>1661.0</ele><time>2026-04-26T08:12:53.637Z</time></trkpt><trkpt lat="45.0430702" lon="7.2070338"><ele>1660.9999999999998</ele><time>2026-04-26T08:13:05.545Z</time></trkpt><trkpt lat="45.0429997" lon="7.2069172"><ele>1661.0</ele><time>2026-04-26T08:13:31.574Z</time></trkpt><trkpt lat="45.0429862" lon="7.2068296"><ele>1661.0</ele><time>2026-04-26T08:13:40.617Z</time></trkpt><trkpt lat="45.0429695" lon="7.2067407"><ele>1661.0</ele><time>2026-04-26T08:13:49.531Z</time></trkpt><trkpt lat="45.042913" lon="7.2065663"><ele>1660.9999999999998</ele><time>2026-04-26T08:14:19.634Z</time></trkpt><trkpt lat="45.0428566" lon="7.2065091"><ele>1661.0</ele><time>2026-04-26T08:14:26.612Z</time></trkpt><trkpt lat="45.0428267" lon="7.2064304"><ele>1665.0</ele><time>2026-04-26T08:14:51.614Z</time></trkpt><trkpt lat="45.0427921" lon="7.2063336"><ele>1669.0</ele><time>2026-04-26T08:14:56.611Z</time></trkpt><trkpt lat="45.0427421" lon="7.2062621"><ele>1673.0</ele><time>2026-04-26T08:15:01.575Z</time></trkpt><trkpt lat="45.0427045" lon="7.2061883"><ele>1677.0</ele><time>2026-04-26T08:15:11.554Z</time></trkpt><trkpt lat="45.0426588" lon="7.2061109"><ele>1681.0</ele><time>2026-04-26T08:15:17.549Z</time></trkpt><trkpt lat="45.0426131" lon="7.206045"><ele>1685.0</ele><time>2026-04-26T08:15:32.641Z</time></trkpt><trkpt lat="45.0425784" lon="7.2059606"><ele>1689.0</ele><time>2026-04-26T08:15:43.587Z</time></trkpt><trkpt lat="45.0425259" lon="7.2058919"><ele>1689.857142857143</ele><time>2026-04-26T08:15:52.622Z</time></trkpt><trkpt lat="45.0424618" lon="7.20592"><ele>1690.7142857142856</ele><time>2026-04-26T08:16:00.593Z</time></trkpt><trkpt lat="45.0424055" lon="7.2058735"><ele>1691.5714285714284</ele><time>2026-04-26T08:16:47.571Z</time></trkpt><trkpt lat="45.0423961" lon="7.2057794"><ele>1692.4285714285716</ele><time>2026-04-26T08:16:54.586Z</time></trkpt><trkpt lat="45.0423359" lon="7.2057425"><ele>1693.2857142857142</ele><time>2026-04-26T08:17:03.62Z</time></trkpt><trkpt lat="45.0422808" lon="7.2056911"><ele>1694.142857142857</ele><time>2026-04-26T08:17:12.573Z</time></trkpt><trkpt lat="45.0422406" lon="7.205608"><ele>1695.0</ele><time>2026-04-26T08:17:23.572Z</time></trkpt><trkpt lat="45.0421923" lon="7.2055387"><ele>1695.0</ele><time>2026-04-26T08:17:33.592Z</time></trkpt><trkpt lat="45.0421297" lon="7.2054643"><ele>1695.0</ele><time>2026-04-26T08:18:26.627Z</time></trkpt><trkpt lat="45.042095" lon="7.2053855"><ele>1695.0</ele><time>2026-04-26T08:18:35.554Z</time></trkpt><trkpt lat="45.0420403" lon="7.2053293"><ele>1695.0</ele><time>2026-04-26T08:18:44.589Z</time></trkpt><trkpt lat="45.0420292" lon="7.2052376"><ele>1695.0</ele><time>2026-04-26T08:18:56.571Z</time></trkpt><trkpt lat="45.0419825" lon="7.2051717"><ele>1695.0</ele><time>2026-04-26T08:19:07.546Z</time></trkpt><trkpt lat="45.0419277" lon="7.2050391"><ele>1695.0</ele><time>2026-04-26T08:19:48.571Z</time></trkpt><trkpt lat="45.0419018" lon="7.2048897"><ele>1695.0</ele><time>2026-04-26T08:20:17.55Z</time></trkpt><trkpt lat="45.0418393" lon="7.2048486"><ele>1695.0</ele><time>2026-04-26T08:20:26.621Z</time></trkpt><trkpt lat="45.0417889" lon="7.2047874"><ele>1695.0</ele><time>2026-04-26T08:20:37.568Z</time></trkpt><trkpt lat="45.0417703" lon="7.2046915"><ele>1695.0</ele><time>2026-04-26T08:20:47.559Z</time></trkpt><trkpt lat="45.0417885" lon="7.2046017"><ele>1695.0</ele><time>2026-04-26T08:21:06.584Z</time></trkpt><trkpt lat="45.04173" lon="7.204564"><ele>1695.0</ele><time>2026-04-26T08:21:19.546Z</time></trkpt><trkpt lat="45.0417031" lon="7.2044779"><ele>1696.4285714285716</ele><time>2026-04-26T08:21:33.579Z</time></trkpt><trkpt lat="45.0416758" lon="7.2043821"><ele>1697.857142857143</ele><time>2026-04-26T08:21:47.609Z</time></trkpt><trkpt lat="45.0416183" lon="7.2042996"><ele>1699.2857142857142</ele><time>2026-04-26T08:22:22.576Z</time></trkpt><trkpt lat="45.0415817" lon="7.2042177"><ele>1700.7142857142858</ele><time>2026-04-26T08:22:26.613Z</time></trkpt><trkpt lat="45.0415392" lon="7.2041457"><ele>1702.142857142857</ele><time>2026-04-26T08:22:37.561Z</time></trkpt><trkpt lat="45.0415331" lon="7.2040543"><ele>1703.5714285714287</ele><time>2026-04-26T08:22:47.552Z</time></trkpt><trkpt lat="45.0414849" lon="7.2039926"><ele>1705.0</ele><time>2026-04-26T08:23:04.558Z</time></trkpt><trkpt lat="45.041451" lon="7.2038694"><ele>1710.1428571428573</ele><time>2026-04-26T08:23:43.564Z</time></trkpt><trkpt lat="45.0414387" lon="7.2037811"><ele>1715.2857142857142</ele><time>2026-04-26T08:23:50.579Z</time></trkpt><trkpt lat="45.0414464" lon="7.2036859"><ele>1720.4285714285716</ele><time>2026-04-26T08:24:03.544Z</time></trkpt><trkpt lat="45.0414589" lon="7.2035975"><ele>1725.5714285714287</ele><time>2026-04-26T08:24:09.603Z</time></trkpt><trkpt lat="45.0414549" lon="7.2035074"><ele>1730.7142857142858</ele><time>2026-04-26T08:24:20.55Z</time></trkpt><trkpt lat="45.0414067" lon="7.2034361"><ele>1735.857142857143</ele><time>2026-04-26T08:24:34.579Z</time></trkpt><trkpt lat="45.041342" lon="7.2034227"><ele>1741.0</ele><time>2026-04-26T08:24:42.567Z</time></trkpt><trkpt lat="45.0413199" lon="7.2033354"><ele>1741.0</ele><time>2026-04-26T08:25:14.544Z</time></trkpt><trkpt lat="45.0412588" lon="7.2033093"><ele>1741.0</ele><time>2026-04-26T08:25:18.58Z</time></trkpt><trkpt lat="45.0411827" lon="7.2032741"><ele>1741.0</ele><time>2026-04-26T08:25:28.571Z</time></trkpt><trkpt lat="45.0410932" lon="7.2032465"><ele>1741.0</ele><time>2026-04-26T08:26:05.556Z</time></trkpt><trkpt lat="45.041033" lon="7.20322"><ele>1741.0</ele><time>2026-04-26T08:26:12.571Z</time></trkpt><trkpt lat="45.0409566" lon="7.2031988"><ele>1741.0</ele><time>2026-04-26T08:27:00.61Z</time></trkpt><trkpt lat="45.0409094" lon="7.2031263"><ele>1741.0</ele><time>2026-04-26T08:27:28.562Z</time></trkpt><trkpt lat="45.0408768" lon="7.2030485"><ele>1739.5000000000002</ele><time>2026-04-26T08:28:07.569Z</time></trkpt><trkpt lat="45.0408305" lon="7.2029662"><ele>1738.0</ele><time>2026-04-26T08:28:11.606Z</time></trkpt><trkpt lat="45.04081" lon="7.2028194"><ele>1736.5</ele><time>2026-04-26T08:28:32.545Z</time></trkpt><trkpt lat="45.0407869" lon="7.2027307"><ele>1735.0</ele><time>2026-04-26T08:28:43.593Z</time></trkpt><trkpt lat="45.0408272" lon="7.2025975"><ele>1733.5000000000002</ele><time>2026-04-26T08:29:01.554Z</time></trkpt><trkpt lat="45.0408404" lon="7.2025011"><ele>1732.0</ele><time>2026-04-26T08:29:08.569Z</time></trkpt><trkpt lat="45.0408506" lon="7.2024127"><ele>1738.2857142857142</ele><time>2026-04-26T08:29:23.555Z</time></trkpt><trkpt lat="45.040876" lon="7.202331"><ele>1744.5714285714284</ele><time>2026-04-26T08:29:29.648Z</time></trkpt><trkpt lat="45.0408924" lon="7.2022365"><ele>1750.8571428571427</ele><time>2026-04-26T08:29:38.545Z</time></trkpt><trkpt lat="45.0409065" lon="7.2021469"><ele>1757.142857142857</ele><time>2026-04-26T08:29:47.575Z</time></trkpt><trkpt lat="45.0409207" lon="7.2020542"><ele>1763.4285714285716</ele><time>2026-04-26T08:29:55.546Z</time></trkpt><trkpt lat="45.0409017" lon="7.2019667"><ele>1769.7142857142856</ele><time>2026-04-26T08:30:18.61Z</time></trkpt><trkpt lat="45.040924" lon="7.2018751"><ele>1776.0</ele><time>2026-04-26T08:30:28.602Z</time></trkpt><trkpt lat="45.0409522" lon="7.2017921"><ele>1776.0</ele><time>2026-04-26T08:30:39.493Z</time></trkpt><trkpt lat="45.0409521" lon="7.2016893"><ele>1776.0</ele><time>2026-04-26T08:30:48.583Z</time></trkpt><trkpt lat="45.0409938" lon="7.2016053"><ele>1776.0</ele><time>2026-04-26T08:31:46.615Z</time></trkpt><trkpt lat="45.0410324" lon="7.2014582"><ele>1776.0</ele><time>2026-04-26T08:31:53.63Z</time></trkpt><trkpt lat="45.0410498" lon="7.2013656"><ele>1776.0</ele><time>2026-04-26T08:32:00.545Z</time></trkpt><trkpt lat="45.0410786" lon="7.201272"><ele>1776.0</ele><time>2026-04-26T08:32:08.616Z</time></trkpt><trkpt lat="45.04112" lon="7.2011969"><ele>1776.142857142857</ele><time>2026-04-26T08:32:19.563Z</time></trkpt><trkpt lat="45.0411551" lon="7.2011151"><ele>1776.2857142857144</ele><time>2026-04-26T08:32:27.64Z</time></trkpt><trkpt lat="45.0412038" lon="7.2010355"><ele>1776.4285714285716</ele><time>2026-04-26T08:33:07.603Z</time></trkpt><trkpt lat="45.0412286" lon="7.2009506"><ele>1776.5714285714284</ele><time>2026-04-26T08:33:14.617Z</time></trkpt><trkpt lat="45.0412383" lon="7.2008599"><ele>1776.7142857142858</ele><time>2026-04-26T08:33:23.508Z</time></trkpt><trkpt lat="45.0412445" lon="7.2007664"><ele>1776.857142857143</ele><time>2026-04-26T08:33:32.578Z</time></trkpt><trkpt lat="45.0412815" lon="7.2006932"><ele>1777.0</ele><time>2026-04-26T08:33:40.551Z</time></trkpt><trkpt lat="45.041312" lon="7.2005953"><ele>1777.857142857143</ele><time>2026-04-26T08:34:01.594Z</time></trkpt><trkpt lat="45.0413203" lon="7.2004969"><ele>1778.7142857142858</ele><time>2026-04-26T08:34:11.586Z</time></trkpt><trkpt lat="45.0413407" lon="7.2004066"><ele>1779.5714285714284</ele><time>2026-04-26T08:34:20.62Z</time></trkpt><trkpt lat="45.0413351" lon="7.2003155"><ele>1780.4285714285716</ele><time>2026-04-26T08:34:28.592Z</time></trkpt><trkpt lat="45.0413294" lon="7.2002201"><ele>1781.2857142857144</ele><time>2026-04-26T08:34:55.587Z</time></trkpt><trkpt lat="45.0413338" lon="7.2001261"><ele>1782.142857142857</ele><time>2026-04-26T08:35:04.622Z</time></trkpt><trkpt lat="45.0413609" lon="7.2000429"><ele>1783.0</ele><time>2026-04-26T08:35:12.593Z</time></trkpt><trkpt lat="45.0414772" lon="7.2000672"><ele>1783.0</ele><time>2026-04-26T08:35:55.638Z</time></trkpt><trkpt lat="45.0414899" lon="7.1999798"><ele>1783.0</ele><time>2026-04-26T08:36:12.545Z</time></trkpt><trkpt lat="45.0415253" lon="7.1998853"><ele>1783.0</ele><time>2026-04-26T08:36:28.585Z</time></trkpt><trkpt lat="45.041547" lon="7.1997892"><ele>1783.0</ele><time>2026-04-26T08:36:36.555Z</time></trkpt><trkpt lat="45.0415377" lon="7.1996851"><ele>1783.0</ele><time>2026-04-26T08:37:00.576Z</time></trkpt><trkpt lat="45.0415236" lon="7.199588"><ele>1783.0</ele><time>2026-04-26T08:37:06.634Z</time></trkpt><trkpt lat="45.0415406" lon="7.1994631"><ele>1783.0</ele><time>2026-04-26T08:37:31.611Z</time></trkpt><trkpt lat="45.0415219" lon="7.1993644"><ele>1785.142857142857</ele><time>2026-04-26T08:37:37.563Z</time></trkpt><trkpt lat="45.0414959" lon="7.1992733"><ele>1787.2857142857142</ele><time>2026-04-26T08:37:58.607Z</time></trkpt><trkpt lat="45.0414533" lon="7.1991979"><ele>1789.4285714285713</ele><time>2026-04-26T08:38:06.578Z</time></trkpt><trkpt lat="45.0414556" lon="7.199107"><ele>1791.5714285714284</ele><time>2026-04-26T08:38:14.647Z</time></trkpt><trkpt lat="45.0414245" lon="7.1989954"><ele>1793.7142857142858</ele><time>2026-04-26T08:38:30.598Z</time></trkpt><trkpt lat="45.0414189" lon="7.1988938"><ele>1795.8571428571427</ele><time>2026-04-26T08:38:38.569Z</time></trkpt><trkpt lat="45.0414115" lon="7.1987983"><ele>1797.9999999999998</ele><time>2026-04-26T08:38:45.584Z</time></trkpt><trkpt lat="45.0414067" lon="7.1987048"><ele>1800.6666666666667</ele><time>2026-04-26T08:38:53.555Z</time></trkpt><trkpt lat="45.0414134" lon="7.1986081"><ele>1803.3333333333335</ele><time>2026-04-26T08:39:07.585Z</time></trkpt><trkpt lat="45.0413913" lon="7.1984117"><ele>1806.0</ele><time>2026-04-26T08:44:29.622Z</time></trkpt><trkpt lat="45.0413838" lon="7.1983189"><ele>1808.6666666666665</ele><time>2026-04-26T08:44:39.613Z</time></trkpt><trkpt lat="45.0413926" lon="7.1982286"><ele>1811.3333333333333</ele><time>2026-04-26T08:44:48.646Z</time></trkpt><trkpt lat="45.0413751" lon="7.1981391"><ele>1814.0</ele><time>2026-04-26T08:44:59.594Z</time></trkpt><trkpt lat="45.0413447" lon="7.1980519"><ele>1816.714285714286</ele><time>2026-04-26T08:45:09.566Z</time></trkpt><trkpt lat="45.0413094" lon="7.1978981"><ele>1819.4285714285716</ele><time>2026-04-26T08:45:37.644Z</time></trkpt><trkpt lat="45.0412808" lon="7.1978129"><ele>1822.142857142857</ele><time>2026-04-26T08:45:53.586Z</time></trkpt><trkpt lat="45.0412944" lon="7.1977223"><ele>1824.857142857143</ele><time>2026-04-26T08:46:16.65Z</time></trkpt><trkpt lat="45.0412912" lon="7.1976323"><ele>1827.5714285714284</ele><time>2026-04-26T08:46:25.576Z</time></trkpt><trkpt lat="45.0413014" lon="7.1975351"><ele>1830.285714285714</ele><time>2026-04-26T08:46:40.563Z</time></trkpt><trkpt lat="45.0412743" lon="7.1974513"><ele>1832.9999999999998</ele><time>2026-04-26T08:46:59.587Z</time></trkpt><trkpt lat="45.0412628" lon="7.1973193"><ele>1836.1428571428569</ele><time>2026-04-26T08:47:32.546Z</time></trkpt><trkpt lat="45.0412756" lon="7.1972312"><ele>1839.2857142857142</ele><time>2026-04-26T08:47:40.611Z</time></trkpt><trkpt lat="45.0412632" lon="7.1971359"><ele>1842.4285714285713</ele><time>2026-04-26T08:47:49.628Z</time></trkpt><trkpt lat="45.0412256" lon="7.1970605"><ele>1845.5714285714284</ele><time>2026-04-26T08:47:57.645Z</time></trkpt><trkpt lat="45.0411565" lon="7.1970255"><ele>1848.7142857142858</ele><time>2026-04-26T08:48:09.549Z</time></trkpt><trkpt lat="45.0411497" lon="7.1969267"><ele>1851.857142857143</ele><time>2026-04-26T08:48:26.554Z</time></trkpt><trkpt lat="45.0411159" lon="7.1968503"><ele>1855.0</ele><time>2026-04-26T08:48:35.588Z</time></trkpt><trkpt lat="45.041071" lon="7.1967782"><ele>1855.0</ele><time>2026-04-26T08:48:46.642Z</time></trkpt><trkpt lat="45.0410513" lon="7.1966875"><ele>1855.0</ele><time>2026-04-26T08:48:59.608Z</time></trkpt><trkpt lat="45.0410342" lon="7.1965964"><ele>1855.0</ele><time>2026-04-26T08:49:12.574Z</time></trkpt><trkpt lat="45.0410139" lon="7.1965112"><ele>1855.0</ele><time>2026-04-26T08:49:28.623Z</time></trkpt><trkpt lat="45.0410042" lon="7.1964041"><ele>1855.0</ele><time>2026-04-26T08:49:46.583Z</time></trkpt><trkpt lat="45.0410274" lon="7.1963183"><ele>1855.0</ele><time>2026-04-26T08:49:54.555Z</time></trkpt><trkpt lat="45.0410865" lon="7.1962844"><ele>1855.0</ele><time>2026-04-26T08:50:13.596Z</time></trkpt><trkpt lat="45.0411493" lon="7.1962771"><ele>1856.6666666666667</ele><time>2026-04-26T08:50:21.551Z</time></trkpt><trkpt lat="45.0411165" lon="7.1962007"><ele>1858.3333333333335</ele><time>2026-04-26T08:50:41.638Z</time></trkpt><trkpt lat="45.0411311" lon="7.1961133"><ele>1860.0</ele><time>2026-04-26T08:50:54.604Z</time></trkpt><trkpt lat="45.0411533" lon="7.1960256"><ele>1861.6666666666665</ele><time>2026-04-26T08:51:09.59Z</time></trkpt><trkpt lat="45.041054" lon="7.1961718"><ele>1863.3333333333333</ele><time>2026-04-26T08:51:45.619Z</time></trkpt><trkpt lat="45.0410703" lon="7.1962605"><ele>1865.0</ele><time>2026-04-26T08:51:50.544Z</time></trkpt><trkpt lat="45.0411264" lon="7.1961706"><ele>1864.9999999999998</ele><time>2026-04-26T08:51:56.568Z</time></trkpt><trkpt lat="45.0411495" lon="7.1960552"><ele>1865.0</ele><time>2026-04-26T08:52:04.544Z</time></trkpt><trkpt lat="45.0411902" lon="7.1959704"><ele>1865.0</ele><time>2026-04-26T08:55:05.592Z</time></trkpt><trkpt lat="45.0412266" lon="7.1958504"><ele>1865.0</ele><time>2026-04-26T08:55:25.575Z</time></trkpt><trkpt lat="45.0413012" lon="7.1959256"><ele>1864.9999999999998</ele><time>2026-04-26T08:55:56.612Z</time></trkpt><trkpt lat="45.0413402" lon="7.1958535"><ele>1865.0</ele><time>2026-04-26T08:56:11.6Z</time></trkpt><trkpt lat="45.0413613" lon="7.1957082"><ele>1865.1428571428573</ele><time>2026-04-26T08:56:37.631Z</time></trkpt><trkpt lat="45.0413967" lon="7.1956285"><ele>1865.2857142857144</ele><time>2026-04-26T08:56:49.601Z</time></trkpt><trkpt lat="45.0414312" lon="7.1955424"><ele>1865.4285714285716</ele><time>2026-04-26T08:57:00.59Z</time></trkpt><trkpt lat="45.0414724" lon="7.1954722"><ele>1865.5714285714284</ele><time>2026-04-26T08:57:06.545Z</time></trkpt><trkpt lat="45.0415193" lon="7.1954114"><ele>1865.7142857142856</ele><time>2026-04-26T08:57:16.545Z</time></trkpt><trkpt lat="45.0415453" lon="7.1953245"><ele>1865.8571428571427</ele><time>2026-04-26T08:57:25.569Z</time></trkpt><trkpt lat="45.0415753" lon="7.1952396"><ele>1866.0</ele><time>2026-04-26T08:57:32.583Z</time></trkpt><trkpt lat="45.0416804" lon="7.1951203"><ele>1873.4285714285713</ele><time>2026-04-26T08:57:57.562Z</time></trkpt><trkpt lat="45.0417214" lon="7.1950387"><ele>1880.8571428571427</ele><time>2026-04-26T08:58:27.544Z</time></trkpt><trkpt lat="45.0417628" lon="7.1949672"><ele>1888.2857142857142</ele><time>2026-04-26T08:58:33.593Z</time></trkpt><trkpt lat="45.0417758" lon="7.1948708"><ele>1895.7142857142858</ele><time>2026-04-26T08:58:40.608Z</time></trkpt><trkpt lat="45.0417911" lon="7.1947825"><ele>1903.142857142857</ele><time>2026-04-26T08:58:49.642Z</time></trkpt><trkpt lat="45.0417889" lon="7.1946914"><ele>1910.5714285714284</ele><time>2026-04-26T08:59:00.59Z</time></trkpt><trkpt lat="45.0417987" lon="7.1946004"><ele>1918.0</ele><time>2026-04-26T08:59:12.6Z</time></trkpt><trkpt lat="45.0417935" lon="7.1945104"><ele>1918.142857142857</ele><time>2026-04-26T08:59:24.704Z</time></trkpt><trkpt lat="45.0418038" lon="7.1944208"><ele>1918.2857142857142</ele><time>2026-04-26T08:59:34.626Z</time></trkpt><trkpt lat="45.0418035" lon="7.1943267"><ele>1918.4285714285716</ele><time>2026-04-26T08:59:44.617Z</time></trkpt><trkpt lat="45.0418431" lon="7.194253"><ele>1918.5714285714287</ele><time>2026-04-26T08:59:57.584Z</time></trkpt><trkpt lat="45.0418608" lon="7.194163"><ele>1918.7142857142858</ele><time>2026-04-26T09:00:08.645Z</time></trkpt><trkpt lat="45.0418296" lon="7.1940805"><ele>1918.8571428571431</ele><time>2026-04-26T09:00:18.629Z</time></trkpt><trkpt lat="45.0418223" lon="7.1939771"><ele>1919.0000000000002</ele><time>2026-04-26T09:00:34.572Z</time></trkpt><trkpt lat="45.0418436" lon="7.1938932"><ele>1921.6666666666665</ele><time>2026-04-26T09:00:43.5Z</time></trkpt><trkpt lat="45.0419122" lon="7.1938561"><ele>1924.3333333333333</ele><time>2026-04-26T09:00:55.604Z</time></trkpt><trkpt lat="45.0419399" lon="7.193657"><ele>1927.0</ele><time>2026-04-26T09:01:36.506Z</time></trkpt><trkpt lat="45.0419772" lon="7.1935828"><ele>1929.6666666666665</ele><time>2026-04-26T09:01:47.592Z</time></trkpt><trkpt lat="45.0420094" lon="7.1935043"><ele>1932.3333333333333</ele><time>2026-04-26T09:01:58.602Z</time></trkpt><trkpt lat="45.0419883" lon="7.1934121"><ele>1935.0</ele><time>2026-04-26T09:02:08.635Z</time></trkpt><trkpt lat="45.0419551" lon="7.1932678"><ele>1935.0</ele><time>2026-04-26T09:02:36.588Z</time></trkpt><trkpt lat="45.0419962" lon="7.1931925"><ele>1935.0</ele><time>2026-04-26T09:02:56.568Z</time></trkpt><trkpt lat="45.0419641" lon="7.1930616"><ele>1935.0</ele><time>2026-04-26T09:03:19.632Z</time></trkpt><trkpt lat="45.041923" lon="7.1929846"><ele>1935.0</ele><time>2026-04-26T09:03:26.546Z</time></trkpt><trkpt lat="45.0418708" lon="7.1929225"><ele>1935.0</ele><time>2026-04-26T09:03:36.637Z</time></trkpt><trkpt lat="45.0417841" lon="7.1928362"><ele>1935.0</ele><time>2026-04-26T09:04:05.546Z</time></trkpt><trkpt lat="45.0417388" lon="7.1927718"><ele>1933.0</ele><time>2026-04-26T09:04:14.579Z</time></trkpt><trkpt lat="45.0417156" lon="7.1926839"><ele>1931.0</ele><time>2026-04-26T09:04:22.55Z</time></trkpt><trkpt lat="45.0416607" lon="7.1926282"><ele>1929.0</ele><time>2026-04-26T09:04:34.56Z</time></trkpt><trkpt lat="45.0416062" lon="7.1925721"><ele>1927.0</ele><time>2026-04-26T09:04:41.574Z</time></trkpt><trkpt lat="45.0415659" lon="7.1924922"><ele>1925.0</ele><time>2026-04-26T09:04:49.546Z</time></trkpt><trkpt lat="45.0415025" lon="7.1923355"><ele>1923.0</ele><time>2026-04-26T09:05:34.606Z</time></trkpt><trkpt lat="45.0414602" lon="7.1922606"><ele>1926.4285714285713</ele><time>2026-04-26T09:05:45.554Z</time></trkpt><trkpt lat="45.0414209" lon="7.1921805"><ele>1929.8571428571431</ele><time>2026-04-26T09:05:55.651Z</time></trkpt><trkpt lat="45.0414009" lon="7.1920939"><ele>1933.2857142857144</ele><time>2026-04-26T09:06:05.641Z</time></trkpt><trkpt lat="45.0413781" lon="7.1920042"><ele>1936.7142857142858</ele><time>2026-04-26T09:06:23.601Z</time></trkpt><trkpt lat="45.0413553" lon="7.1919165"><ele>1940.1428571428573</ele><time>2026-04-26T09:06:36.567Z</time></trkpt><trkpt lat="45.0413395" lon="7.1918276"><ele>1943.571428571429</ele><time>2026-04-26T09:06:47.621Z</time></trkpt><trkpt lat="45.0413143" lon="7.1917429"><ele>1947.0000000000002</ele><time>2026-04-26T09:06:56.623Z</time></trkpt><trkpt lat="45.0412598" lon="7.1916876"><ele>1947.0000000000002</ele><time>2026-04-26T09:07:14.616Z</time></trkpt><trkpt lat="45.0412103" lon="7.1916298"><ele>1947.0</ele><time>2026-04-26T09:07:23.649Z</time></trkpt><trkpt lat="45.0411754" lon="7.1915467"><ele>1947.0000000000002</ele><time>2026-04-26T09:07:48.625Z</time></trkpt><trkpt lat="45.0411944" lon="7.1914507"><ele>1947.0000000000002</ele><time>2026-04-26T09:08:02.546Z</time></trkpt><trkpt lat="45.041215" lon="7.1913623"><ele>1947.0</ele><time>2026-04-26T09:08:11.581Z</time></trkpt><trkpt lat="45.041252" lon="7.191288"><ele>1947.0000000000002</ele><time>2026-04-26T09:08:22.633Z</time></trkpt><trkpt lat="45.0412336" lon="7.1911965"><ele>1947.0000000000002</ele><time>2026-04-26T09:08:31.561Z</time></trkpt><trkpt lat="45.0412015" lon="7.1911126"><ele>1950.0000000000002</ele><time>2026-04-26T09:08:40.554Z</time></trkpt><trkpt lat="45.0411473" lon="7.1910585"><ele>1953.0</ele><time>2026-04-26T09:08:50.585Z</time></trkpt><trkpt lat="45.041084" lon="7.191022"><ele>1956.0000000000002</ele><time>2026-04-26T09:08:59.617Z</time></trkpt><trkpt lat="45.0410572" lon="7.1909393"><ele>1959.0000000000002</ele><time>2026-04-26T09:09:12.633Z</time></trkpt><trkpt lat="45.0410476" lon="7.1908494"><ele>1962.0</ele><time>2026-04-26T09:09:25.514Z</time></trkpt><trkpt lat="45.0410091" lon="7.1907736"><ele>1965.0000000000002</ele><time>2026-04-26T09:09:43.616Z</time></trkpt><trkpt lat="45.0410063" lon="7.1906793"><ele>1968.0000000000002</ele><time>2026-04-26T09:10:10.611Z</time></trkpt><trkpt lat="45.0410312" lon="7.1905948"><ele>1971.2857142857147</ele><time>2026-04-26T09:10:22.621Z</time></trkpt><trkpt lat="45.0410392" lon="7.1905035"><ele>1974.5714285714287</ele><time>2026-04-26T09:10:31.575Z</time></trkpt><trkpt lat="45.0409894" lon="7.190437"><ele>1977.8571428571431</ele><time>2026-04-26T09:10:49.615Z</time></trkpt><trkpt lat="45.0409275" lon="7.1903873"><ele>1981.1428571428573</ele><time>2026-04-26T09:12:40.568Z</time></trkpt><trkpt lat="45.0408938" lon="7.1904728"><ele>1984.4285714285716</ele><time>2026-04-26T09:12:44.573Z</time></trkpt><trkpt lat="45.0409423" lon="7.19041"><ele>1987.7142857142858</ele><time>2026-04-26T09:13:58.577Z</time></trkpt><trkpt lat="45.0408594" lon="7.1903839"><ele>1991.0</ele><time>2026-04-26T09:25:14.626Z</time></trkpt><trkpt lat="45.0408044" lon="7.1903271"><ele>1989.857142857143</ele><time>2026-04-26T09:25:18.559Z</time></trkpt><trkpt lat="45.0407949" lon="7.1901985"><ele>1988.7142857142858</ele><time>2026-04-26T09:30:13.591Z</time></trkpt><trkpt lat="45.0407526" lon="7.1901282"><ele>1987.5714285714287</ele><time>2026-04-26T09:30:22.628Z</time></trkpt><trkpt lat="45.0406998" lon="7.1900697"><ele>1986.4285714285716</ele><time>2026-04-26T09:30:32.618Z</time></trkpt><trkpt lat="45.0406686" lon="7.1899874"><ele>1985.2857142857142</ele><time>2026-04-26T09:30:38.57Z</time></trkpt><trkpt lat="45.0406382" lon="7.1898976"><ele>1984.1428571428573</ele><time>2026-04-26T09:30:44.551Z</time></trkpt><trkpt lat="45.0406117" lon="7.189811"><ele>1983.0</ele><time>2026-04-26T09:30:49.63Z</time></trkpt><trkpt lat="45.0405982" lon="7.1897113"><ele>1983.0</ele><time>2026-04-26T09:30:55.651Z</time></trkpt><trkpt lat="45.0405738" lon="7.1896248"><ele>1983.0</ele><time>2026-04-26T09:31:04.591Z</time></trkpt><trkpt lat="45.0405572" lon="7.1895351"><ele>1983.0</ele><time>2026-04-26T09:31:12.581Z</time></trkpt><trkpt lat="45.0405331" lon="7.1894426"><ele>1983.0</ele><time>2026-04-26T09:31:44.572Z</time></trkpt><trkpt lat="45.0404833" lon="7.1893734"><ele>1983.0</ele><time>2026-04-26T09:31:51.587Z</time></trkpt><trkpt lat="45.0404314" lon="7.1893194"><ele>1983.0</ele><time>2026-04-26T09:31:56.582Z</time></trkpt><trkpt lat="45.0403836" lon="7.1892515"><ele>1983.0</ele><time>2026-04-26T09:32:06.573Z</time></trkpt><trkpt lat="45.0403222" lon="7.1892055"><ele>1983.0</ele><time>2026-04-26T09:32:12.632Z</time></trkpt><trkpt lat="45.0402567" lon="7.1891167"><ele>1983.0</ele><time>2026-04-26T09:33:07.545Z</time></trkpt><trkpt lat="45.0402263" lon="7.1889897"><ele>1983.0</ele><time>2026-04-26T09:33:31.601Z</time></trkpt><trkpt lat="45.0401903" lon="7.1889058"><ele>1983.0</ele><time>2026-04-26T09:33:38.615Z</time></trkpt><trkpt lat="45.0401603" lon="7.1888219"><ele>1983.0</ele><time>2026-04-26T09:33:48.606Z</time></trkpt><trkpt lat="45.0401277" lon="7.1887364"><ele>1983.0</ele><time>2026-04-26T09:34:00.612Z</time></trkpt><trkpt lat="45.0401442" lon="7.1886464"><ele>1984.7142857142858</ele><time>2026-04-26T09:34:09.546Z</time></trkpt><trkpt lat="45.0401214" lon="7.188561"><ele>1986.4285714285713</ele><time>2026-04-26T09:34:17.62Z</time></trkpt><trkpt lat="45.0400928" lon="7.1884752"><ele>1988.142857142857</ele><time>2026-04-26T09:34:38.452Z</time></trkpt><trkpt lat="45.0400596" lon="7.1883921"><ele>1989.857142857143</ele><time>2026-04-26T09:34:49.608Z</time></trkpt><trkpt lat="45.0400126" lon="7.1883308"><ele>1991.5714285714284</ele><time>2026-04-26T09:34:58.643Z</time></trkpt><trkpt lat="45.0399603" lon="7.188273"><ele>1993.2857142857142</ele><time>2026-04-26T09:35:06.229Z</time></trkpt><trkpt lat="45.0399151" lon="7.1882064"><ele>1995.0</ele><time>2026-04-26T09:35:14.585Z</time></trkpt><trkpt lat="45.0398727" lon="7.1881334"><ele>1997.4285714285716</ele><time>2026-04-26T09:35:22.649Z</time></trkpt><trkpt lat="45.0398304" lon="7.1880588"><ele>1999.857142857143</ele><time>2026-04-26T09:35:35.627Z</time></trkpt><trkpt lat="45.0397879" lon="7.1879726"><ele>2002.2857142857142</ele><time>2026-04-26T09:36:18.563Z</time></trkpt><trkpt lat="45.0397337" lon="7.187902"><ele>2004.7142857142858</ele><time>2026-04-26T09:36:22.601Z</time></trkpt><trkpt lat="45.039695" lon="7.1878247"><ele>2007.1428571428573</ele><time>2026-04-26T09:36:31.635Z</time></trkpt><trkpt lat="45.0396611" lon="7.1877388"><ele>2009.5714285714287</ele><time>2026-04-26T09:36:42.581Z</time></trkpt><trkpt lat="45.0396433" lon="7.1876458"><ele>2012.0</ele><time>2026-04-26T09:36:55.653Z</time></trkpt><trkpt lat="45.0396236" lon="7.1875569"><ele>2012.0</ele><time>2026-04-26T09:37:05.643Z</time></trkpt><trkpt lat="45.039586" lon="7.1874844"><ele>2012.0000000000002</ele><time>2026-04-26T09:37:19.565Z</time></trkpt><trkpt lat="45.0395464" lon="7.187401"><ele>2012.0</ele><time>2026-04-26T09:37:36.569Z</time></trkpt><trkpt lat="45.0395054" lon="7.1873223"><ele>2012.0</ele><time>2026-04-26T09:37:45.602Z</time></trkpt><trkpt lat="45.0394764" lon="7.1872421"><ele>2012.0000000000002</ele><time>2026-04-26T09:37:55.569Z</time></trkpt><trkpt lat="45.0394382" lon="7.1871637"><ele>2012.0</ele><time>2026-04-26T09:38:07.592Z</time></trkpt><trkpt lat="45.039399" lon="7.1870915"><ele>2012.0</ele><time>2026-04-26T09:38:16.633Z</time></trkpt><trkpt lat="45.0393559" lon="7.1870237"><ele>2014.4285714285716</ele><time>2026-04-26T09:38:26.624Z</time></trkpt><trkpt lat="45.0393047" lon="7.1869602"><ele>2016.8571428571431</ele><time>2026-04-26T09:38:35.551Z</time></trkpt><trkpt lat="45.0392614" lon="7.1868902"><ele>2019.2857142857142</ele><time>2026-04-26T09:38:46.602Z</time></trkpt><trkpt lat="45.0392138" lon="7.1868263"><ele>2021.7142857142858</ele><time>2026-04-26T09:38:56.593Z</time></trkpt><trkpt lat="45.0392095" lon="7.1867318"><ele>2024.142857142857</ele><time>2026-04-26T09:39:17.545Z</time></trkpt><trkpt lat="45.0392119" lon="7.1866081"><ele>2026.5714285714284</ele><time>2026-04-26T09:39:34.639Z</time></trkpt><trkpt lat="45.039182" lon="7.1865209"><ele>2028.9999999999998</ele><time>2026-04-26T09:39:46.545Z</time></trkpt><trkpt lat="45.0392151" lon="7.1864359"><ele>2033.1666666666667</ele><time>2026-04-26T09:40:05.564Z</time></trkpt><trkpt lat="45.0392932" lon="7.1863137"><ele>2037.3333333333335</ele><time>2026-04-26T09:41:00.654Z</time></trkpt><trkpt lat="45.0392962" lon="7.1862238"><ele>2041.5</ele><time>2026-04-26T09:41:09.544Z</time></trkpt><trkpt lat="45.0393169" lon="7.1861364"><ele>2045.6666666666665</ele><time>2026-04-26T09:41:20.594Z</time></trkpt><trkpt lat="45.0393132" lon="7.1860465"><ele>2049.833333333333</ele><time>2026-04-26T09:41:31.544Z</time></trkpt><trkpt lat="45.0392787" lon="7.1859427"><ele>2054.0</ele><time>2026-04-26T09:42:17.557Z</time></trkpt><trkpt lat="45.0392252" lon="7.1858819"><ele>2054.0</ele><time>2026-04-26T09:42:34.56Z</time></trkpt><trkpt lat="45.0391757" lon="7.1858211"><ele>2054.0</ele><time>2026-04-26T09:43:01.555Z</time></trkpt><trkpt lat="45.0390768" lon="7.1857499"><ele>2054.0</ele><time>2026-04-26T09:44:06.594Z</time></trkpt><trkpt lat="45.0390168" lon="7.1857202"><ele>2054.0</ele><time>2026-04-26T09:44:23.499Z</time></trkpt><trkpt lat="45.038953" lon="7.1856675"><ele>2054.0</ele><time>2026-04-26T09:44:45.596Z</time></trkpt><trkpt lat="45.0388894" lon="7.1856467"><ele>2054.0</ele><time>2026-04-26T09:44:54.63Z</time></trkpt><trkpt lat="45.0388059" lon="7.1855503"><ele>2056.285714285714</ele><time>2026-04-26T09:45:25.556Z</time></trkpt><trkpt lat="45.0387457" lon="7.1855087"><ele>2058.571428571429</ele><time>2026-04-26T09:45:33.572Z</time></trkpt><trkpt lat="45.0386833" lon="7.1854951"><ele>2060.857142857143</ele><time>2026-04-26T09:46:01.583Z</time></trkpt><trkpt lat="45.0386443" lon="7.1854122"><ele>2063.1428571428573</ele><time>2026-04-26T09:46:20.606Z</time></trkpt><trkpt lat="45.0386191" lon="7.1852958"><ele>2065.4285714285716</ele><time>2026-04-26T09:46:40.945Z</time></trkpt><trkpt lat="45.0386046" lon="7.1851735"><ele>2067.714285714286</ele><time>2026-04-26T09:47:14.594Z</time></trkpt><trkpt lat="45.0385473" lon="7.1851217"><ele>2070.0</ele><time>2026-04-26T09:47:49.559Z</time></trkpt><trkpt lat="45.0384742" lon="7.1850929"><ele>2070.0</ele><time>2026-04-26T09:48:31.544Z</time></trkpt><trkpt lat="45.0384417" lon="7.1850148"><ele>2070.0</ele><time>2026-04-26T09:49:30.523Z</time></trkpt><trkpt lat="45.0384028" lon="7.1849358"><ele>2070.0</ele><time>2026-04-26T09:49:42.639Z</time></trkpt><trkpt lat="45.0383617" lon="7.1848058"><ele>2070.0</ele><time>2026-04-26T09:50:43.642Z</time></trkpt><trkpt lat="45.0383149" lon="7.1847101"><ele>2070.0</ele><time>2026-04-26T09:51:03.622Z</time></trkpt><trkpt lat="45.0382596" lon="7.1846647"><ele>2070.0</ele><time>2026-04-26T09:51:17.544Z</time></trkpt><trkpt lat="45.0382503" lon="7.1845754"><ele>2070.0</ele><time>2026-04-26T09:51:33.592Z</time></trkpt><trkpt lat="45.038185" lon="7.1845567"><ele>2070.4285714285716</ele><time>2026-04-26T09:52:14.544Z</time></trkpt><trkpt lat="45.038125" lon="7.1845217"><ele>2070.857142857143</ele><time>2026-04-26T09:52:27.543Z</time></trkpt><trkpt lat="45.0380583" lon="7.184505"><ele>2071.2857142857147</ele><time>2026-04-26T09:52:37.544Z</time></trkpt><trkpt lat="45.0380267" lon="7.184425"><ele>2071.714285714286</ele><time>2026-04-26T09:52:58.544Z</time></trkpt><trkpt lat="45.0379908" lon="7.1843379"><ele>2072.1428571428573</ele><time>2026-04-26T09:58:13.45Z</time></trkpt><trkpt lat="45.0379749" lon="7.1842402"><ele>2072.571428571429</ele><time>2026-04-26T09:58:19.564Z</time></trkpt><trkpt lat="45.0379341" lon="7.1841542"><ele>2073.0</ele><time>2026-04-26T09:58:24.607Z</time></trkpt><trkpt lat="45.0378953" lon="7.1840769"><ele>2075.6666666666665</ele><time>2026-04-26T09:58:33.592Z</time></trkpt><trkpt lat="45.037915" lon="7.1839893"><ele>2078.3333333333335</ele><time>2026-04-26T09:58:40.606Z</time></trkpt><trkpt lat="45.0379704" lon="7.1838657"><ele>2081.0</ele><time>2026-04-26T09:59:26.623Z</time></trkpt><trkpt lat="45.0379815" lon="7.1837701"><ele>2083.666666666667</ele><time>2026-04-26T09:59:37.569Z</time></trkpt><trkpt lat="45.037943" lon="7.1836594"><ele>2086.3333333333335</ele><time>2026-04-26T09:59:53.616Z</time></trkpt><trkpt lat="45.0379262" lon="7.1835691"><ele>2089.0</ele><time>2026-04-26T10:00:04.65Z</time></trkpt><trkpt lat="45.0378981" lon="7.183449"><ele>2089.0</ele><time>2026-04-26T10:01:46.585Z</time></trkpt><trkpt lat="45.0378845" lon="7.1833575"><ele>2089.0</ele><time>2026-04-26T10:01:49.561Z</time></trkpt><trkpt lat="45.0378688" lon="7.1832653"><ele>2089.0</ele><time>2026-04-26T10:01:57.638Z</time></trkpt><trkpt lat="45.0378466" lon="7.1831807"><ele>2089.0</ele><time>2026-04-26T10:02:40.573Z</time></trkpt><trkpt lat="45.0378175" lon="7.1830923"><ele>2089.0</ele><time>2026-04-26T10:03:16.6Z</time></trkpt><trkpt lat="45.0377662" lon="7.1830294"><ele>2089.0</ele><time>2026-04-26T10:03:22.552Z</time></trkpt><trkpt lat="45.0377191" lon="7.1829699"><ele>2089.0</ele><time>2026-04-26T10:03:38.599Z</time></trkpt><trkpt lat="45.0377082" lon="7.1828768"><ele>2091.0</ele><time>2026-04-26T10:03:48.588Z</time></trkpt><trkpt lat="45.0376965" lon="7.1827793"><ele>2093.0</ele><time>2026-04-26T10:03:58.712Z</time></trkpt><trkpt lat="45.0376765" lon="7.1826912"><ele>2095.0</ele><time>2026-04-26T10:04:16.587Z</time></trkpt><trkpt lat="45.0376667" lon="7.1825987"><ele>2097.0</ele><time>2026-04-26T10:04:24.557Z</time></trkpt><trkpt lat="45.0376754" lon="7.1825073"><ele>2099.0</ele><time>2026-04-26T10:04:33.59Z</time></trkpt><trkpt lat="45.037633" lon="7.182436"><ele>2101.0</ele><time>2026-04-26T10:04:43.58Z</time></trkpt><trkpt lat="45.0376219" lon="7.1823385"><ele>2103.0</ele><time>2026-04-26T10:04:51.55Z</time></trkpt><trkpt lat="45.0376129" lon="7.1822302"><ele>2103.0</ele><time>2026-04-26T10:08:10.511Z</time></trkpt><trkpt lat="45.037587" lon="7.1821447"><ele>2103.0</ele><time>2026-04-26T10:08:17.611Z</time></trkpt><trkpt lat="45.0375453" lon="7.1820636"><ele>2103.0</ele><time>2026-04-26T10:09:18.649Z</time></trkpt><trkpt lat="45.0374867" lon="7.1821183"><ele>2103.0</ele><time>2026-04-26T10:19:09.545Z</time></trkpt><trkpt lat="45.0375433" lon="7.1821833"><ele>2103.0</ele><time>2026-04-26T10:19:28.546Z</time></trkpt><trkpt lat="45.0375717" lon="7.1822683"><ele>2103.0</ele><time>2026-04-26T10:19:41.545Z</time></trkpt><trkpt lat="45.037655" lon="7.1822183"><ele>2103.0</ele><time>2026-04-26T10:20:42.544Z</time></trkpt><trkpt lat="45.0376383" lon="7.1826117"><ele>2103.0</ele><time>2026-04-26T10:22:11.045Z</time></trkpt><trkpt lat="45.037635" lon="7.182505"><ele>2103.0</ele><time>2026-04-26T10:22:13.545Z</time></trkpt><trkpt lat="45.03766" lon="7.1824183"><ele>2103.0</ele><time>2026-04-26T10:22:21.545Z</time></trkpt><trkpt lat="45.03765" lon="7.18233"><ele>2103.0</ele><time>2026-04-26T10:22:27.545Z</time></trkpt><trkpt lat="45.0376567" lon="7.182425"><ele>2103.0</ele><time>2026-04-26T10:22:48.545Z</time></trkpt><trkpt lat="45.0376828" lon="7.1825093"><ele>2103.0</ele><time>2026-04-26T10:22:57.619Z</time></trkpt><trkpt lat="45.0376973" lon="7.1826072"><ele>2103.0</ele><time>2026-04-26T10:23:08.566Z</time></trkpt><trkpt lat="45.037711" lon="7.1827038"><ele>2103.0</ele><time>2026-04-26T10:23:16.643Z</time></trkpt><trkpt lat="45.0377107" lon="7.1828011"><ele>2103.0</ele><time>2026-04-26T10:23:23.615Z</time></trkpt><trkpt lat="45.0377034" lon="7.1828964"><ele>2103.0</ele><time>2026-04-26T10:23:30.552Z</time></trkpt><trkpt lat="45.0377443" lon="7.1829708"><ele>2103.0</ele><time>2026-04-26T10:23:37.58Z</time></trkpt><trkpt lat="45.0377937" lon="7.1830316"><ele>2103.0</ele><time>2026-04-26T10:23:44.614Z</time></trkpt><trkpt lat="45.0378362" lon="7.1830988"><ele>2103.0</ele><time>2026-04-26T10:23:52.565Z</time></trkpt><trkpt lat="45.0378635" lon="7.1831802"><ele>2103.0</ele><time>2026-04-26T10:24:03.618Z</time></trkpt><trkpt lat="45.0378958" lon="7.1832689"><ele>2101.0</ele><time>2026-04-26T10:24:12.545Z</time></trkpt><trkpt lat="45.0379118" lon="7.183362"><ele>2099.0</ele><time>2026-04-26T10:24:22.641Z</time></trkpt><trkpt lat="45.0379118" lon="7.1834552"><ele>2097.0</ele><time>2026-04-26T10:24:33.588Z</time></trkpt><trkpt lat="45.0379338" lon="7.1835402"><ele>2095.0</ele><time>2026-04-26T10:24:43.578Z</time></trkpt><trkpt lat="45.0379439" lon="7.1836318"><ele>2093.0</ele><time>2026-04-26T10:24:51.554Z</time></trkpt><trkpt lat="45.0379499" lon="7.1837289"><ele>2091.0</ele><time>2026-04-26T10:25:01.545Z</time></trkpt><trkpt lat="45.0379548" lon="7.1838251"><ele>2089.0</ele><time>2026-04-26T10:25:10.572Z</time></trkpt><trkpt lat="45.0379684" lon="7.1839172"><ele>2086.714285714286</ele><time>2026-04-26T10:25:20.562Z</time></trkpt><trkpt lat="45.0379496" lon="7.1840324"><ele>2084.4285714285716</ele><time>2026-04-26T10:25:40.544Z</time></trkpt><trkpt lat="45.0379468" lon="7.1841215"><ele>2082.1428571428573</ele><time>2026-04-26T10:25:47.556Z</time></trkpt><trkpt lat="45.0379661" lon="7.1842119"><ele>2079.857142857143</ele><time>2026-04-26T10:25:55.633Z</time></trkpt><trkpt lat="45.0379751" lon="7.184302"><ele>2077.5714285714284</ele><time>2026-04-26T10:26:08.599Z</time></trkpt><trkpt lat="45.0380153" lon="7.1843784"><ele>2075.2857142857147</ele><time>2026-04-26T10:26:39.526Z</time></trkpt><trkpt lat="45.0380508" lon="7.1844589"><ele>2073.0</ele><time>2026-04-26T10:27:49.59Z</time></trkpt><trkpt lat="45.0380816" lon="7.1845519"><ele>2073.0</ele><time>2026-04-26T10:28:01.598Z</time></trkpt><trkpt lat="45.0381446" lon="7.1845598"><ele>2073.0</ele><time>2026-04-26T10:29:16.631Z</time></trkpt><trkpt lat="45.0381937" lon="7.184624"><ele>2073.0</ele><time>2026-04-26T10:30:03.607Z</time></trkpt><trkpt lat="45.0382527" lon="7.184676"><ele>2073.0</ele><time>2026-04-26T10:30:06.56Z</time></trkpt><trkpt lat="45.0383428" lon="7.1847676"><ele>2073.0</ele><time>2026-04-26T10:30:42.611Z</time></trkpt><trkpt lat="45.0383786" lon="7.1848672"><ele>2073.0</ele><time>2026-04-26T10:31:33.624Z</time></trkpt><trkpt lat="45.0384172" lon="7.1849394"><ele>2072.5</ele><time>2026-04-26T10:31:49.565Z</time></trkpt><trkpt lat="45.0384694" lon="7.1849976"><ele>2072.0</ele><time>2026-04-26T10:32:23.573Z</time></trkpt><trkpt lat="45.0385441" lon="7.1850677"><ele>2071.5</ele><time>2026-04-26T10:32:55.563Z</time></trkpt><trkpt lat="45.0385914" lon="7.1851661"><ele>2071.0</ele><time>2026-04-26T10:33:17.622Z</time></trkpt><trkpt lat="45.0385986" lon="7.1852655"><ele>2070.5</ele><time>2026-04-26T10:33:41.622Z</time></trkpt><trkpt lat="45.0386291" lon="7.1853504"><ele>2070.0</ele><time>2026-04-26T10:34:19.629Z</time></trkpt><trkpt lat="45.0387361" lon="7.1855002"><ele>2070.0</ele><time>2026-04-26T10:35:42.492Z</time></trkpt><trkpt lat="45.0388662" lon="7.1855874"><ele>2070.0</ele><time>2026-04-26T10:36:49.585Z</time></trkpt><trkpt lat="45.0389256" lon="7.1856369"><ele>2070.0</ele><time>2026-04-26T10:36:57.555Z</time></trkpt><trkpt lat="45.0389823" lon="7.1856849"><ele>2070.0</ele><time>2026-04-26T10:37:10.627Z</time></trkpt><trkpt lat="45.0390389" lon="7.1857404"><ele>2070.0</ele><time>2026-04-26T10:37:18.598Z</time></trkpt><trkpt lat="45.0391197" lon="7.1857657"><ele>2070.0</ele><time>2026-04-26T10:38:04.616Z</time></trkpt><trkpt lat="45.0392121" lon="7.1858556"><ele>2067.714285714286</ele><time>2026-04-26T10:39:19.544Z</time></trkpt><trkpt lat="45.03927" lon="7.1859086"><ele>2065.4285714285716</ele><time>2026-04-26T10:39:27.62Z</time></trkpt><trkpt lat="45.0393036" lon="7.1859874"><ele>2063.1428571428573</ele><time>2026-04-26T10:39:38.564Z</time></trkpt><trkpt lat="45.0393522" lon="7.1860541"><ele>2060.857142857143</ele><time>2026-04-26T10:39:47.499Z</time></trkpt><trkpt lat="45.0393746" lon="7.1861381"><ele>2058.571428571429</ele><time>2026-04-26T10:39:55.568Z</time></trkpt><trkpt lat="45.0393946" lon="7.1862256"><ele>2056.285714285714</ele><time>2026-04-26T10:41:45.559Z</time></trkpt><trkpt lat="45.0394421" lon="7.1862946"><ele>2054.0</ele><time>2026-04-26T10:41:53.64Z</time></trkpt><trkpt lat="45.0394856" lon="7.1863592"><ele>2054.0</ele><time>2026-04-26T10:42:06.558Z</time></trkpt><trkpt lat="45.0395362" lon="7.1864165"><ele>2054.0</ele><time>2026-04-26T10:42:17.601Z</time></trkpt><trkpt lat="45.0395523" lon="7.1865207"><ele>2054.0</ele><time>2026-04-26T10:42:51.559Z</time></trkpt><trkpt lat="45.0395574" lon="7.186614"><ele>2054.0</ele><time>2026-04-26T10:43:08.775Z</time></trkpt><trkpt lat="45.0395601" lon="7.1867325"><ele>2054.0</ele><time>2026-04-26T10:43:11.544Z</time></trkpt><trkpt lat="45.0395295" lon="7.1868179"><ele>2054.0</ele><time>2026-04-26T10:44:17.544Z</time></trkpt><trkpt lat="45.0395332" lon="7.1869127"><ele>2054.0</ele><time>2026-04-26T10:44:28.591Z</time></trkpt><trkpt lat="45.0395547" lon="7.1870149"><ele>2050.4285714285716</ele><time>2026-04-26T10:44:34.544Z</time></trkpt><trkpt lat="45.0395888" lon="7.1871079"><ele>2046.8571428571431</ele><time>2026-04-26T10:44:41.557Z</time></trkpt><trkpt lat="45.0396123" lon="7.1871969"><ele>2043.2857142857142</ele><time>2026-04-26T10:44:45.596Z</time></trkpt><trkpt lat="45.0396134" lon="7.1872906"><ele>2039.7142857142858</ele><time>2026-04-26T10:44:48.572Z</time></trkpt><trkpt lat="45.0396243" lon="7.1873924"><ele>2036.142857142857</ele><time>2026-04-26T10:44:52.533Z</time></trkpt><trkpt lat="45.0396328" lon="7.1874887"><ele>2032.5714285714284</ele><time>2026-04-26T10:45:05.575Z</time></trkpt><trkpt lat="45.0396601" lon="7.1875703"><ele>2028.9999999999998</ele><time>2026-04-26T10:45:10.571Z</time></trkpt><trkpt lat="45.0396846" lon="7.1876531"><ele>2026.5714285714284</ele><time>2026-04-26T10:45:16.628Z</time></trkpt><trkpt lat="45.0397" lon="7.1877439"><ele>2024.142857142857</ele><time>2026-04-26T10:45:24.634Z</time></trkpt><trkpt lat="45.0397303" lon="7.1878282"><ele>2021.7142857142858</ele><time>2026-04-26T10:45:34.588Z</time></trkpt><trkpt lat="45.0397685" lon="7.1879013"><ele>2019.2857142857142</ele><time>2026-04-26T10:45:40.544Z</time></trkpt><trkpt lat="45.0398062" lon="7.1879732"><ele>2016.8571428571431</ele><time>2026-04-26T10:45:48.555Z</time></trkpt><trkpt lat="45.0398293" lon="7.1880587"><ele>2014.4285714285716</ele><time>2026-04-26T10:46:02.495Z</time></trkpt><trkpt lat="45.0398654" lon="7.1881331"><ele>2012.0</ele><time>2026-04-26T10:46:08.597Z</time></trkpt><trkpt lat="45.0399074" lon="7.1882113"><ele>2010.2857142857144</ele><time>2026-04-26T10:46:16.567Z</time></trkpt><trkpt lat="45.0399499" lon="7.1882818"><ele>2008.571428571429</ele><time>2026-04-26T10:46:24.643Z</time></trkpt><trkpt lat="45.0400019" lon="7.1883329"><ele>2006.857142857143</ele><time>2026-04-26T10:46:32.615Z</time></trkpt><trkpt lat="45.0400557" lon="7.1883814"><ele>2005.1428571428573</ele><time>2026-04-26T10:46:40.585Z</time></trkpt><trkpt lat="45.0400909" lon="7.1884616"><ele>2003.4285714285716</ele><time>2026-04-26T10:46:49.618Z</time></trkpt><trkpt lat="45.0400831" lon="7.1885603"><ele>2001.7142857142858</ele><time>2026-04-26T10:47:00.564Z</time></trkpt><trkpt lat="45.0400833" lon="7.1886525"><ele>2000.0</ele><time>2026-04-26T10:47:07.578Z</time></trkpt><trkpt lat="45.0400822" lon="7.1887489"><ele>2000.0</ele><time>2026-04-26T10:47:14.592Z</time></trkpt><trkpt lat="45.0401018" lon="7.1888406"><ele>2000.0</ele><time>2026-04-26T10:47:24.581Z</time></trkpt><trkpt lat="45.0400675" lon="7.1889604"><ele>2000.0</ele><time>2026-04-26T10:47:50.545Z</time></trkpt><trkpt lat="45.0401409" lon="7.1889205"><ele>2000.0</ele><time>2026-04-26T10:56:32.634Z</time></trkpt><trkpt lat="45.0401868" lon="7.1889892"><ele>2000.0</ele><time>2026-04-26T10:56:40.573Z</time></trkpt><trkpt lat="45.0402168" lon="7.1890748"><ele>2000.0</ele><time>2026-04-26T10:56:50.594Z</time></trkpt><trkpt lat="45.0402443" lon="7.1891604"><ele>2000.0</ele><time>2026-04-26T10:57:00.65Z</time></trkpt><trkpt lat="45.0402839" lon="7.1892386"><ele>1997.5714285714284</ele><time>2026-04-26T10:57:10.59Z</time></trkpt><trkpt lat="45.0403409" lon="7.1892789"><ele>1995.1428571428573</ele><time>2026-04-26T10:57:18.61Z</time></trkpt><trkpt lat="45.040388" lon="7.1893475"><ele>1992.7142857142858</ele><time>2026-04-26T10:57:28.641Z</time></trkpt><trkpt lat="45.040431" lon="7.1894175"><ele>1990.2857142857142</ele><time>2026-04-26T10:57:42.55Z</time></trkpt><trkpt lat="45.040484" lon="7.1894684"><ele>1987.8571428571427</ele><time>2026-04-26T10:57:54.573Z</time></trkpt><trkpt lat="45.040537" lon="7.1895228"><ele>1985.4285714285716</ele><time>2026-04-26T10:58:03.612Z</time></trkpt><trkpt lat="45.0405573" lon="7.1896159"><ele>1983.0</ele><time>2026-04-26T10:58:12.64Z</time></trkpt><trkpt lat="45.0405659" lon="7.1897107"><ele>1983.0</ele><time>2026-04-26T10:58:18.59Z</time></trkpt><trkpt lat="45.04059" lon="7.1898069"><ele>1983.0</ele><time>2026-04-26T10:58:26.562Z</time></trkpt><trkpt lat="45.0406243" lon="7.1898915"><ele>1983.0</ele><time>2026-04-26T10:58:34.638Z</time></trkpt><trkpt lat="45.0406551" lon="7.1899711"><ele>1983.0</ele><time>2026-04-26T10:58:41.547Z</time></trkpt><trkpt lat="45.0407184" lon="7.1900724"><ele>1983.0</ele><time>2026-04-26T10:58:58.551Z</time></trkpt><trkpt lat="45.0407581" lon="7.1901998"><ele>1983.0</ele><time>2026-04-26T10:59:21.592Z</time></trkpt><trkpt lat="45.0408346" lon="7.1902458"><ele>1984.3333333333333</ele><time>2026-04-26T10:59:42.552Z</time></trkpt><trkpt lat="45.0409259" lon="7.1900881"><ele>1985.6666666666665</ele><time>2026-04-26T11:00:07.634Z</time></trkpt><trkpt lat="45.0408978" lon="7.1901933"><ele>1987.0</ele><time>2026-04-26T11:00:23.53Z</time></trkpt><trkpt lat="45.0409248" lon="7.1903069"><ele>1988.3333333333333</ele><time>2026-04-26T11:00:25.595Z</time></trkpt><trkpt lat="45.0409139" lon="7.1903951"><ele>1989.6666666666665</ele><time>2026-04-26T11:00:32.61Z</time></trkpt><trkpt lat="45.0409737" lon="7.1904312"><ele>1991.0</ele><time>2026-04-26T11:00:45.576Z</time></trkpt><trkpt lat="45.040915" lon="7.1903783"><ele>1991.0</ele><time>2026-04-26T11:08:03.545Z</time></trkpt><trkpt lat="45.0409143" lon="7.190283"><ele>1991.0000000000002</ele><time>2026-04-26T11:23:26.548Z</time></trkpt><trkpt lat="45.0408465" lon="7.1902425"><ele>1991.0</ele><time>2026-04-26T11:23:31.566Z</time></trkpt><trkpt lat="45.0407848" lon="7.1901985"><ele>1991.0</ele><time>2026-04-26T11:23:37.624Z</time></trkpt><trkpt lat="45.040768" lon="7.1901102"><ele>1991.0000000000002</ele><time>2026-04-26T11:23:47.616Z</time></trkpt><trkpt lat="45.0407883" lon="7.1902475"><ele>1991.0</ele><time>2026-04-26T11:35:19.623Z</time></trkpt><trkpt lat="45.0408341" lon="7.1903191"><ele>1991.0</ele><time>2026-04-26T11:35:54.588Z</time></trkpt><trkpt lat="45.0408978" lon="7.1903414"><ele>1990.9999999999998</ele><time>2026-04-26T11:36:03.622Z</time></trkpt><trkpt lat="45.0409612" lon="7.1903805"><ele>1991.0</ele><time>2026-04-26T11:36:10.635Z</time></trkpt><trkpt lat="45.0409627" lon="7.1904739"><ele>1991.0</ele><time>2026-04-26T11:41:25.616Z</time></trkpt><trkpt lat="45.0410299" lon="7.1905214"><ele>1991.0</ele><time>2026-04-26T11:42:40.55Z</time></trkpt><trkpt lat="45.0410361" lon="7.1906184"><ele>1990.9999999999998</ele><time>2026-04-26T11:42:47.536Z</time></trkpt><trkpt lat="45.0410014" lon="7.1908071"><ele>1991.0</ele><time>2026-04-26T11:43:22.557Z</time></trkpt><trkpt lat="45.0410468" lon="7.1908829"><ele>1987.7142857142858</ele><time>2026-04-26T11:43:46.862Z</time></trkpt><trkpt lat="45.041114" lon="7.1909059"><ele>1984.4285714285716</ele><time>2026-04-26T11:43:57.596Z</time></trkpt><trkpt lat="45.0411589" lon="7.1909704"><ele>1981.1428571428573</ele><time>2026-04-26T11:44:10.435Z</time></trkpt><trkpt lat="45.0411623" lon="7.1910601"><ele>1977.8571428571431</ele><time>2026-04-26T11:44:27.564Z</time></trkpt><trkpt lat="45.0411964" lon="7.1911448"><ele>1974.5714285714287</ele><time>2026-04-26T11:44:58.617Z</time></trkpt><trkpt lat="45.0412261" lon="7.1912392"><ele>1971.2857142857147</ele><time>2026-04-26T11:45:06.565Z</time></trkpt><trkpt lat="45.0412166" lon="7.1913304"><ele>1968.0000000000002</ele><time>2026-04-26T11:45:13.579Z</time></trkpt><trkpt lat="45.0412187" lon="7.1914239"><ele>1965.0000000000002</ele><time>2026-04-26T11:45:22.634Z</time></trkpt><trkpt lat="45.0412422" lon="7.1915165"><ele>1962.0</ele><time>2026-04-26T11:45:34.62Z</time></trkpt><trkpt lat="45.0412325" lon="7.1916151"><ele>1959.0000000000002</ele><time>2026-04-26T11:45:44.61Z</time></trkpt><trkpt lat="45.0412155" lon="7.1917094"><ele>1956.0000000000002</ele><time>2026-04-26T11:45:54.599Z</time></trkpt><trkpt lat="45.0412478" lon="7.1918017"><ele>1953.0</ele><time>2026-04-26T11:46:07.295Z</time></trkpt><trkpt lat="45.041295" lon="7.19187"><ele>1950.0000000000002</ele><time>2026-04-26T11:46:17.515Z</time></trkpt><trkpt lat="45.0412894" lon="7.1919655"><ele>1947.0000000000002</ele><time>2026-04-26T11:46:33.655Z</time></trkpt><trkpt lat="45.0413188" lon="7.1920557"><ele>1947.0000000000002</ele><time>2026-04-26T11:46:47.626Z</time></trkpt><trkpt lat="45.041362" lon="7.1921215"><ele>1947.0</ele><time>2026-04-26T11:46:57.617Z</time></trkpt><trkpt lat="45.0414417" lon="7.1922016"><ele>1947.0000000000002</ele><time>2026-04-26T11:47:22.614Z</time></trkpt><trkpt lat="45.0414695" lon="7.1922852"><ele>1947.0000000000002</ele><time>2026-04-26T11:47:31.623Z</time></trkpt><trkpt lat="45.0415134" lon="7.1923534"><ele>1947.0</ele><time>2026-04-26T11:47:42.568Z</time></trkpt><trkpt lat="45.0415392" lon="7.1924392"><ele>1947.0000000000002</ele><time>2026-04-26T11:47:54.577Z</time></trkpt><trkpt lat="45.0415457" lon="7.1925323"><ele>1947.0000000000002</ele><time>2026-04-26T11:48:01.591Z</time></trkpt><trkpt lat="45.0415867" lon="7.192612"><ele>1948.2857142857147</ele><time>2026-04-26T11:48:10.623Z</time></trkpt><trkpt lat="45.041641" lon="7.1926581"><ele>1949.5714285714287</ele><time>2026-04-26T11:48:21.569Z</time></trkpt><trkpt lat="45.0417041" lon="7.1926893"><ele>1950.8571428571431</ele><time>2026-04-26T11:48:33.578Z</time></trkpt><trkpt lat="45.041733" lon="7.192773"><ele>1952.1428571428573</ele><time>2026-04-26T11:48:41.834Z</time></trkpt><trkpt lat="45.0417751" lon="7.1928438"><ele>1953.4285714285716</ele><time>2026-04-26T11:48:50.614Z</time></trkpt><trkpt lat="45.0418313" lon="7.1928956"><ele>1954.7142857142858</ele><time>2026-04-26T11:49:04.642Z</time></trkpt><trkpt lat="45.0418808" lon="7.1929547"><ele>1956.0</ele><time>2026-04-26T11:49:20.582Z</time></trkpt><trkpt lat="45.0419346" lon="7.1930152"><ele>1956.0</ele><time>2026-04-26T11:49:31.535Z</time></trkpt><trkpt lat="45.0419676" lon="7.1930928"><ele>1956.0</ele><time>2026-04-26T11:49:44.599Z</time></trkpt><trkpt lat="45.041942" lon="7.1931775"><ele>1956.0</ele><time>2026-04-26T11:50:07.553Z</time></trkpt><trkpt lat="45.0419275" lon="7.1932702"><ele>1956.0</ele><time>2026-04-26T11:50:22.547Z</time></trkpt><trkpt lat="45.0419562" lon="7.1934374"><ele>1956.0</ele><time>2026-04-26T11:51:50.633Z</time></trkpt><trkpt lat="45.0419301" lon="7.1935258"><ele>1956.0</ele><time>2026-04-26T11:51:57.646Z</time></trkpt><trkpt lat="45.0419332" lon="7.1936184"><ele>1953.0</ele><time>2026-04-26T11:54:36.549Z</time></trkpt><trkpt lat="45.0419011" lon="7.1937004"><ele>1950.0000000000002</ele><time>2026-04-26T11:54:47.6Z</time></trkpt><trkpt lat="45.0418761" lon="7.1937976"><ele>1947.0</ele><time>2026-04-26T11:55:09.598Z</time></trkpt><trkpt lat="45.041855" lon="7.1938834"><ele>1944.0</ele><time>2026-04-26T11:55:19.587Z</time></trkpt><trkpt lat="45.0418012" lon="7.1939404"><ele>1941.0000000000002</ele><time>2026-04-26T11:55:41.551Z</time></trkpt><trkpt lat="45.0418013" lon="7.19406"><ele>1938.0</ele><time>2026-04-26T11:56:03.582Z</time></trkpt><trkpt lat="45.0418192" lon="7.1941512"><ele>1935.0</ele><time>2026-04-26T11:56:14.634Z</time></trkpt><trkpt lat="45.041805" lon="7.194244"><ele>1932.7142857142858</ele><time>2026-04-26T11:56:23.655Z</time></trkpt><trkpt lat="45.0417745" lon="7.1943239"><ele>1930.4285714285716</ele><time>2026-04-26T11:56:33.55Z</time></trkpt><trkpt lat="45.0417728" lon="7.1944138"><ele>1928.1428571428573</ele><time>2026-04-26T11:56:57.566Z</time></trkpt><trkpt lat="45.0417498" lon="7.194498"><ele>1925.8571428571431</ele><time>2026-04-26T11:57:20.589Z</time></trkpt><trkpt lat="45.0417723" lon="7.1945856"><ele>1923.5714285714287</ele><time>2026-04-26T11:57:28.597Z</time></trkpt><trkpt lat="45.041752" lon="7.1946723"><ele>1921.2857142857147</ele><time>2026-04-26T11:57:39.544Z</time></trkpt><trkpt lat="45.0417399" lon="7.1947695"><ele>1919.0000000000002</ele><time>2026-04-26T11:57:46.556Z</time></trkpt><trkpt lat="45.0417421" lon="7.1948644"><ele>1918.875</ele><time>2026-04-26T11:57:55.588Z</time></trkpt><trkpt lat="45.0417018" lon="7.1949338"><ele>1918.75</ele><time>2026-04-26T11:58:03.559Z</time></trkpt><trkpt lat="45.0416775" lon="7.1950208"><ele>1918.625</ele><time>2026-04-26T11:58:31.614Z</time></trkpt><trkpt lat="45.041632" lon="7.1950846"><ele>1918.5</ele><time>2026-04-26T11:58:38.627Z</time></trkpt><trkpt lat="45.0415906" lon="7.1951547"><ele>1918.375</ele><time>2026-04-26T11:58:47.609Z</time></trkpt><trkpt lat="45.0415597" lon="7.1952324"><ele>1918.25</ele><time>2026-04-26T11:58:57.545Z</time></trkpt><trkpt lat="45.0415183" lon="7.1953023"><ele>1918.125</ele><time>2026-04-26T11:59:04.558Z</time></trkpt><trkpt lat="45.0414813" lon="7.195376"><ele>1918.0</ele><time>2026-04-26T11:59:11.572Z</time></trkpt><trkpt lat="45.0414372" lon="7.1954441"><ele>1910.5714285714284</ele><time>2026-04-26T11:59:17.652Z</time></trkpt><trkpt lat="45.0413963" lon="7.1955125"><ele>1903.142857142857</ele><time>2026-04-26T11:59:26.556Z</time></trkpt><trkpt lat="45.0413603" lon="7.1955901"><ele>1895.7142857142858</ele><time>2026-04-26T11:59:35.588Z</time></trkpt><trkpt lat="45.0413139" lon="7.1956548"><ele>1888.2857142857142</ele><time>2026-04-26T11:59:43.559Z</time></trkpt><trkpt lat="45.0413063" lon="7.1957437"><ele>1880.8571428571427</ele><time>2026-04-26T11:59:58.545Z</time></trkpt><trkpt lat="45.0413144" lon="7.1958353"><ele>1873.4285714285713</ele><time>2026-04-26T12:00:08.638Z</time></trkpt><trkpt lat="45.0413213" lon="7.1959302"><ele>1866.0</ele><time>2026-04-26T12:00:23.622Z</time></trkpt><trkpt lat="45.0412463" lon="7.195883"><ele>1865.8571428571427</ele><time>2026-04-26T12:00:45.567Z</time></trkpt><trkpt lat="45.0411893" lon="7.1958416"><ele>1865.7142857142856</ele><time>2026-04-26T12:00:52.634Z</time></trkpt><trkpt lat="45.0411526" lon="7.1959418"><ele>1865.5714285714284</ele><time>2026-04-26T12:01:48.637Z</time></trkpt><trkpt lat="45.0411316" lon="7.196085"><ele>1865.4285714285716</ele><time>2026-04-26T12:02:28.593Z</time></trkpt><trkpt lat="45.0410981" lon="7.1961624"><ele>1865.2857142857144</ele><time>2026-04-26T12:02:37.627Z</time></trkpt><trkpt lat="45.0410421" lon="7.1962076"><ele>1865.1428571428573</ele><time>2026-04-26T12:02:52.567Z</time></trkpt><trkpt lat="45.0410146" lon="7.1962987"><ele>1865.0</ele><time>2026-04-26T12:03:01.643Z</time></trkpt><trkpt lat="45.0409704" lon="7.1963709"><ele>1865.0</ele><time>2026-04-26T12:03:10.569Z</time></trkpt><trkpt lat="45.0409704" lon="7.1964612"><ele>1865.0000000000002</ele><time>2026-04-26T12:03:21.491Z</time></trkpt><trkpt lat="45.0409528" lon="7.1965495"><ele>1865.0</ele><time>2026-04-26T12:03:36.605Z</time></trkpt><trkpt lat="45.0408927" lon="7.1965776"><ele>1865.0</ele><time>2026-04-26T12:03:53.607Z</time></trkpt><trkpt lat="45.0409531" lon="7.1966285"><ele>1865.0000000000002</ele><time>2026-04-26T12:07:19.556Z</time></trkpt><trkpt lat="45.0410137" lon="7.1966637"><ele>1865.0</ele><time>2026-04-26T12:07:28.59Z</time></trkpt><trkpt lat="45.0410542" lon="7.1967427"><ele>1865.0</ele><time>2026-04-26T12:07:42.594Z</time></trkpt><trkpt lat="45.0410812" lon="7.1968238"><ele>1863.5714285714287</ele><time>2026-04-26T12:07:52.605Z</time></trkpt><trkpt lat="45.0411238" lon="7.1968907"><ele>1862.1428571428573</ele><time>2026-04-26T12:08:01.546Z</time></trkpt><trkpt lat="45.0411614" lon="7.1969659"><ele>1860.7142857142858</ele><time>2026-04-26T12:08:14.493Z</time></trkpt><trkpt lat="45.041213" lon="7.1970258"><ele>1859.2857142857142</ele><time>2026-04-26T12:08:33.625Z</time></trkpt><trkpt lat="45.0412464" lon="7.1971028"><ele>1857.857142857143</ele><time>2026-04-26T12:08:39.597Z</time></trkpt><trkpt lat="45.0412718" lon="7.1971852"><ele>1856.4285714285716</ele><time>2026-04-26T12:08:45.538Z</time></trkpt><trkpt lat="45.0412684" lon="7.1972849"><ele>1855.0</ele><time>2026-04-26T12:09:02.635Z</time></trkpt><trkpt lat="45.0412574" lon="7.1973763"><ele>1851.857142857143</ele><time>2026-04-26T12:09:11.561Z</time></trkpt><trkpt lat="45.0412615" lon="7.1974722"><ele>1848.7142857142858</ele><time>2026-04-26T12:09:21.55Z</time></trkpt><trkpt lat="45.0412751" lon="7.1975637"><ele>1845.5714285714284</ele><time>2026-04-26T12:09:32.554Z</time></trkpt><trkpt lat="45.041278" lon="7.1976569"><ele>1842.4285714285713</ele><time>2026-04-26T12:09:51.622Z</time></trkpt><trkpt lat="45.041255" lon="7.1977466"><ele>1839.2857142857142</ele><time>2026-04-26T12:10:01.612Z</time></trkpt><trkpt lat="45.0412748" lon="7.1978317"><ele>1836.1428571428569</ele><time>2026-04-26T12:10:15.638Z</time></trkpt><trkpt lat="45.0412943" lon="7.19792"><ele>1832.9999999999998</ele><time>2026-04-26T12:10:29.56Z</time></trkpt><trkpt lat="45.0412938" lon="7.1980141"><ele>1832.9999999999998</ele><time>2026-04-26T12:10:42.63Z</time></trkpt><trkpt lat="45.0412893" lon="7.1981042"><ele>1833.0</ele><time>2026-04-26T12:10:53.575Z</time></trkpt><trkpt lat="45.0413082" lon="7.198191"><ele>1832.9999999999998</ele><time>2026-04-26T12:11:03.555Z</time></trkpt><trkpt lat="45.0413218" lon="7.1982925"><ele>1832.9999999999998</ele><time>2026-04-26T12:11:19.61Z</time></trkpt><trkpt lat="45.0413355" lon="7.1983848"><ele>1833.0</ele><time>2026-04-26T12:11:29.599Z</time></trkpt><trkpt lat="45.0413365" lon="7.1984759"><ele>1832.9999999999998</ele><time>2026-04-26T12:11:36.613Z</time></trkpt><trkpt lat="45.0413472" lon="7.1985859"><ele>1832.9999999999998</ele><time>2026-04-26T12:13:58.213Z</time></trkpt><trkpt lat="45.0413724" lon="7.1986683"><ele>1830.285714285714</ele><time>2026-04-26T12:14:08.573Z</time></trkpt><trkpt lat="45.0414186" lon="7.1987433"><ele>1827.5714285714284</ele><time>2026-04-26T12:14:25.654Z</time></trkpt><trkpt lat="45.0414254" lon="7.1988397"><ele>1824.857142857143</ele><time>2026-04-26T12:14:35.564Z</time></trkpt><trkpt lat="45.0414364" lon="7.1989342"><ele>1822.142857142857</ele><time>2026-04-26T12:14:46.617Z</time></trkpt><trkpt lat="45.0414609" lon="7.1990281"><ele>1819.4285714285716</ele><time>2026-04-26T12:14:53.63Z</time></trkpt><trkpt lat="45.041468" lon="7.1991178"><ele>1816.714285714286</ele><time>2026-04-26T12:15:07.596Z</time></trkpt><trkpt lat="45.0414914" lon="7.1992358"><ele>1814.0000000000002</ele><time>2026-04-26T12:15:24.553Z</time></trkpt><trkpt lat="45.0415155" lon="7.1993226"><ele>1811.3333333333333</ele><time>2026-04-26T12:15:33.585Z</time></trkpt><trkpt lat="45.0415352" lon="7.1994137"><ele>1808.6666666666665</ele><time>2026-04-26T12:15:43.574Z</time></trkpt><trkpt lat="45.0415305" lon="7.1995248"><ele>1806.0</ele><time>2026-04-26T12:16:10.438Z</time></trkpt><trkpt lat="45.0415278" lon="7.1996184"><ele>1803.3333333333335</ele><time>2026-04-26T12:16:16.615Z</time></trkpt><trkpt lat="45.0415423" lon="7.1997627"><ele>1800.6666666666667</ele><time>2026-04-26T12:16:44.572Z</time></trkpt><trkpt lat="45.0415165" lon="7.1998482"><ele>1798.0</ele><time>2026-04-26T12:16:54.562Z</time></trkpt><trkpt lat="45.041486" lon="7.2000014"><ele>1795.5000000000002</ele><time>2026-04-26T12:17:25.592Z</time></trkpt><trkpt lat="45.0414482" lon="7.2001291"><ele>1793.0</ele><time>2026-04-26T12:17:48.652Z</time></trkpt><trkpt lat="45.0413303" lon="7.20018"><ele>1790.5</ele><time>2026-04-26T12:19:05.589Z</time></trkpt><trkpt lat="45.0413028" lon="7.2002772"><ele>1788.0</ele><time>2026-04-26T12:19:08.564Z</time></trkpt><trkpt lat="45.0413135" lon="7.2003657"><ele>1785.5000000000002</ele><time>2026-04-26T12:19:14.622Z</time></trkpt><trkpt lat="45.0412905" lon="7.2004645"><ele>1783.0</ele><time>2026-04-26T12:19:32.581Z</time></trkpt><trkpt lat="45.0412802" lon="7.2005593"><ele>1783.0</ele><time>2026-04-26T12:19:45.548Z</time></trkpt><trkpt lat="45.0412606" lon="7.200658"><ele>1783.0</ele><time>2026-04-26T12:20:11.583Z</time></trkpt><trkpt lat="45.04124" lon="7.2007459"><ele>1783.0</ele><time>2026-04-26T12:20:39.638Z</time></trkpt><trkpt lat="45.0412203" lon="7.2008614"><ele>1783.0</ele><time>2026-04-26T12:21:11.624Z</time></trkpt><trkpt lat="45.0411989" lon="7.2009531"><ele>1783.0</ele><time>2026-04-26T12:21:18.638Z</time></trkpt><trkpt lat="45.0411775" lon="7.2010421"><ele>1783.0</ele><time>2026-04-26T12:21:29.575Z</time></trkpt><trkpt lat="45.0411106" lon="7.2011184"><ele>1783.0</ele><time>2026-04-26T12:21:52.548Z</time></trkpt><trkpt lat="45.0410894" lon="7.2012027"><ele>1782.142857142857</ele><time>2026-04-26T12:22:02.633Z</time></trkpt><trkpt lat="45.0410594" lon="7.201284"><ele>1781.2857142857144</ele><time>2026-04-26T12:22:11.56Z</time></trkpt><trkpt lat="45.0410442" lon="7.2013779"><ele>1780.4285714285716</ele><time>2026-04-26T12:22:21.658Z</time></trkpt><trkpt lat="45.0410131" lon="7.2014593"><ele>1779.5714285714284</ele><time>2026-04-26T12:22:34.62Z</time></trkpt><trkpt lat="45.0409926" lon="7.2015536"><ele>1778.7142857142858</ele><time>2026-04-26T12:22:45.566Z</time></trkpt><trkpt lat="45.0409546" lon="7.2016247"><ele>1777.857142857143</ele><time>2026-04-26T12:22:58.637Z</time></trkpt><trkpt lat="45.0409344" lon="7.2017234"><ele>1777.0</ele><time>2026-04-26T12:23:13.622Z</time></trkpt><trkpt lat="45.0409266" lon="7.2018124"><ele>1776.857142857143</ele><time>2026-04-26T12:23:24.567Z</time></trkpt><trkpt lat="45.0409135" lon="7.2019057"><ele>1776.7142857142858</ele><time>2026-04-26T12:23:38.595Z</time></trkpt><trkpt lat="45.0409144" lon="7.2020088"><ele>1776.5714285714284</ele><time>2026-04-26T12:23:46.557Z</time></trkpt><trkpt lat="45.0409069" lon="7.2020995"><ele>1776.4285714285716</ele><time>2026-04-26T12:23:56.554Z</time></trkpt><trkpt lat="45.0408901" lon="7.2021859"><ele>1776.2857142857144</ele><time>2026-04-26T12:24:04.631Z</time></trkpt><trkpt lat="45.0408772" lon="7.2022793"><ele>1776.142857142857</ele><time>2026-04-26T12:24:13.557Z</time></trkpt><trkpt lat="45.0408436" lon="7.202369"><ele>1776.0</ele><time>2026-04-26T12:24:22.59Z</time></trkpt><trkpt lat="45.0408337" lon="7.2024695"><ele>1774.5714285714284</ele><time>2026-04-26T12:24:30.56Z</time></trkpt><trkpt lat="45.0408219" lon="7.2025642"><ele>1773.1428571428573</ele><time>2026-04-26T12:24:39.595Z</time></trkpt><trkpt lat="45.0407958" lon="7.2026483"><ele>1771.7142857142858</ele><time>2026-04-26T12:24:48.625Z</time></trkpt><trkpt lat="45.040787" lon="7.2027424"><ele>1770.2857142857142</ele><time>2026-04-26T12:25:05.629Z</time></trkpt><trkpt lat="45.0407963" lon="7.2028335"><ele>1768.8571428571427</ele><time>2026-04-26T12:25:21.569Z</time></trkpt><trkpt lat="45.0408031" lon="7.2029438"><ele>1767.4285714285716</ele><time>2026-04-26T12:26:34.658Z</time></trkpt><trkpt lat="45.0407928" lon="7.2030451"><ele>1766.0</ele><time>2026-04-26T12:26:47.644Z</time></trkpt><trkpt lat="45.0408267" lon="7.2031203"><ele>1762.4285714285716</ele><time>2026-04-26T12:27:39.503Z</time></trkpt><trkpt lat="45.0408857" lon="7.2031727"><ele>1758.8571428571427</ele><time>2026-04-26T12:27:49.598Z</time></trkpt><trkpt lat="45.0409385" lon="7.2032297"><ele>1755.2857142857142</ele><time>2026-04-26T12:27:57.568Z</time></trkpt><trkpt lat="45.0409981" lon="7.2032599"><ele>1751.7142857142858</ele><time>2026-04-26T12:28:09.576Z</time></trkpt><trkpt lat="45.0410621" lon="7.2032709"><ele>1748.1428571428573</ele><time>2026-04-26T12:28:22.55Z</time></trkpt><trkpt lat="45.0411274" lon="7.2032863"><ele>1744.5714285714284</ele><time>2026-04-26T12:28:35.656Z</time></trkpt><trkpt lat="45.0411872" lon="7.2033218"><ele>1741.0</ele><time>2026-04-26T12:28:47.619Z</time></trkpt><trkpt lat="45.041243" lon="7.2033704"><ele>1741.0</ele><time>2026-04-26T12:29:24.6Z</time></trkpt><trkpt lat="45.0413218" lon="7.2034816"><ele>1741.0</ele><time>2026-04-26T12:29:55.628Z</time></trkpt><trkpt lat="45.0413527" lon="7.2035621"><ele>1741.0</ele><time>2026-04-26T12:30:18.555Z</time></trkpt><trkpt lat="45.0413905" lon="7.2036404"><ele>1741.0</ele><time>2026-04-26T12:30:30.59Z</time></trkpt><trkpt lat="45.041466" lon="7.2037846"><ele>1741.0</ele><time>2026-04-26T12:31:15.595Z</time></trkpt><trkpt lat="45.0415444" lon="7.2038304"><ele>1741.0</ele><time>2026-04-26T12:31:32.636Z</time></trkpt><trkpt lat="45.0416072" lon="7.2038487"><ele>1741.0</ele><time>2026-04-26T12:32:10.585Z</time></trkpt><trkpt lat="45.0416302" lon="7.2039359"><ele>1741.0</ele><time>2026-04-26T12:32:23.551Z</time></trkpt><trkpt lat="45.0416481" lon="7.2040345"><ele>1741.0</ele><time>2026-04-26T12:32:55.536Z</time></trkpt><trkpt lat="45.0417256" lon="7.204044"><ele>1741.0</ele><time>2026-04-26T12:35:53.634Z</time></trkpt><trkpt lat="45.0417724" lon="7.2041109"><ele>1741.0</ele><time>2026-04-26T12:35:55.517Z</time></trkpt><trkpt lat="45.0417919" lon="7.2041962"><ele>1741.0</ele><time>2026-04-26T12:36:00.649Z</time></trkpt><trkpt lat="45.0418404" lon="7.2042562"><ele>1739.5714285714284</ele><time>2026-04-26T12:36:14.569Z</time></trkpt><trkpt lat="45.0418937" lon="7.2043086"><ele>1738.1428571428573</ele><time>2026-04-26T12:36:30.616Z</time></trkpt><trkpt lat="45.0418492" lon="7.2043732"><ele>1736.7142857142858</ele><time>2026-04-26T12:36:50.592Z</time></trkpt><trkpt lat="45.0418661" lon="7.2044773"><ele>1735.2857142857142</ele><time>2026-04-26T12:37:10.57Z</time></trkpt><trkpt lat="45.0418064" lon="7.2045335"><ele>1733.8571428571427</ele><time>2026-04-26T12:37:33.63Z</time></trkpt><trkpt lat="45.0417397" lon="7.2045201"><ele>1732.4285714285716</ele><time>2026-04-26T12:37:44.597Z</time></trkpt><trkpt lat="45.0417659" lon="7.2046415"><ele>1731.0</ele><time>2026-04-26T12:38:33.564Z</time></trkpt><trkpt lat="45.0417513" lon="7.2047307"><ele>1725.857142857143</ele><time>2026-04-26T12:38:37.602Z</time></trkpt><trkpt lat="45.0418068" lon="7.2048387"><ele>1720.7142857142856</ele><time>2026-04-26T12:39:11.606Z</time></trkpt><trkpt lat="45.0418446" lon="7.2049184"><ele>1715.5714285714284</ele><time>2026-04-26T12:39:31.585Z</time></trkpt><trkpt lat="45.0418973" lon="7.2049838"><ele>1710.4285714285716</ele><time>2026-04-26T12:39:41.574Z</time></trkpt><trkpt lat="45.0419323" lon="7.2050702"><ele>1705.2857142857142</ele><time>2026-04-26T12:39:53.583Z</time></trkpt><trkpt lat="45.0419472" lon="7.2051572"><ele>1700.142857142857</ele><time>2026-04-26T12:40:01.553Z</time></trkpt><trkpt lat="45.0420047" lon="7.2052067"><ele>1695.0</ele><time>2026-04-26T12:40:11.544Z</time></trkpt><trkpt lat="45.0420104" lon="7.205302"><ele>1695.0</ele><time>2026-04-26T12:40:31.627Z</time></trkpt><trkpt lat="45.0420868" lon="7.2053853"><ele>1695.0</ele><time>2026-04-26T12:40:49.586Z</time></trkpt><trkpt lat="45.0421198" lon="7.2054628"><ele>1695.0</ele><time>2026-04-26T12:41:06.556Z</time></trkpt><trkpt lat="45.0421436" lon="7.2055522"><ele>1695.0</ele><time>2026-04-26T12:41:12.544Z</time></trkpt><trkpt lat="45.042194" lon="7.2056067"><ele>1695.0</ele><time>2026-04-26T12:41:36.556Z</time></trkpt><trkpt lat="45.0422255" lon="7.2056987"><ele>1695.0</ele><time>2026-04-26T12:41:53.559Z</time></trkpt><trkpt lat="45.0422871" lon="7.2057314"><ele>1695.0</ele><time>2026-04-26T12:42:02.592Z</time></trkpt><trkpt lat="45.0423361" lon="7.2058066"><ele>1694.0</ele><time>2026-04-26T12:42:11.625Z</time></trkpt><trkpt lat="45.0423843" lon="7.2058658"><ele>1693.0</ele><time>2026-04-26T12:42:20.551Z</time></trkpt><trkpt lat="45.0424137" lon="7.2059495"><ele>1692.0</ele><time>2026-04-26T12:42:33.622Z</time></trkpt><trkpt lat="45.042502" lon="7.2059796"><ele>1691.0</ele><time>2026-04-26T12:42:53.496Z</time></trkpt><trkpt lat="45.0425644" lon="7.2060144"><ele>1690.0</ele><time>2026-04-26T12:43:05.609Z</time></trkpt><trkpt lat="45.0426233" lon="7.2061361"><ele>1689.0</ele><time>2026-04-26T12:43:24.535Z</time></trkpt><trkpt lat="45.0426778" lon="7.2062521"><ele>1689.0</ele><time>2026-04-26T12:43:40.571Z</time></trkpt><trkpt lat="45.0427346" lon="7.2062926"><ele>1689.0</ele><time>2026-04-26T12:43:48.577Z</time></trkpt><trkpt lat="45.042784" lon="7.2063511"><ele>1689.0</ele><time>2026-04-26T12:43:58.498Z</time></trkpt><trkpt lat="45.0428243" lon="7.2064257"><ele>1689.0</ele><time>2026-04-26T12:44:08.626Z</time></trkpt><trkpt lat="45.042835" lon="7.2065158"><ele>1689.0</ele><time>2026-04-26T12:44:20.635Z</time></trkpt><trkpt lat="45.0429004" lon="7.2066038"><ele>1689.0</ele><time>2026-04-26T12:45:15.575Z</time></trkpt><trkpt lat="45.04296" lon="7.2066533"><ele>1689.0</ele><time>2026-04-26T12:45:25.565Z</time></trkpt><trkpt lat="45.0429876" lon="7.2067399"><ele>1685.0</ele><time>2026-04-26T12:45:34.597Z</time></trkpt><trkpt lat="45.043037" lon="7.2067952"><ele>1681.0</ele><time>2026-04-26T12:45:41.61Z</time></trkpt><trkpt lat="45.043056" lon="7.206885"><ele>1677.0</ele><time>2026-04-26T12:45:52.556Z</time></trkpt><trkpt lat="45.0430833" lon="7.2069685"><ele>1673.0</ele><time>2026-04-26T12:46:04.565Z</time></trkpt><trkpt lat="45.0430931" lon="7.2070649"><ele>1669.0</ele><time>2026-04-26T12:46:18.498Z</time></trkpt><trkpt lat="45.0430719" lon="7.2071674"><ele>1665.0</ele><time>2026-04-26T12:46:58.549Z</time></trkpt><trkpt lat="45.0430906" lon="7.2072627"><ele>1661.0</ele><time>2026-04-26T12:47:29.576Z</time></trkpt><trkpt lat="45.0431498" lon="7.2073205"><ele>1661.0</ele><time>2026-04-26T12:47:41.587Z</time></trkpt><trkpt lat="45.0432172" lon="7.2073272"><ele>1661.0</ele><time>2026-04-26T12:47:52.639Z</time></trkpt><trkpt lat="45.0432547" lon="7.2074114"><ele>1661.0</ele><time>2026-04-26T12:48:51.619Z</time></trkpt><trkpt lat="45.0432935" lon="7.207489"><ele>1661.0</ele><time>2026-04-26T12:48:57.634Z</time></trkpt><trkpt lat="45.0433415" lon="7.2076"><ele>1661.0</ele><time>2026-04-26T12:49:14.573Z</time></trkpt><trkpt lat="45.0433599" lon="7.2076894"><ele>1661.0</ele><time>2026-04-26T12:49:19.568Z</time></trkpt><trkpt lat="45.0433723" lon="7.2077817"><ele>1661.0</ele><time>2026-04-26T12:49:29.559Z</time></trkpt><trkpt lat="45.0433984" lon="7.2078639"><ele>1660.7142857142858</ele><time>2026-04-26T12:49:38.578Z</time></trkpt><trkpt lat="45.0434042" lon="7.2079551"><ele>1660.4285714285713</ele><time>2026-04-26T12:49:48.58Z</time></trkpt><trkpt lat="45.0434165" lon="7.2080451"><ele>1660.142857142857</ele><time>2026-04-26T12:49:58.569Z</time></trkpt><trkpt lat="45.0434226" lon="7.2081413"><ele>1659.857142857143</ele><time>2026-04-26T12:50:09.62Z</time></trkpt><trkpt lat="45.0434629" lon="7.2082662"><ele>1659.5714285714284</ele><time>2026-04-26T12:50:34.594Z</time></trkpt><trkpt lat="45.0434491" lon="7.2083657"><ele>1659.2857142857142</ele><time>2026-04-26T12:50:57.548Z</time></trkpt><trkpt lat="45.0434435" lon="7.2084579"><ele>1659.0</ele><time>2026-04-26T12:51:05.624Z</time></trkpt><trkpt lat="45.0434408" lon="7.2085514"><ele>1655.5</ele><time>2026-04-26T12:51:14.551Z</time></trkpt><trkpt lat="45.0434456" lon="7.2086455"><ele>1652.0</ele><time>2026-04-26T12:52:43.605Z</time></trkpt><trkpt lat="45.0434666" lon="7.2087313"><ele>1648.5</ele><time>2026-04-26T12:53:19.632Z</time></trkpt><trkpt lat="45.0434453" lon="7.2088189"><ele>1645.0</ele><time>2026-04-26T12:53:36.536Z</time></trkpt><trkpt lat="45.0434181" lon="7.2089025"><ele>1641.5</ele><time>2026-04-26T12:53:47.439Z</time></trkpt><trkpt lat="45.0433998" lon="7.2090359"><ele>1638.0</ele><time>2026-04-26T12:54:14.518Z</time></trkpt><trkpt lat="45.0433726" lon="7.2091654"><ele>1635.2857142857142</ele><time>2026-04-26T12:54:41.566Z</time></trkpt><trkpt lat="45.0433762" lon="7.2092622"><ele>1632.5714285714284</ele><time>2026-04-26T12:54:48.615Z</time></trkpt><trkpt lat="45.0433752" lon="7.209364"><ele>1629.857142857143</ele><time>2026-04-26T12:54:59.632Z</time></trkpt><trkpt lat="45.0433988" lon="7.2094505"><ele>1627.142857142857</ele><time>2026-04-26T12:55:09.621Z</time></trkpt><trkpt lat="45.0434232" lon="7.2095411"><ele>1624.4285714285713</ele><time>2026-04-26T12:55:22.586Z</time></trkpt><trkpt lat="45.0433693" lon="7.2095995"><ele>1621.7142857142858</ele><time>2026-04-26T12:55:39.589Z</time></trkpt><trkpt lat="45.0433643" lon="7.2096922"><ele>1619.0</ele><time>2026-04-26T12:55:53.516Z</time></trkpt><trkpt lat="45.0433639" lon="7.2098073"><ele>1615.3333333333333</ele><time>2026-04-26T12:56:10.597Z</time></trkpt><trkpt lat="45.0433351" lon="7.2099202"><ele>1611.6666666666665</ele><time>2026-04-26T12:56:36.549Z</time></trkpt><trkpt lat="45.0433325" lon="7.2100259"><ele>1608.0</ele><time>2026-04-26T12:56:50.577Z</time></trkpt><trkpt lat="45.043297" lon="7.2101245"><ele>1604.3333333333335</ele><time>2026-04-26T12:57:04.605Z</time></trkpt><trkpt lat="45.0432106" lon="7.2101103"><ele>1600.6666666666667</ele><time>2026-04-26T12:57:23.627Z</time></trkpt><trkpt lat="45.0431673" lon="7.2101753"><ele>1597.0</ele><time>2026-04-26T12:57:46.581Z</time></trkpt><trkpt lat="45.0430858" lon="7.210225"><ele>1592.5714285714287</ele><time>2026-04-26T12:58:10.598Z</time></trkpt><trkpt lat="45.0430614" lon="7.2103089"><ele>1588.1428571428573</ele><time>2026-04-26T12:58:27.602Z</time></trkpt><trkpt lat="45.0430794" lon="7.2104301"><ele>1583.7142857142858</ele><time>2026-04-26T12:59:06.603Z</time></trkpt><trkpt lat="45.0429916" lon="7.2104349"><ele>1579.2857142857142</ele><time>2026-04-26T12:59:33.596Z</time></trkpt><trkpt lat="45.0429274" lon="7.2103886"><ele>1574.857142857143</ele><time>2026-04-26T13:00:06.548Z</time></trkpt><trkpt lat="45.0428585" lon="7.2103863"><ele>1570.4285714285713</ele><time>2026-04-26T13:00:18.637Z</time></trkpt><trkpt lat="45.0428606" lon="7.2104783"><ele>1566.0</ele><time>2026-04-26T13:01:33.576Z</time></trkpt><trkpt lat="45.0428083" lon="7.21055"><ele>1566.0</ele><time>2026-04-26T13:02:14.598Z</time></trkpt><trkpt lat="45.0428272" lon="7.2106406"><ele>1566.0</ele><time>2026-04-26T13:02:20.549Z</time></trkpt><trkpt lat="45.0428265" lon="7.2107312"><ele>1566.0</ele><time>2026-04-26T13:02:35.64Z</time></trkpt><trkpt lat="45.0427984" lon="7.2108199"><ele>1566.0</ele><time>2026-04-26T13:02:56.575Z</time></trkpt><trkpt lat="45.0428039" lon="7.2109117"><ele>1566.0</ele><time>2026-04-26T13:03:04.548Z</time></trkpt><trkpt lat="45.042808" lon="7.2110038"><ele>1566.0</ele><time>2026-04-26T13:03:14.537Z</time></trkpt><trkpt lat="45.0427457" lon="7.2110615"><ele>1566.0</ele><time>2026-04-26T13:03:28.564Z</time></trkpt><trkpt lat="45.0427205" lon="7.2111457"><ele>1564.0</ele><time>2026-04-26T13:03:37.597Z</time></trkpt><trkpt lat="45.0426904" lon="7.2112243"><ele>1562.0</ele><time>2026-04-26T13:03:45.568Z</time></trkpt><trkpt lat="45.0426485" lon="7.2112946"><ele>1560.0</ele><time>2026-04-26T13:03:56.62Z</time></trkpt><trkpt lat="45.042623" lon="7.211382"><ele>1558.0</ele><time>2026-04-26T13:04:06.609Z</time></trkpt><trkpt lat="45.0425842" lon="7.2114531"><ele>1556.0</ele><time>2026-04-26T13:04:14.58Z</time></trkpt><trkpt lat="45.0425359" lon="7.2115369"><ele>1554.0</ele><time>2026-04-26T13:04:28.575Z</time></trkpt><trkpt lat="45.042484" lon="7.211593"><ele>1552.0</ele><time>2026-04-26T13:04:36.578Z</time></trkpt><trkpt lat="45.0424336" lon="7.2116572"><ele>1547.0</ele><time>2026-04-26T13:04:44.549Z</time></trkpt><trkpt lat="45.0423803" lon="7.211713"><ele>1542.0</ele><time>2026-04-26T13:04:54.643Z</time></trkpt><trkpt lat="45.0423259" lon="7.211775"><ele>1537.0</ele><time>2026-04-26T13:05:03.616Z</time></trkpt><trkpt lat="45.0423313" lon="7.2120329"><ele>1532.0</ele><time>2026-04-26T13:10:59.564Z</time></trkpt><trkpt lat="45.0423593" lon="7.2122658"><ele>1532.0</ele><time>2026-04-26T13:11:02.543Z</time></trkpt><trkpt lat="45.0423712" lon="7.2123619"><ele>1532.0</ele><time>2026-04-26T13:11:05.542Z</time></trkpt><trkpt lat="45.042336" lon="7.2122284"><ele>1532.0</ele><time>2026-04-26T13:11:17.543Z</time></trkpt><trkpt lat="45.0423311" lon="7.2121375"><ele>1532.0</ele><time>2026-04-26T13:11:21.564Z</time></trkpt><trkpt lat="45.0423243" lon="7.2119493"><ele>1532.0</ele><time>2026-04-26T13:11:32.618Z</time></trkpt><trkpt lat="45.0423242" lon="7.2118535"><ele>1532.0</ele><time>2026-04-26T13:11:38.57Z</time></trkpt><trkpt lat="45.0422565" lon="7.2119175"><ele>1532.0</ele><time>2026-04-26T13:16:14.632Z</time></trkpt><trkpt lat="45.0421983" lon="7.2119647"><ele>1532.0</ele><time>2026-04-26T13:16:24.577Z</time></trkpt><trkpt lat="45.0421571" lon="7.2120426"><ele>1532.0</ele><time>2026-04-26T13:16:29.569Z</time></trkpt><trkpt lat="45.0421205" lon="7.2121296"><ele>1532.0</ele><time>2026-04-26T13:16:38.607Z</time></trkpt><trkpt lat="45.0420977" lon="7.2122133"><ele>1532.0</ele><time>2026-04-26T13:16:47.641Z</time></trkpt><trkpt lat="45.0421058" lon="7.2123072"><ele>1532.0</ele><time>2026-04-26T13:17:01.609Z</time></trkpt><trkpt lat="45.0420666" lon="7.2123981"><ele>1532.0</ele><time>2026-04-26T13:17:16.549Z</time></trkpt><trkpt lat="45.0420149" lon="7.212461"><ele>1530.5714285714284</ele><time>2026-04-26T13:17:21.59Z</time></trkpt><trkpt lat="45.0420522" lon="7.2125356"><ele>1529.142857142857</ele><time>2026-04-26T13:17:29.621Z</time></trkpt><trkpt lat="45.041985" lon="7.2125606"><ele>1527.7142857142858</ele><time>2026-04-26T13:17:39.612Z</time></trkpt><trkpt lat="45.0419391" lon="7.2126322"><ele>1526.2857142857142</ele><time>2026-04-26T13:17:45.564Z</time></trkpt><trkpt lat="45.0418927" lon="7.2126973"><ele>1524.857142857143</ele><time>2026-04-26T13:17:51.623Z</time></trkpt><trkpt lat="45.041917" lon="7.2127846"><ele>1523.4285714285713</ele><time>2026-04-26T13:17:57.495Z</time></trkpt><trkpt lat="45.0418922" lon="7.2128758"><ele>1522.0</ele><time>2026-04-26T13:18:08.628Z</time></trkpt><trkpt lat="45.0418533" lon="7.2129534"><ele>1521.9999999999998</ele><time>2026-04-26T13:18:15.641Z</time></trkpt><trkpt lat="45.0418316" lon="7.2130426"><ele>1522.0</ele><time>2026-04-26T13:18:22.55Z</time></trkpt><trkpt lat="45.0417839" lon="7.2131184"><ele>1522.0</ele><time>2026-04-26T13:18:30.628Z</time></trkpt><trkpt lat="45.0417354" lon="7.2131828"><ele>1522.0</ele><time>2026-04-26T13:18:39.63Z</time></trkpt><trkpt lat="45.0417054" lon="7.2132666"><ele>1522.0</ele><time>2026-04-26T13:18:49.574Z</time></trkpt><trkpt lat="45.0416758" lon="7.2133581"><ele>1521.9999999999998</ele><time>2026-04-26T13:18:59.611Z</time></trkpt><trkpt lat="45.0416866" lon="7.2134532"><ele>1522.0</ele><time>2026-04-26T13:19:06.552Z</time></trkpt><trkpt lat="45.0416686" lon="7.2135457"><ele>1520.7142857142856</ele><time>2026-04-26T13:19:13.567Z</time></trkpt><trkpt lat="45.0416355" lon="7.213625"><ele>1519.4285714285713</ele><time>2026-04-26T13:19:25.652Z</time></trkpt><trkpt lat="45.0415913" lon="7.2136976"><ele>1518.142857142857</ele><time>2026-04-26T13:19:33.549Z</time></trkpt><trkpt lat="45.0415702" lon="7.2137919"><ele>1516.8571428571427</ele><time>2026-04-26T13:19:40.562Z</time></trkpt><trkpt lat="45.0415328" lon="7.21387"><ele>1515.5714285714287</ele><time>2026-04-26T13:19:46.62Z</time></trkpt><trkpt lat="45.0415465" lon="7.2139627"><ele>1514.2857142857142</ele><time>2026-04-26T13:19:53.633Z</time></trkpt><trkpt lat="45.0415426" lon="7.2140543"><ele>1513.0</ele><time>2026-04-26T13:20:06.601Z</time></trkpt><trkpt lat="45.0415373" lon="7.2141542"><ele>1510.7142857142858</ele><time>2026-04-26T13:20:10.511Z</time></trkpt><trkpt lat="45.0415382" lon="7.2142557"><ele>1508.4285714285716</ele><time>2026-04-26T13:20:16.591Z</time></trkpt><trkpt lat="45.041516" lon="7.2143439"><ele>1506.142857142857</ele><time>2026-04-26T13:20:23.605Z</time></trkpt><trkpt lat="45.0414927" lon="7.2144353"><ele>1503.857142857143</ele><time>2026-04-26T13:20:30.619Z</time></trkpt><trkpt lat="45.0415076" lon="7.2145288"><ele>1501.5714285714284</ele><time>2026-04-26T13:20:36.571Z</time></trkpt><trkpt lat="45.0415417" lon="7.2146043"><ele>1499.2857142857142</ele><time>2026-04-26T13:20:41.632Z</time></trkpt><trkpt lat="45.041522" lon="7.2146896"><ele>1497.0</ele><time>2026-04-26T13:20:53.575Z</time></trkpt><trkpt lat="45.0415083" lon="7.2147766"><ele>1497.0</ele><time>2026-04-26T13:21:00.65Z</time></trkpt><trkpt lat="45.0414439" lon="7.2148024"><ele>1497.0</ele><time>2026-04-26T13:21:11.643Z</time></trkpt><trkpt lat="45.0413766" lon="7.2147999"><ele>1497.0</ele><time>2026-04-26T13:21:20.57Z</time></trkpt><trkpt lat="45.0413434" lon="7.2148891"><ele>1497.0</ele><time>2026-04-26T13:21:31.623Z</time></trkpt><trkpt lat="45.0412929" lon="7.2149475"><ele>1497.0</ele><time>2026-04-26T13:21:42.569Z</time></trkpt><trkpt lat="45.0412488" lon="7.2150707"><ele>1497.0</ele><time>2026-04-26T13:22:23.593Z</time></trkpt><trkpt lat="45.0412285" lon="7.215165"><ele>1497.0</ele><time>2026-04-26T13:22:34.57Z</time></trkpt><trkpt lat="45.0411827" lon="7.215238"><ele>1494.5</ele><time>2026-04-26T13:22:43.573Z</time></trkpt><trkpt lat="45.0411212" lon="7.215265"><ele>1492.0</ele><time>2026-04-26T13:22:53.63Z</time></trkpt><trkpt lat="45.0410889" lon="7.2153436"><ele>1489.5</ele><time>2026-04-26T13:23:01.64Z</time></trkpt><trkpt lat="45.0410572" lon="7.2155071"><ele>1487.0</ele><time>2026-04-26T13:23:36.604Z</time></trkpt><trkpt lat="45.0410198" lon="7.2155821"><ele>1484.5</ele><time>2026-04-26T13:23:42.556Z</time></trkpt><trkpt lat="45.0409982" lon="7.2156736"><ele>1482.0</ele><time>2026-04-26T13:23:53.608Z</time></trkpt><trkpt lat="45.0409588" lon="7.2158057"><ele>1480.857142857143</ele><time>2026-04-26T13:24:34.631Z</time></trkpt><trkpt lat="45.0409195" lon="7.2158791"><ele>1479.7142857142858</ele><time>2026-04-26T13:24:44.62Z</time></trkpt><trkpt lat="45.0408897" lon="7.2159617"><ele>1478.5714285714287</ele><time>2026-04-26T13:24:49.614Z</time></trkpt><trkpt lat="45.0408685" lon="7.2160573"><ele>1477.4285714285716</ele><time>2026-04-26T13:24:56.629Z</time></trkpt><trkpt lat="45.0408547" lon="7.2161531"><ele>1476.2857142857142</ele><time>2026-04-26T13:25:04.6Z</time></trkpt><trkpt lat="45.0408287" lon="7.2162378"><ele>1475.1428571428573</ele><time>2026-04-26T13:25:15.546Z</time></trkpt><trkpt lat="45.0408031" lon="7.2163295"><ele>1474.0</ele><time>2026-04-26T13:25:23.61Z</time></trkpt><trkpt lat="45.0407957" lon="7.2164241"><ele>1470.4285714285716</ele><time>2026-04-26T13:25:30.637Z</time></trkpt><trkpt lat="45.0407635" lon="7.2165053"><ele>1466.857142857143</ele><time>2026-04-26T13:25:38.607Z</time></trkpt><trkpt lat="45.0407361" lon="7.2165912"><ele>1463.2857142857142</ele><time>2026-04-26T13:25:50.617Z</time></trkpt><trkpt lat="45.0407227" lon="7.2166805"><ele>1459.7142857142858</ele><time>2026-04-26T13:26:01.563Z</time></trkpt><trkpt lat="45.0406806" lon="7.2167591"><ele>1456.142857142857</ele><time>2026-04-26T13:27:14.573Z</time></trkpt><trkpt lat="45.0406233" lon="7.216808"><ele>1452.5714285714287</ele><time>2026-04-26T13:27:24.563Z</time></trkpt><trkpt lat="45.040596" lon="7.2168955"><ele>1449.0</ele><time>2026-04-26T13:27:34.593Z</time></trkpt><trkpt lat="45.0406029" lon="7.2169928"><ele>1449.0</ele><time>2026-04-26T13:27:41.567Z</time></trkpt><trkpt lat="45.0405842" lon="7.2170798"><ele>1449.0</ele><time>2026-04-26T13:27:51.556Z</time></trkpt><trkpt lat="45.0405594" lon="7.2171694"><ele>1449.0</ele><time>2026-04-26T13:28:04.627Z</time></trkpt><trkpt lat="45.04053" lon="7.2172494"><ele>1449.0</ele><time>2026-04-26T13:28:11.642Z</time></trkpt><trkpt lat="45.0404963" lon="7.2173396"><ele>1449.0</ele><time>2026-04-26T13:28:18.55Z</time></trkpt><trkpt lat="45.0404925" lon="7.2174341"><ele>1449.0</ele><time>2026-04-26T13:28:25.564Z</time></trkpt><trkpt lat="45.0404529" lon="7.2175088"><ele>1449.0</ele><time>2026-04-26T13:28:35.554Z</time></trkpt><trkpt lat="45.0404229" lon="7.2176061"><ele>1447.2857142857142</ele><time>2026-04-26T13:28:42.568Z</time></trkpt><trkpt lat="45.0403806" lon="7.2176732"><ele>1445.5714285714284</ele><time>2026-04-26T13:28:48.625Z</time></trkpt><trkpt lat="45.0403295" lon="7.2177381"><ele>1443.857142857143</ele><time>2026-04-26T13:28:58.615Z</time></trkpt><trkpt lat="45.0402756" lon="7.2178104"><ele>1442.142857142857</ele><time>2026-04-26T13:29:05.629Z</time></trkpt><trkpt lat="45.0402285" lon="7.2178831"><ele>1440.4285714285713</ele><time>2026-04-26T13:29:11.58Z</time></trkpt><trkpt lat="45.0401909" lon="7.2179549"><ele>1438.7142857142858</ele><time>2026-04-26T13:29:18.594Z</time></trkpt><trkpt lat="45.0401516" lon="7.2180365"><ele>1437.0</ele><time>2026-04-26T13:29:27.627Z</time></trkpt><trkpt lat="45.0400938" lon="7.2180967"><ele>1439.142857142857</ele><time>2026-04-26T13:29:34.641Z</time></trkpt><trkpt lat="45.0400295" lon="7.2181853"><ele>1441.2857142857142</ele><time>2026-04-26T13:30:14.6Z</time></trkpt><trkpt lat="45.0400019" lon="7.2182675"><ele>1443.4285714285713</ele><time>2026-04-26T13:30:19.499Z</time></trkpt><trkpt lat="45.0399454" lon="7.2183255"><ele>1445.5714285714284</ele><time>2026-04-26T13:30:24.589Z</time></trkpt><trkpt lat="45.0399005" lon="7.2183989"><ele>1447.7142857142858</ele><time>2026-04-26T13:30:34.579Z</time></trkpt><trkpt lat="45.0398663" lon="7.2184754"><ele>1449.8571428571427</ele><time>2026-04-26T13:30:43.495Z</time></trkpt><trkpt lat="45.0398525" lon="7.2185974"><ele>1452.0</ele><time>2026-04-26T13:30:57.64Z</time></trkpt><trkpt lat="45.0398492" lon="7.2186867"><ele>1446.5714285714284</ele><time>2026-04-26T13:31:06.567Z</time></trkpt><trkpt lat="45.0398456" lon="7.2187892"><ele>1441.142857142857</ele><time>2026-04-26T13:31:17.62Z</time></trkpt><trkpt lat="45.0398397" lon="7.2188838"><ele>1435.7142857142858</ele><time>2026-04-26T13:31:26.621Z</time></trkpt><trkpt lat="45.0398403" lon="7.218982"><ele>1430.2857142857142</ele><time>2026-04-26T13:31:35.579Z</time></trkpt><trkpt lat="45.0398071" lon="7.2190734"><ele>1424.857142857143</ele><time>2026-04-26T13:31:41.562Z</time></trkpt><trkpt lat="45.0398012" lon="7.2191656"><ele>1419.4285714285713</ele><time>2026-04-26T13:31:48.651Z</time></trkpt><trkpt lat="45.0397964" lon="7.2192572"><ele>1414.0</ele><time>2026-04-26T13:31:56.622Z</time></trkpt><trkpt lat="45.0397856" lon="7.2193451"><ele>1414.0</ele><time>2026-04-26T13:32:03.636Z</time></trkpt><trkpt lat="45.0397734" lon="7.2194481"><ele>1414.0</ele><time>2026-04-26T13:32:14.58Z</time></trkpt><trkpt lat="45.0397433" lon="7.2195351"><ele>1414.0</ele><time>2026-04-26T13:32:22.521Z</time></trkpt><trkpt lat="45.0397205" lon="7.219625"><ele>1414.0</ele><time>2026-04-26T13:32:32.546Z</time></trkpt><trkpt lat="45.0396885" lon="7.2197042"><ele>1414.0</ele><time>2026-04-26T13:32:39.66Z</time></trkpt><trkpt lat="45.0396566" lon="7.219784"><ele>1414.0</ele><time>2026-04-26T13:32:50.601Z</time></trkpt><trkpt lat="45.0396403" lon="7.2198744"><ele>1414.0</ele><time>2026-04-26T13:32:59.641Z</time></trkpt><trkpt lat="45.0396469" lon="7.2199732"><ele>1413.8333333333333</ele><time>2026-04-26T13:33:09.631Z</time></trkpt><trkpt lat="45.0396414" lon="7.2200622"><ele>1413.6666666666665</ele><time>2026-04-26T13:33:18.559Z</time></trkpt><trkpt lat="45.0395864" lon="7.2201243"><ele>1413.5</ele><time>2026-04-26T13:33:45.583Z</time></trkpt><trkpt lat="45.0395898" lon="7.2202161"><ele>1413.3333333333333</ele><time>2026-04-26T13:33:59.58Z</time></trkpt><trkpt lat="45.0395607" lon="7.2203303"><ele>1413.1666666666667</ele><time>2026-04-26T13:34:14.561Z</time></trkpt><trkpt lat="45.0394623" lon="7.2204576"><ele>1413.0</ele><time>2026-04-26T13:34:54.085Z</time></trkpt><trkpt lat="45.0393989" lon="7.2204639"><ele>1413.0</ele><time>2026-04-26T13:35:01.572Z</time></trkpt><trkpt lat="45.03935" lon="7.2205272"><ele>1413.0</ele><time>2026-04-26T13:35:08.586Z</time></trkpt><trkpt lat="45.0393649" lon="7.2206578"><ele>1413.0</ele><time>2026-04-26T13:35:34.623Z</time></trkpt><trkpt lat="45.0393528" lon="7.2207488"><ele>1413.0</ele><time>2026-04-26T13:35:42.594Z</time></trkpt><trkpt lat="45.0393181" lon="7.2208282"><ele>1413.0</ele><time>2026-04-26T13:35:52.583Z</time></trkpt><trkpt lat="45.0392991" lon="7.2210536"><ele>1413.0</ele><time>2026-04-26T13:36:09.587Z</time></trkpt><trkpt lat="45.0392897" lon="7.2212066"><ele>1413.0</ele><time>2026-04-26T13:36:27.547Z</time></trkpt><trkpt lat="45.0392905" lon="7.2212992"><ele>1413.0</ele><time>2026-04-26T13:36:31.61Z</time></trkpt><trkpt lat="45.0392739" lon="7.2213932"><ele>1413.0</ele><time>2026-04-26T13:36:38.6Z</time></trkpt><trkpt lat="45.0392645" lon="7.2214939"><ele>1413.0</ele><time>2026-04-26T13:36:46.625Z</time></trkpt><trkpt lat="45.0392447" lon="7.2215823"><ele>1413.0</ele><time>2026-04-26T13:36:56.559Z</time></trkpt><trkpt lat="45.0392213" lon="7.2216799"><ele>1413.0</ele><time>2026-04-26T13:37:04.637Z</time></trkpt><trkpt lat="45.0391994" lon="7.2217751"><ele>1413.0</ele><time>2026-04-26T13:37:14.627Z</time></trkpt><trkpt lat="45.0391731" lon="7.221865"><ele>1413.0</ele><time>2026-04-26T13:37:26.545Z</time></trkpt><trkpt lat="45.0391389" lon="7.2219995"><ele>1413.0</ele><time>2026-04-26T13:37:45.552Z</time></trkpt><trkpt lat="45.0391057" lon="7.2220765"><ele>1413.0</ele><time>2026-04-26T13:37:52.567Z</time></trkpt><trkpt lat="45.0390962" lon="7.2221683"><ele>1413.0</ele><time>2026-04-26T13:38:02.588Z</time></trkpt><trkpt lat="45.0390875" lon="7.2222636"><ele>1413.0</ele><time>2026-04-26T13:38:08.615Z</time></trkpt><trkpt lat="45.0390674" lon="7.2223609"><ele>1406.2857142857142</ele><time>2026-04-26T13:38:14.565Z</time></trkpt><trkpt lat="45.0390464" lon="7.2224541"><ele>1399.5714285714287</ele><time>2026-04-26T13:38:23.598Z</time></trkpt><trkpt lat="45.0390161" lon="7.222538"><ele>1392.857142857143</ele><time>2026-04-26T13:38:30.605Z</time></trkpt><trkpt lat="45.038984" lon="7.222626"><ele>1386.142857142857</ele><time>2026-04-26T13:38:37.566Z</time></trkpt><trkpt lat="45.0389563" lon="7.2227088"><ele>1379.4285714285713</ele><time>2026-04-26T13:38:44.545Z</time></trkpt><trkpt lat="45.0389318" lon="7.2227936"><ele>1372.7142857142858</ele><time>2026-04-26T13:38:52.611Z</time></trkpt><trkpt lat="45.0388807" lon="7.2228504"><ele>1366.0</ele><time>2026-04-26T13:39:07.596Z</time></trkpt><trkpt lat="45.0388465" lon="7.2229393"><ele>1366.0</ele><time>2026-04-26T13:39:15.566Z</time></trkpt><trkpt lat="45.0388334" lon="7.2230331"><ele>1366.0</ele><time>2026-04-26T13:39:24.599Z</time></trkpt><trkpt lat="45.0388173" lon="7.2231256"><ele>1366.0</ele><time>2026-04-26T13:39:31.546Z</time></trkpt><trkpt lat="45.0387728" lon="7.2231991"><ele>1366.0</ele><time>2026-04-26T13:39:41.603Z</time></trkpt><trkpt lat="45.0387432" lon="7.2232824"><ele>1366.0</ele><time>2026-04-26T13:39:49.565Z</time></trkpt><trkpt lat="45.0387199" lon="7.2233765"><ele>1366.0</ele><time>2026-04-26T13:39:56.587Z</time></trkpt><trkpt lat="45.0386856" lon="7.2234544"><ele>1366.0</ele><time>2026-04-26T13:40:05.62Z</time></trkpt><trkpt lat="45.0386299" lon="7.2235159"><ele>1366.5714285714287</ele><time>2026-04-26T13:40:13.606Z</time></trkpt><trkpt lat="45.0385905" lon="7.223587"><ele>1367.142857142857</ele><time>2026-04-26T13:40:25.599Z</time></trkpt><trkpt lat="45.0385616" lon="7.2237048"><ele>1367.7142857142858</ele><time>2026-04-26T13:40:42.602Z</time></trkpt><trkpt lat="45.0385177" lon="7.2237714"><ele>1368.2857142857142</ele><time>2026-04-26T13:40:49.616Z</time></trkpt><trkpt lat="45.0384642" lon="7.2238294"><ele>1368.857142857143</ele><time>2026-04-26T13:40:56.626Z</time></trkpt><trkpt lat="45.038429" lon="7.2239038"><ele>1369.4285714285713</ele><time>2026-04-26T13:41:03.643Z</time></trkpt><trkpt lat="45.0383748" lon="7.2239729"><ele>1370.0</ele><time>2026-04-26T13:41:10.672Z</time></trkpt><trkpt lat="45.038325" lon="7.2240298"><ele>1365.8333333333335</ele><time>2026-04-26T13:41:17.564Z</time></trkpt><trkpt lat="45.0382799" lon="7.224113"><ele>1361.6666666666667</ele><time>2026-04-26T13:41:25.566Z</time></trkpt><trkpt lat="45.0382407" lon="7.2241985"><ele>1357.5</ele><time>2026-04-26T13:41:34.565Z</time></trkpt><trkpt lat="45.0381966" lon="7.2242704"><ele>1353.3333333333333</ele><time>2026-04-26T13:41:41.588Z</time></trkpt><trkpt lat="45.0381659" lon="7.2243501"><ele>1349.1666666666665</ele><time>2026-04-26T13:41:48.549Z</time></trkpt><trkpt lat="45.038142" lon="7.224434"><ele>1345.0</ele><time>2026-04-26T13:41:55.609Z</time></trkpt><trkpt lat="45.0380756" lon="7.2245761"><ele>1345.0</ele><time>2026-04-26T13:42:20.581Z</time></trkpt><trkpt lat="45.0380403" lon="7.2246566"><ele>1345.0</ele><time>2026-04-26T13:42:25.577Z</time></trkpt><trkpt lat="45.0380026" lon="7.2247442"><ele>1345.0</ele><time>2026-04-26T13:42:35.566Z</time></trkpt><trkpt lat="45.0379691" lon="7.2248256"><ele>1345.0</ele><time>2026-04-26T13:42:41.624Z</time></trkpt><trkpt lat="45.037907" lon="7.2248725"><ele>1345.0</ele><time>2026-04-26T13:42:48.636Z</time></trkpt><trkpt lat="45.0378672" lon="7.2249451"><ele>1345.0</ele><time>2026-04-26T13:42:56.608Z</time></trkpt><trkpt lat="45.0378235" lon="7.225021"><ele>1345.0</ele><time>2026-04-26T13:43:03.589Z</time></trkpt><trkpt lat="45.0377683" lon="7.225086"><ele>1345.857142857143</ele><time>2026-04-26T13:43:10.635Z</time></trkpt><trkpt lat="45.0377251" lon="7.2251626"><ele>1346.7142857142858</ele><time>2026-04-26T13:43:17.524Z</time></trkpt><trkpt lat="45.0376935" lon="7.2252511"><ele>1347.5714285714284</ele><time>2026-04-26T13:43:24.556Z</time></trkpt><trkpt lat="45.0376501" lon="7.2253294"><ele>1348.4285714285716</ele><time>2026-04-26T13:43:32.633Z</time></trkpt><trkpt lat="45.0376105" lon="7.225408"><ele>1349.2857142857142</ele><time>2026-04-26T13:43:40.603Z</time></trkpt><trkpt lat="45.0375695" lon="7.225477"><ele>1350.142857142857</ele><time>2026-04-26T13:43:47.616Z</time></trkpt><trkpt lat="45.0375311" lon="7.2255513"><ele>1351.0</ele><time>2026-04-26T13:43:54.612Z</time></trkpt><trkpt lat="45.0374882" lon="7.2256205"><ele>1346.5714285714287</ele><time>2026-04-26T13:44:00.582Z</time></trkpt><trkpt lat="45.0374498" lon="7.2256952"><ele>1342.142857142857</ele><time>2026-04-26T13:44:09.606Z</time></trkpt><trkpt lat="45.0374174" lon="7.2257752"><ele>1337.7142857142858</ele><time>2026-04-26T13:44:15.566Z</time></trkpt><trkpt lat="45.0373586" lon="7.2258104"><ele>1333.2857142857142</ele><time>2026-04-26T13:44:24.598Z</time></trkpt><trkpt lat="45.0373264" lon="7.225889"><ele>1328.857142857143</ele><time>2026-04-26T13:44:32.57Z</time></trkpt><trkpt lat="45.0372935" lon="7.2259753"><ele>1324.4285714285716</ele><time>2026-04-26T13:44:39.583Z</time></trkpt><trkpt lat="45.0372497" lon="7.2260418"><ele>1320.0</ele><time>2026-04-26T13:44:45.64Z</time></trkpt><trkpt lat="45.0372126" lon="7.2261264"><ele>1320.0</ele><time>2026-04-26T13:44:52.549Z</time></trkpt><trkpt lat="45.0371759" lon="7.2262114"><ele>1320.0</ele><time>2026-04-26T13:45:00.625Z</time></trkpt><trkpt lat="45.0370957" lon="7.2262661"><ele>1320.0</ele><time>2026-04-26T13:45:15.609Z</time></trkpt><trkpt lat="45.0370043" lon="7.2262846"><ele>1320.0</ele><time>2026-04-26T13:47:53.632Z</time></trkpt><trkpt lat="45.0369964" lon="7.2261907"><ele>1320.0</ele><time>2026-04-26T13:47:58.628Z</time></trkpt><trkpt lat="45.0369884" lon="7.2260906"><ele>1320.0</ele><time>2026-04-26T13:48:07.554Z</time></trkpt><trkpt lat="45.0369911" lon="7.2260006"><ele>1320.0000000000002</ele><time>2026-04-26T13:48:13.611Z</time></trkpt><trkpt lat="45.0370213" lon="7.2259134"><ele>1320.0</ele><time>2026-04-26T13:48:22.546Z</time></trkpt><trkpt lat="45.0370194" lon="7.2258206"><ele>1320.0</ele><time>2026-04-26T13:48:32.635Z</time></trkpt><trkpt lat="45.037015" lon="7.2257304"><ele>1320.0</ele><time>2026-04-26T13:48:41.561Z</time></trkpt><trkpt lat="45.037" lon="7.2256388"><ele>1320.0</ele><time>2026-04-26T13:48:51.551Z</time></trkpt><trkpt lat="45.0370061" lon="7.225543"><ele>1320.0000000000002</ele><time>2026-04-26T13:49:13.549Z</time></trkpt><trkpt lat="45.0370252" lon="7.2254399"><ele>1320.0</ele><time>2026-04-26T13:49:18.65Z</time></trkpt><trkpt lat="45.0370316" lon="7.2253426"><ele>1319.7142857142858</ele><time>2026-04-26T13:49:29.596Z</time></trkpt><trkpt lat="45.0370406" lon="7.225247"><ele>1319.4285714285716</ele><time>2026-04-26T13:49:36.61Z</time></trkpt><trkpt lat="45.0370273" lon="7.2251522"><ele>1319.1428571428573</ele><time>2026-04-26T13:49:46.599Z</time></trkpt><trkpt lat="45.0370151" lon="7.2250451"><ele>1318.857142857143</ele><time>2026-04-26T13:49:56.589Z</time></trkpt><trkpt lat="45.0369947" lon="7.2249572"><ele>1318.5714285714284</ele><time>2026-04-26T13:50:08.469Z</time></trkpt><trkpt lat="45.0370101" lon="7.2248646"><ele>1318.2857142857144</ele><time>2026-04-26T13:50:23.582Z</time></trkpt><trkpt lat="45.0370105" lon="7.2247702"><ele>1318.0</ele><time>2026-04-26T13:50:39.628Z</time></trkpt><trkpt lat="45.037003" lon="7.2246705"><ele>1317.8333333333333</ele><time>2026-04-26T13:51:04.601Z</time></trkpt><trkpt lat="45.0369891" lon="7.2245825"><ele>1317.6666666666665</ele><time>2026-04-26T13:51:13.635Z</time></trkpt><trkpt lat="45.0369224" lon="7.224459"><ele>1317.5</ele><time>2026-04-26T13:51:40.628Z</time></trkpt><trkpt lat="45.0368514" lon="7.2243939"><ele>1317.3333333333333</ele><time>2026-04-26T13:51:54.546Z</time></trkpt><trkpt lat="45.0368088" lon="7.224304"><ele>1317.1666666666667</ele><time>2026-04-26T13:52:30.575Z</time></trkpt><trkpt lat="45.0367696" lon="7.2242313"><ele>1317.0</ele><time>2026-04-26T13:52:36.633Z</time></trkpt><trkpt lat="45.0367459" lon="7.2241157"><ele>1317.0</ele><time>2026-04-26T13:52:49.586Z</time></trkpt><trkpt lat="45.0367373" lon="7.2240146"><ele>1317.0</ele><time>2026-04-26T13:52:56.449Z</time></trkpt><trkpt lat="45.0367213" lon="7.2239204"><ele>1317.0</ele><time>2026-04-26T13:53:08.619Z</time></trkpt><trkpt lat="45.0366591" lon="7.2238993"><ele>1317.0</ele><time>2026-04-26T13:53:35.613Z</time></trkpt><trkpt lat="45.0365956" lon="7.2238708"><ele>1317.0</ele><time>2026-04-26T13:54:03.562Z</time></trkpt><trkpt lat="45.0364984" lon="7.2238651"><ele>1317.0</ele><time>2026-04-26T13:54:27.579Z</time></trkpt><trkpt lat="45.0364686" lon="7.2239482"><ele>1317.0</ele><time>2026-04-26T13:54:54.572Z</time></trkpt><trkpt lat="45.0364475" lon="7.2240387"><ele>1317.3333333333333</ele><time>2026-04-26T13:55:12.638Z</time></trkpt><trkpt lat="45.0364291" lon="7.2241382"><ele>1317.6666666666667</ele><time>2026-04-26T13:55:17.632Z</time></trkpt><trkpt lat="45.0364184" lon="7.2242287"><ele>1318.0</ele><time>2026-04-26T13:55:23.583Z</time></trkpt><trkpt lat="45.0363967" lon="7.2244155"><ele>1318.3333333333335</ele><time>2026-04-26T13:55:58.548Z</time></trkpt><trkpt lat="45.0363497" lon="7.224476"><ele>1318.6666666666667</ele><time>2026-04-26T13:56:24.581Z</time></trkpt><trkpt lat="45.0362874" lon="7.2245082"><ele>1319.0</ele><time>2026-04-26T13:56:30.548Z</time></trkpt><trkpt lat="45.0362544" lon="7.2245931"><ele>1318.9999999999998</ele><time>2026-04-26T13:58:25.484Z</time></trkpt><trkpt lat="45.0361969" lon="7.2246299"><ele>1319.0</ele><time>2026-04-26T13:58:33.593Z</time></trkpt><trkpt lat="45.0361455" lon="7.224686"><ele>1319.0</ele><time>2026-04-26T13:58:43.582Z</time></trkpt><trkpt lat="45.0361547" lon="7.2247783"><ele>1319.0</ele><time>2026-04-26T13:58:53.573Z</time></trkpt><trkpt lat="45.0361662" lon="7.224876"><ele>1319.0</ele><time>2026-04-26T13:58:59.63Z</time></trkpt><trkpt lat="45.036146" lon="7.2249671"><ele>1318.9999999999998</ele><time>2026-04-26T13:59:06.548Z</time></trkpt><trkpt lat="45.0361039" lon="7.2250468"><ele>1319.0</ele><time>2026-04-26T13:59:15.607Z</time></trkpt><trkpt lat="45.036076" lon="7.2251356"><ele>1316.6666666666667</ele><time>2026-04-26T13:59:37.57Z</time></trkpt><trkpt lat="45.036092" lon="7.2252329"><ele>1314.3333333333335</ele><time>2026-04-26T13:59:39.589Z</time></trkpt><trkpt lat="45.0360459" lon="7.2254142"><ele>1312.0</ele><time>2026-04-26T14:00:03.486Z</time></trkpt><trkpt lat="45.0360249" lon="7.2255152"><ele>1309.6666666666667</ele><time>2026-04-26T14:00:13.595Z</time></trkpt><trkpt lat="45.0359917" lon="7.2255955"><ele>1307.3333333333333</ele><time>2026-04-26T14:00:20.609Z</time></trkpt><trkpt lat="45.035933" lon="7.2256572"><ele>1305.0</ele><time>2026-04-26T14:00:32.618Z</time></trkpt><trkpt lat="45.0358873" lon="7.2257269"><ele>1302.9999999999998</ele><time>2026-04-26T14:00:40.588Z</time></trkpt><trkpt lat="45.035825" lon="7.2256851"><ele>1301.0</ele><time>2026-04-26T14:02:52.574Z</time></trkpt><trkpt lat="45.0357602" lon="7.2256757"><ele>1299.0</ele><time>2026-04-26T14:03:03.626Z</time></trkpt><trkpt lat="45.035721" lon="7.2257554"><ele>1297.0</ele><time>2026-04-26T14:03:10.549Z</time></trkpt><trkpt lat="45.0356602" lon="7.2257842"><ele>1295.0</ele><time>2026-04-26T14:03:18.61Z</time></trkpt><trkpt lat="45.0355953" lon="7.2257405"><ele>1292.9999999999998</ele><time>2026-04-26T14:03:30.619Z</time></trkpt><trkpt lat="45.0355345" lon="7.2257096"><ele>1291.0</ele><time>2026-04-26T14:03:37.632Z</time></trkpt><trkpt lat="45.0354711" lon="7.2257058"><ele>1291.0</ele><time>2026-04-26T14:03:49.64Z</time></trkpt><trkpt lat="45.0354007" lon="7.2257129"><ele>1291.0</ele><time>2026-04-26T14:04:18.549Z</time></trkpt><trkpt lat="45.0353358" lon="7.225736"><ele>1291.0</ele><time>2026-04-26T14:04:25.559Z</time></trkpt><trkpt lat="45.0352557" lon="7.2258436"><ele>1291.0</ele><time>2026-04-26T14:04:46.6Z</time></trkpt><trkpt lat="45.035205" lon="7.2259033"><ele>1291.0</ele><time>2026-04-26T14:05:12.636Z</time></trkpt><trkpt lat="45.0351412" lon="7.2259429"><ele>1291.0</ele><time>2026-04-26T14:05:16.567Z</time></trkpt><trkpt lat="45.0350885" lon="7.2260027"><ele>1290.9999999999998</ele><time>2026-04-26T14:05:28.575Z</time></trkpt><trkpt lat="45.0350351" lon="7.2260516"><ele>1291.0</ele><time>2026-04-26T14:05:35.589Z</time></trkpt><trkpt lat="45.0349759" lon="7.2260946"><ele>1291.0</ele><time>2026-04-26T14:05:45.546Z</time></trkpt><trkpt lat="45.0349202" lon="7.2261389"><ele>1291.0</ele><time>2026-04-26T14:05:56.631Z</time></trkpt><trkpt lat="45.0348463" lon="7.2262241"><ele>1291.0</ele><time>2026-04-26T14:06:20.647Z</time></trkpt><trkpt lat="45.0348222" lon="7.2263205"><ele>1290.9999999999998</ele><time>2026-04-26T14:06:24.579Z</time></trkpt><trkpt lat="45.0348034" lon="7.2264133"><ele>1291.0</ele><time>2026-04-26T14:06:32.584Z</time></trkpt><trkpt lat="45.0348082" lon="7.2265099"><ele>1291.1666666666665</ele><time>2026-04-26T14:06:41.582Z</time></trkpt><trkpt lat="45.0347734" lon="7.2265849"><ele>1291.3333333333333</ele><time>2026-04-26T14:06:59.549Z</time></trkpt><trkpt lat="45.0347604" lon="7.2266736"><ele>1291.5</ele><time>2026-04-26T14:07:13.568Z</time></trkpt><trkpt lat="45.034752" lon="7.2268016"><ele>1291.6666666666667</ele><time>2026-04-26T14:07:31.633Z</time></trkpt><trkpt lat="45.0347568" lon="7.2269752"><ele>1291.8333333333335</ele><time>2026-04-26T14:07:44.598Z</time></trkpt><trkpt lat="45.0347623" lon="7.2270693"><ele>1292.0</ele><time>2026-04-26T14:07:52.567Z</time></trkpt><trkpt lat="45.0347485" lon="7.227177"><ele>1292.0</ele><time>2026-04-26T14:08:00.644Z</time></trkpt><trkpt lat="45.0347095" lon="7.2272609"><ele>1292.0</ele><time>2026-04-26T14:08:06.595Z</time></trkpt><trkpt lat="45.0346669" lon="7.2273333"><ele>1292.0</ele><time>2026-04-26T14:08:14.565Z</time></trkpt><trkpt lat="45.0346457" lon="7.2274218"><ele>1292.0</ele><time>2026-04-26T14:08:27.636Z</time></trkpt><trkpt lat="45.0345908" lon="7.2274854"><ele>1292.0</ele><time>2026-04-26T14:08:40.6Z</time></trkpt><trkpt lat="45.034582" lon="7.2275758"><ele>1292.0</ele><time>2026-04-26T14:08:49.633Z</time></trkpt><trkpt lat="45.0345155" lon="7.2277289"><ele>1288.6666666666667</ele><time>2026-04-26T14:09:10.567Z</time></trkpt><trkpt lat="45.0344641" lon="7.2277901"><ele>1285.3333333333335</ele><time>2026-04-26T14:09:23.638Z</time></trkpt><trkpt lat="45.0343853" lon="7.227918"><ele>1282.0</ele><time>2026-04-26T14:09:48.609Z</time></trkpt><trkpt lat="45.0343289" lon="7.2279667"><ele>1278.6666666666667</ele><time>2026-04-26T14:09:54.561Z</time></trkpt><trkpt lat="45.0342899" lon="7.2280454"><ele>1275.3333333333333</ele><time>2026-04-26T14:10:03.594Z</time></trkpt><trkpt lat="45.0342456" lon="7.2281235"><ele>1272.0</ele><time>2026-04-26T14:10:10.607Z</time></trkpt><trkpt lat="45.03422" lon="7.2282081"><ele>1272.5714285714284</ele><time>2026-04-26T14:10:17.62Z</time></trkpt><trkpt lat="45.0342005" lon="7.2283065"><ele>1273.1428571428573</ele><time>2026-04-26T14:10:24.635Z</time></trkpt><trkpt lat="45.0341725" lon="7.2283881"><ele>1273.7142857142858</ele><time>2026-04-26T14:10:33.561Z</time></trkpt><trkpt lat="45.034126" lon="7.2284541"><ele>1274.2857142857142</ele><time>2026-04-26T14:10:46.633Z</time></trkpt><trkpt lat="45.0341032" lon="7.2285472"><ele>1274.8571428571427</ele><time>2026-04-26T14:10:50.565Z</time></trkpt><trkpt lat="45.0340495" lon="7.2286056"><ele>1275.4285714285716</ele><time>2026-04-26T14:10:59.598Z</time></trkpt><trkpt lat="45.0339941" lon="7.2286553"><ele>1276.0</ele><time>2026-04-26T14:11:08.631Z</time></trkpt><trkpt lat="45.0339322" lon="7.2286922"><ele>1276.0</ele><time>2026-04-26T14:11:18.491Z</time></trkpt><trkpt lat="45.0339008" lon="7.2287794"><ele>1276.0</ele><time>2026-04-26T14:11:26.591Z</time></trkpt><trkpt lat="45.0338926" lon="7.2288742"><ele>1276.0</ele><time>2026-04-26T14:11:35.624Z</time></trkpt><trkpt lat="45.0338589" lon="7.2289564"><ele>1276.0</ele><time>2026-04-26T14:11:43.594Z</time></trkpt><trkpt lat="45.0338096" lon="7.2290237"><ele>1276.0</ele><time>2026-04-26T14:11:51.495Z</time></trkpt><trkpt lat="45.0337522" lon="7.2290831"><ele>1276.0</ele><time>2026-04-26T14:12:00.597Z</time></trkpt><trkpt lat="45.0337075" lon="7.2291548"><ele>1276.0</ele><time>2026-04-26T14:12:08.568Z</time></trkpt><trkpt lat="45.0336426" lon="7.2292282"><ele>1272.0</ele><time>2026-04-26T14:12:24.666Z</time></trkpt><trkpt lat="45.0335869" lon="7.2292877"><ele>1268.0</ele><time>2026-04-26T14:12:35.56Z</time></trkpt><trkpt lat="45.0335338" lon="7.2293474"><ele>1264.0</ele><time>2026-04-26T14:12:42.574Z</time></trkpt><trkpt lat="45.0334777" lon="7.2293901"><ele>1260.0</ele><time>2026-04-26T14:12:51.507Z</time></trkpt><trkpt lat="45.0334159" lon="7.2294212"><ele>1256.0</ele><time>2026-04-26T14:12:58.62Z</time></trkpt><trkpt lat="45.0333549" lon="7.2294558"><ele>1252.0</ele><time>2026-04-26T14:13:10.629Z</time></trkpt><trkpt lat="45.0332983" lon="7.2295012"><ele>1248.0</ele><time>2026-04-26T14:13:19.555Z</time></trkpt><trkpt lat="45.0332344" lon="7.2295148"><ele>1248.0</ele><time>2026-04-26T14:13:30.976Z</time></trkpt><trkpt lat="45.0331775" lon="7.2295625"><ele>1248.0</ele><time>2026-04-26T14:13:38.635Z</time></trkpt><trkpt lat="45.0331288" lon="7.2296372"><ele>1248.0</ele><time>2026-04-26T14:13:44.586Z</time></trkpt><trkpt lat="45.0330905" lon="7.2297124"><ele>1248.0</ele><time>2026-04-26T14:13:54.65Z</time></trkpt><trkpt lat="45.0330278" lon="7.2297561"><ele>1248.0</ele><time>2026-04-26T14:14:02.546Z</time></trkpt><trkpt lat="45.0329575" lon="7.2297676"><ele>1248.0</ele><time>2026-04-26T14:14:10.621Z</time></trkpt><trkpt lat="45.0328912" lon="7.2297492"><ele>1248.0</ele><time>2026-04-26T14:14:20.611Z</time></trkpt><trkpt lat="45.0328331" lon="7.2297873"><ele>1244.0</ele><time>2026-04-26T14:14:28.627Z</time></trkpt><trkpt lat="45.0327768" lon="7.2298395"><ele>1240.0</ele><time>2026-04-26T14:14:35.595Z</time></trkpt><trkpt lat="45.0327309" lon="7.2299139"><ele>1236.0</ele><time>2026-04-26T14:14:43.566Z</time></trkpt><trkpt lat="45.0326849" lon="7.2299788"><ele>1232.0</ele><time>2026-04-26T14:14:49.622Z</time></trkpt><trkpt lat="45.032611" lon="7.2301167"><ele>1228.0</ele><time>2026-04-26T14:15:12.577Z</time></trkpt><trkpt lat="45.032566" lon="7.2301929"><ele>1224.0</ele><time>2026-04-26T14:15:18.633Z</time></trkpt><trkpt lat="45.0325324" lon="7.2302684"><ele>1224.0</ele><time>2026-04-26T14:15:27.561Z</time></trkpt><trkpt lat="45.032479" lon="7.2303206"><ele>1224.0</ele><time>2026-04-26T14:15:36.593Z</time></trkpt><trkpt lat="45.0324353" lon="7.2303948"><ele>1224.0</ele><time>2026-04-26T14:15:43.607Z</time></trkpt><trkpt lat="45.032394" lon="7.2304621"><ele>1224.0</ele><time>2026-04-26T14:15:51.578Z</time></trkpt><trkpt lat="45.0323569" lon="7.2305391"><ele>1224.0</ele><time>2026-04-26T14:16:01.566Z</time></trkpt><trkpt lat="45.0323043" lon="7.2305983"><ele>1224.0</ele><time>2026-04-26T14:16:08.581Z</time></trkpt><trkpt lat="45.0322344" lon="7.2306148"><ele>1224.0</ele><time>2026-04-26T14:16:16.586Z</time></trkpt><trkpt lat="45.0321759" lon="7.2306505"><ele>1221.7142857142858</ele><time>2026-04-26T14:16:24.527Z</time></trkpt><trkpt lat="45.0321202" lon="7.230704"><ele>1219.4285714285716</ele><time>2026-04-26T14:16:33.553Z</time></trkpt><trkpt lat="45.0320645" lon="7.2307663"><ele>1217.1428571428573</ele><time>2026-04-26T14:16:44.628Z</time></trkpt><trkpt lat="45.0320059" lon="7.2308084"><ele>1214.857142857143</ele><time>2026-04-26T14:16:50.555Z</time></trkpt><trkpt lat="45.0319545" lon="7.2308729"><ele>1212.5714285714287</ele><time>2026-04-26T14:16:56.613Z</time></trkpt><trkpt lat="45.0318906" lon="7.2309111"><ele>1210.2857142857144</ele><time>2026-04-26T14:17:03.585Z</time></trkpt><trkpt lat="45.0318264" lon="7.2309405"><ele>1208.0</ele><time>2026-04-26T14:17:12.546Z</time></trkpt><trkpt lat="45.0317737" lon="7.2309945"><ele>1208.0</ele><time>2026-04-26T14:17:19.566Z</time></trkpt><trkpt lat="45.0317254" lon="7.2310852"><ele>1208.0</ele><time>2026-04-26T14:17:24.785Z</time></trkpt><trkpt lat="45.0316627" lon="7.2311325"><ele>1208.0</ele><time>2026-04-26T14:17:31.568Z</time></trkpt><trkpt lat="45.0316077" lon="7.2311814"><ele>1208.0</ele><time>2026-04-26T14:17:38.589Z</time></trkpt><trkpt lat="45.0315307" lon="7.2313558"><ele>1208.0</ele><time>2026-04-26T14:18:02.64Z</time></trkpt><trkpt lat="45.0315261" lon="7.2314489"><ele>1208.0</ele><time>2026-04-26T14:18:17.624Z</time></trkpt><trkpt lat="45.0315542" lon="7.2315329"><ele>1203.2857142857144</ele><time>2026-04-26T14:18:28.569Z</time></trkpt><trkpt lat="45.0315326" lon="7.2316742"><ele>1198.5714285714287</ele><time>2026-04-26T14:18:53.546Z</time></trkpt><trkpt lat="45.0315152" lon="7.2317708"><ele>1193.857142857143</ele><time>2026-04-26T14:19:01.619Z</time></trkpt><trkpt lat="45.0315355" lon="7.2318591"><ele>1189.1428571428573</ele><time>2026-04-26T14:19:13.628Z</time></trkpt><trkpt lat="45.0315289" lon="7.2319478"><ele>1184.4285714285716</ele><time>2026-04-26T14:19:23.617Z</time></trkpt><trkpt lat="45.0314819" lon="7.2320201"><ele>1179.7142857142858</ele><time>2026-04-26T14:19:35.625Z</time></trkpt><trkpt lat="45.0314352" lon="7.2320865"><ele>1175.0</ele><time>2026-04-26T14:19:43.595Z</time></trkpt><trkpt lat="45.0313733" lon="7.2320379"><ele>1175.0</ele><time>2026-04-26T14:22:48.543Z</time></trkpt><trkpt lat="45.0313207" lon="7.2319751"><ele>1175.0</ele><time>2026-04-26T14:23:04.604Z</time></trkpt><trkpt lat="45.0312554" lon="7.2319333"><ele>1175.0</ele><time>2026-04-26T14:23:13.641Z</time></trkpt><trkpt lat="45.0311849" lon="7.2319123"><ele>1175.0</ele><time>2026-04-26T14:23:20.596Z</time></trkpt><trkpt lat="45.0312531" lon="7.2319544"><ele>1175.0</ele><time>2026-04-26T14:26:17.547Z</time></trkpt><trkpt lat="45.0313192" lon="7.2319358"><ele>1175.0</ele><time>2026-04-26T14:26:24.556Z</time></trkpt><trkpt lat="45.0312743" lon="7.2318644"><ele>1175.0</ele><time>2026-04-26T14:26:30.614Z</time></trkpt><trkpt lat="45.0312671" lon="7.2319634"><ele>1175.0</ele><time>2026-04-26T14:27:13.549Z</time></trkpt><trkpt lat="45.0311988" lon="7.2319178"><ele>1175.0</ele><time>2026-04-26T14:27:22.583Z</time></trkpt><trkpt lat="45.0311317" lon="7.2318899"><ele>1175.0</ele><time>2026-04-26T14:27:28.641Z</time></trkpt><trkpt lat="45.031067" lon="7.2319186"><ele>1175.0</ele><time>2026-04-26T14:27:42.604Z</time></trkpt><trkpt lat="45.031073" lon="7.2320119"><ele>1175.0</ele><time>2026-04-26T14:27:54.573Z</time></trkpt><trkpt lat="45.0311328" lon="7.2320626"><ele>1175.0</ele><time>2026-04-26T14:29:15.528Z</time></trkpt><trkpt lat="45.0311957" lon="7.2321211"><ele>1175.0</ele><time>2026-04-26T14:29:20.55Z</time></trkpt><trkpt lat="45.0312465" lon="7.2321943"><ele>1175.0</ele><time>2026-04-26T14:29:25.546Z</time></trkpt><trkpt lat="45.0313088" lon="7.2322371"><ele>1175.0</ele><time>2026-04-26T14:29:30.543Z</time></trkpt><trkpt lat="45.0313683" lon="7.2322047"><ele>1175.0</ele><time>2026-04-26T14:29:35.642Z</time></trkpt><trkpt lat="45.0314283" lon="7.2321755"><ele>1175.0</ele><time>2026-04-26T14:29:40.566Z</time></trkpt><trkpt lat="45.0314927" lon="7.2322068"><ele>1175.0</ele><time>2026-04-26T14:29:46.589Z</time></trkpt></trkseg></trk></gpx>